<?xml version="1.0" encoding="UTF-8" standalone="no" ?>
<gpx xmlns="http://www.topografix.com/GPX/1/1" xmlns:xsi="http://www.w3.org/2001/XMLSchema-instance" xsi:schemaLocation="http://www.topografix.com/GPX/1/1 http://www.topografix.com/GPX/1/1/gpx.xsd" version="1.1" creator="VisuGPX - https://www.visugpx.com">
  <metadata>
    <name>Pic de Campsaure et Entecade</name>
    <desc><![CDATA[Pic de Campsaure à partir du Col de Portillon option Entecade]]></desc>
  </metadata>
  <trk>
    <name><![CDATA[aubas-entecade]]></name>
    <trkseg>
      <trkpt lat="42.75735" lon="0.65162">
        <ele>1581.9</ele>
        <time>2016-10-21T04:51:58Z</time>
      </trkpt>
      <trkpt lat="42.75742" lon="0.65177">
        <ele>1584</ele>
        <time>2016-10-21T04:52:19Z</time>
      </trkpt>
      <trkpt lat="42.75742" lon="0.65191">
        <ele>1584.7</ele>
        <time>2016-10-21T04:52:27Z</time>
      </trkpt>
      <trkpt lat="42.75742" lon="0.65208">
        <ele>1585.2</ele>
        <time>2016-10-21T04:52:35Z</time>
      </trkpt>
      <trkpt lat="42.75739" lon="0.65227">
        <ele>1586.4</ele>
        <time>2016-10-21T04:52:45Z</time>
      </trkpt>
      <trkpt lat="42.75734" lon="0.65238">
        <ele>1587.9</ele>
        <time>2016-10-21T04:53:03Z</time>
      </trkpt>
      <trkpt lat="42.75725" lon="0.65228">
        <ele>1588.1</ele>
        <time>2016-10-21T04:53:15Z</time>
      </trkpt>
      <trkpt lat="42.75722" lon="0.65211">
        <ele>1589.3</ele>
        <time>2016-10-21T04:53:29Z</time>
      </trkpt>
      <trkpt lat="42.75714" lon="0.65193">
        <ele>1590.8</ele>
        <time>2016-10-21T04:53:45Z</time>
      </trkpt>
      <trkpt lat="42.75708" lon="0.65176">
        <ele>1591.6</ele>
        <time>2016-10-21T04:53:56Z</time>
      </trkpt>
      <trkpt lat="42.757" lon="0.65165">
        <ele>1592.7</ele>
        <time>2016-10-21T04:54:06Z</time>
      </trkpt>
      <trkpt lat="42.75695" lon="0.65154">
        <ele>1593.2</ele>
        <time>2016-10-21T04:54:14Z</time>
      </trkpt>
      <trkpt lat="42.75692" lon="0.65141">
        <ele>1594</ele>
        <time>2016-10-21T04:54:22Z</time>
      </trkpt>
      <trkpt lat="42.75686" lon="0.65133">
        <ele>1595.6</ele>
        <time>2016-10-21T04:54:33Z</time>
      </trkpt>
      <trkpt lat="42.75678" lon="0.65147">
        <ele>1598</ele>
        <time>2016-10-21T04:54:47Z</time>
      </trkpt>
      <trkpt lat="42.75681" lon="0.65161">
        <ele>1599.6</ele>
        <time>2016-10-21T04:54:59Z</time>
      </trkpt>
      <trkpt lat="42.75685" lon="0.65173">
        <ele>1600.6</ele>
        <time>2016-10-21T04:55:08Z</time>
      </trkpt>
      <trkpt lat="42.75687" lon="0.65187">
        <ele>1602</ele>
        <time>2016-10-21T04:55:20Z</time>
      </trkpt>
      <trkpt lat="42.75691" lon="0.65201">
        <ele>1602.8</ele>
        <time>2016-10-21T04:55:29Z</time>
      </trkpt>
      <trkpt lat="42.75693" lon="0.65213">
        <ele>1603.6</ele>
        <time>2016-10-21T04:55:37Z</time>
      </trkpt>
      <trkpt lat="42.75692" lon="0.65226">
        <ele>1604.7</ele>
        <time>2016-10-21T04:55:47Z</time>
      </trkpt>
      <trkpt lat="42.75692" lon="0.65238">
        <ele>1606.1</ele>
        <time>2016-10-21T04:55:58Z</time>
      </trkpt>
      <trkpt lat="42.7569" lon="0.6525">
        <ele>1610.1</ele>
        <time>2016-10-21T04:57:26Z</time>
      </trkpt>
      <trkpt lat="42.75697" lon="0.65265">
        <ele>1611.3</ele>
        <time>2016-10-21T04:57:39Z</time>
      </trkpt>
      <trkpt lat="42.757" lon="0.65277">
        <ele>1612.5</ele>
        <time>2016-10-21T04:57:50Z</time>
      </trkpt>
      <trkpt lat="42.7569" lon="0.65286">
        <ele>1614.4</ele>
        <time>2016-10-21T04:58:04Z</time>
      </trkpt>
      <trkpt lat="42.75683" lon="0.65276">
        <ele>1616.2</ele>
        <time>2016-10-21T04:58:17Z</time>
      </trkpt>
      <trkpt lat="42.7568" lon="0.65265">
        <ele>1617.2</ele>
        <time>2016-10-21T04:58:26Z</time>
      </trkpt>
      <trkpt lat="42.75678" lon="0.65251">
        <ele>1618.5</ele>
        <time>2016-10-21T04:58:35Z</time>
      </trkpt>
      <trkpt lat="42.75673" lon="0.6524">
        <ele>1619.9</ele>
        <time>2016-10-21T04:58:46Z</time>
      </trkpt>
      <trkpt lat="42.75664" lon="0.65218">
        <ele>1621.3</ele>
        <time>2016-10-21T04:59:01Z</time>
      </trkpt>
      <trkpt lat="42.75657" lon="0.65205">
        <ele>1622.5</ele>
        <time>2016-10-21T04:59:10Z</time>
      </trkpt>
      <trkpt lat="42.75651" lon="0.65194">
        <ele>1623.8</ele>
        <time>2016-10-21T04:59:19Z</time>
      </trkpt>
      <trkpt lat="42.75644" lon="0.65183">
        <ele>1625</ele>
        <time>2016-10-21T04:59:29Z</time>
      </trkpt>
      <trkpt lat="42.75636" lon="0.65173">
        <ele>1626.2</ele>
        <time>2016-10-21T04:59:40Z</time>
      </trkpt>
      <trkpt lat="42.7563" lon="0.65169">
        <ele>1627.9</ele>
        <time>2016-10-21T04:59:54Z</time>
      </trkpt>
      <trkpt lat="42.75621" lon="0.65168">
        <ele>1632</ele>
        <time>2016-10-21T05:00:13Z</time>
      </trkpt>
      <trkpt lat="42.75611" lon="0.65168">
        <ele>1637.1</ele>
        <time>2016-10-21T05:00:37Z</time>
      </trkpt>
      <trkpt lat="42.75601" lon="0.65169">
        <ele>1643</ele>
        <time>2016-10-21T05:01:48Z</time>
      </trkpt>
      <trkpt lat="42.75593" lon="0.65166">
        <ele>1646.5</ele>
        <time>2016-10-21T05:02:04Z</time>
      </trkpt>
      <trkpt lat="42.75585" lon="0.65158">
        <ele>1650.1</ele>
        <time>2016-10-21T05:02:20Z</time>
      </trkpt>
      <trkpt lat="42.75576" lon="0.65161">
        <ele>1653.4</ele>
        <time>2016-10-21T05:02:40Z</time>
      </trkpt>
      <trkpt lat="42.75567" lon="0.65155">
        <ele>1655.1</ele>
        <time>2016-10-21T05:02:58Z</time>
      </trkpt>
      <trkpt lat="42.7556" lon="0.65155">
        <ele>1657.4</ele>
        <time>2016-10-21T05:04:52Z</time>
      </trkpt>
      <trkpt lat="42.75553" lon="0.65153">
        <ele>1660.2</ele>
        <time>2016-10-21T05:05:09Z</time>
      </trkpt>
      <trkpt lat="42.75548" lon="0.65141">
        <ele>1662.8</ele>
        <time>2016-10-21T05:05:23Z</time>
      </trkpt>
      <trkpt lat="42.75543" lon="0.65132">
        <ele>1666.1</ele>
        <time>2016-10-21T05:05:40Z</time>
      </trkpt>
      <trkpt lat="42.75538" lon="0.65119">
        <ele>1669.5</ele>
        <time>2016-10-21T05:05:56Z</time>
      </trkpt>
      <trkpt lat="42.75532" lon="0.65112">
        <ele>1671.8</ele>
        <time>2016-10-21T05:06:17Z</time>
      </trkpt>
      <trkpt lat="42.75528" lon="0.651">
        <ele>1674</ele>
        <time>2016-10-21T05:06:31Z</time>
      </trkpt>
      <trkpt lat="42.75521" lon="0.65092">
        <ele>1676.8</ele>
        <time>2016-10-21T05:06:51Z</time>
      </trkpt>
      <trkpt lat="42.75516" lon="0.6508">
        <ele>1680.9</ele>
        <time>2016-10-21T05:07:09Z</time>
      </trkpt>
      <trkpt lat="42.7551" lon="0.65071">
        <ele>1685.4</ele>
        <time>2016-10-21T05:07:40Z</time>
      </trkpt>
      <trkpt lat="42.75503" lon="0.65061">
        <ele>1688.9</ele>
        <time>2016-10-21T05:07:59Z</time>
      </trkpt>
      <trkpt lat="42.75498" lon="0.65051">
        <ele>1691.3</ele>
        <time>2016-10-21T05:08:12Z</time>
      </trkpt>
      <trkpt lat="42.75491" lon="0.65044">
        <ele>1693.4</ele>
        <time>2016-10-21T05:08:25Z</time>
      </trkpt>
      <trkpt lat="42.75483" lon="0.65037">
        <ele>1695.2</ele>
        <time>2016-10-21T05:08:40Z</time>
      </trkpt>
      <trkpt lat="42.75476" lon="0.65029">
        <ele>1697.9</ele>
        <time>2016-10-21T05:08:58Z</time>
      </trkpt>
      <trkpt lat="42.75469" lon="0.65022">
        <ele>1700.4</ele>
        <time>2016-10-21T05:09:21Z</time>
      </trkpt>
      <trkpt lat="42.75461" lon="0.65015">
        <ele>1702.8</ele>
        <time>2016-10-21T05:09:40Z</time>
      </trkpt>
      <trkpt lat="42.75452" lon="0.65008">
        <ele>1705.2</ele>
        <time>2016-10-21T05:09:57Z</time>
      </trkpt>
      <trkpt lat="42.75445" lon="0.65004">
        <ele>1708.7</ele>
        <time>2016-10-21T05:10:14Z</time>
      </trkpt>
      <trkpt lat="42.75438" lon="0.64995">
        <ele>1712.4</ele>
        <time>2016-10-21T05:10:32Z</time>
      </trkpt>
      <trkpt lat="42.7543" lon="0.64991">
        <ele>1716.1</ele>
        <time>2016-10-21T05:10:52Z</time>
      </trkpt>
      <trkpt lat="42.75423" lon="0.64984">
        <ele>1718.9</ele>
        <time>2016-10-21T05:11:09Z</time>
      </trkpt>
      <trkpt lat="42.75414" lon="0.64979">
        <ele>1721.6</ele>
        <time>2016-10-21T05:11:25Z</time>
      </trkpt>
      <trkpt lat="42.75405" lon="0.64976">
        <ele>1724.2</ele>
        <time>2016-10-21T05:11:41Z</time>
      </trkpt>
      <trkpt lat="42.75396" lon="0.64974">
        <ele>1726.3</ele>
        <time>2016-10-21T05:11:56Z</time>
      </trkpt>
      <trkpt lat="42.75387" lon="0.6497">
        <ele>1728.2</ele>
        <time>2016-10-21T05:12:10Z</time>
      </trkpt>
      <trkpt lat="42.75379" lon="0.64971">
        <ele>1730.1</ele>
        <time>2016-10-21T05:12:23Z</time>
      </trkpt>
      <trkpt lat="42.75371" lon="0.64972">
        <ele>1731.8</ele>
        <time>2016-10-21T05:12:35Z</time>
      </trkpt>
      <trkpt lat="42.75361" lon="0.64973">
        <ele>1733.8</ele>
        <time>2016-10-21T05:12:49Z</time>
      </trkpt>
      <trkpt lat="42.75351" lon="0.64973">
        <ele>1736.8</ele>
        <time>2016-10-21T05:13:02Z</time>
      </trkpt>
      <trkpt lat="42.75341" lon="0.64971">
        <ele>1738.2</ele>
        <time>2016-10-21T05:13:12Z</time>
      </trkpt>
      <trkpt lat="42.75332" lon="0.64968">
        <ele>1739.4</ele>
        <time>2016-10-21T05:13:22Z</time>
      </trkpt>
      <trkpt lat="42.75324" lon="0.64967">
        <ele>1740.6</ele>
        <time>2016-10-21T05:13:33Z</time>
      </trkpt>
      <trkpt lat="42.75315" lon="0.64969">
        <ele>1741.9</ele>
        <time>2016-10-21T05:13:45Z</time>
      </trkpt>
      <trkpt lat="42.75306" lon="0.6497">
        <ele>1743</ele>
        <time>2016-10-21T05:13:56Z</time>
      </trkpt>
      <trkpt lat="42.75298" lon="0.64972">
        <ele>1744.1</ele>
        <time>2016-10-21T05:14:07Z</time>
      </trkpt>
      <trkpt lat="42.75289" lon="0.64974">
        <ele>1745.8</ele>
        <time>2016-10-21T05:14:19Z</time>
      </trkpt>
      <trkpt lat="42.75279" lon="0.64975">
        <ele>1747.1</ele>
        <time>2016-10-21T05:14:31Z</time>
      </trkpt>
      <trkpt lat="42.7527" lon="0.64979">
        <ele>1748.6</ele>
        <time>2016-10-21T05:14:44Z</time>
      </trkpt>
      <trkpt lat="42.75262" lon="0.64982">
        <ele>1750.5</ele>
        <time>2016-10-21T05:15:00Z</time>
      </trkpt>
      <trkpt lat="42.75255" lon="0.64989">
        <ele>1753.3</ele>
        <time>2016-10-21T05:15:19Z</time>
      </trkpt>
      <trkpt lat="42.75247" lon="0.64998">
        <ele>1756.6</ele>
        <time>2016-10-21T05:15:38Z</time>
      </trkpt>
      <trkpt lat="42.75238" lon="0.65005">
        <ele>1759.3</ele>
        <time>2016-10-21T05:15:56Z</time>
      </trkpt>
      <trkpt lat="42.75231" lon="0.65014">
        <ele>1761.8</ele>
        <time>2016-10-21T05:16:09Z</time>
      </trkpt>
      <trkpt lat="42.75226" lon="0.65024">
        <ele>1765</ele>
        <time>2016-10-21T05:16:26Z</time>
      </trkpt>
      <trkpt lat="42.75221" lon="0.65035">
        <ele>1767.9</ele>
        <time>2016-10-21T05:16:43Z</time>
      </trkpt>
      <trkpt lat="42.75215" lon="0.65045">
        <ele>1772.1</ele>
        <time>2016-10-21T05:17:04Z</time>
      </trkpt>
      <trkpt lat="42.75214" lon="0.65057">
        <ele>1776.6</ele>
        <time>2016-10-21T05:17:28Z</time>
      </trkpt>
      <trkpt lat="42.75213" lon="0.6507">
        <ele>1779.7</ele>
        <time>2016-10-21T05:17:46Z</time>
      </trkpt>
      <trkpt lat="42.75209" lon="0.6508">
        <ele>1782.8</ele>
        <time>2016-10-21T05:18:07Z</time>
      </trkpt>
      <trkpt lat="42.75203" lon="0.6509">
        <ele>1786.3</ele>
        <time>2016-10-21T05:18:27Z</time>
      </trkpt>
      <trkpt lat="42.752" lon="0.65102">
        <ele>1789.9</ele>
        <time>2016-10-21T05:18:47Z</time>
      </trkpt>
      <trkpt lat="42.75197" lon="0.65113">
        <ele>1793.1</ele>
        <time>2016-10-21T05:19:07Z</time>
      </trkpt>
      <trkpt lat="42.75191" lon="0.65123">
        <ele>1795.8</ele>
        <time>2016-10-21T05:19:27Z</time>
      </trkpt>
      <trkpt lat="42.75184" lon="0.6513">
        <ele>1798.6</ele>
        <time>2016-10-21T05:19:46Z</time>
      </trkpt>
      <trkpt lat="42.75179" lon="0.65141">
        <ele>1801.7</ele>
        <time>2016-10-21T05:20:05Z</time>
      </trkpt>
      <trkpt lat="42.75174" lon="0.65152">
        <ele>1805.7</ele>
        <time>2016-10-21T05:20:25Z</time>
      </trkpt>
      <trkpt lat="42.75172" lon="0.65163">
        <ele>1809.2</ele>
        <time>2016-10-21T05:20:44Z</time>
      </trkpt>
      <trkpt lat="42.75166" lon="0.65171">
        <ele>1813</ele>
        <time>2016-10-21T05:21:07Z</time>
      </trkpt>
      <trkpt lat="42.75161" lon="0.65178">
        <ele>1816.4</ele>
        <time>2016-10-21T05:21:41Z</time>
      </trkpt>
      <trkpt lat="42.7516" lon="0.6519">
        <ele>1820.8</ele>
        <time>2016-10-21T05:22:04Z</time>
      </trkpt>
      <trkpt lat="42.75156" lon="0.652">
        <ele>1825.1</ele>
        <time>2016-10-21T05:22:29Z</time>
      </trkpt>
      <trkpt lat="42.75156" lon="0.65211">
        <ele>1828.5</ele>
        <time>2016-10-21T05:22:52Z</time>
      </trkpt>
      <trkpt lat="42.75158" lon="0.65222">
        <ele>1831.7</ele>
        <time>2016-10-21T05:23:17Z</time>
      </trkpt>
      <trkpt lat="42.75157" lon="0.6523">
        <ele>1835.3</ele>
        <time>2016-10-21T05:23:37Z</time>
      </trkpt>
      <trkpt lat="42.75156" lon="0.65242">
        <ele>1838.6</ele>
        <time>2016-10-21T05:23:58Z</time>
      </trkpt>
      <trkpt lat="42.75153" lon="0.65252">
        <ele>1842.6</ele>
        <time>2016-10-21T05:24:21Z</time>
      </trkpt>
      <trkpt lat="42.75149" lon="0.65259">
        <ele>1846</ele>
        <time>2016-10-21T05:24:39Z</time>
      </trkpt>
      <trkpt lat="42.75151" lon="0.6527">
        <ele>1849.9</ele>
        <time>2016-10-21T05:24:59Z</time>
      </trkpt>
      <trkpt lat="42.75151" lon="0.6528">
        <ele>1853.7</ele>
        <time>2016-10-21T05:25:28Z</time>
      </trkpt>
      <trkpt lat="42.75152" lon="0.65291">
        <ele>1857.2</ele>
        <time>2016-10-21T05:25:49Z</time>
      </trkpt>
      <trkpt lat="42.75153" lon="0.65301">
        <ele>1860.2</ele>
        <time>2016-10-21T05:26:13Z</time>
      </trkpt>
      <trkpt lat="42.75152" lon="0.65307">
        <ele>1862.3</ele>
        <time>2016-10-21T05:27:19Z</time>
      </trkpt>
      <trkpt lat="42.75153" lon="0.65317">
        <ele>1865.7</ele>
        <time>2016-10-21T05:27:42Z</time>
      </trkpt>
      <trkpt lat="42.7515" lon="0.65328">
        <ele>1869.4</ele>
        <time>2016-10-21T05:28:04Z</time>
      </trkpt>
      <trkpt lat="42.75152" lon="0.65339">
        <ele>1872.9</ele>
        <time>2016-10-21T05:28:28Z</time>
      </trkpt>
      <trkpt lat="42.75154" lon="0.65348">
        <ele>1875.4</ele>
        <time>2016-10-21T05:28:52Z</time>
      </trkpt>
      <trkpt lat="42.75153" lon="0.6536">
        <ele>1879.5</ele>
        <time>2016-10-21T05:29:14Z</time>
      </trkpt>
      <trkpt lat="42.75152" lon="0.65373">
        <ele>1883</ele>
        <time>2016-10-21T05:29:35Z</time>
      </trkpt>
      <trkpt lat="42.75152" lon="0.65385">
        <ele>1886.4</ele>
        <time>2016-10-21T05:29:56Z</time>
      </trkpt>
      <trkpt lat="42.75151" lon="0.65397">
        <ele>1890.5</ele>
        <time>2016-10-21T05:30:21Z</time>
      </trkpt>
      <trkpt lat="42.75149" lon="0.65407">
        <ele>1894.2</ele>
        <time>2016-10-21T05:30:46Z</time>
      </trkpt>
      <trkpt lat="42.75144" lon="0.65417">
        <ele>1897.8</ele>
        <time>2016-10-21T05:31:09Z</time>
      </trkpt>
      <trkpt lat="42.75139" lon="0.65427">
        <ele>1901.4</ele>
        <time>2016-10-21T05:31:31Z</time>
      </trkpt>
      <trkpt lat="42.75135" lon="0.65439">
        <ele>1905.5</ele>
        <time>2016-10-21T05:31:56Z</time>
      </trkpt>
      <trkpt lat="42.75132" lon="0.6545">
        <ele>1909.3</ele>
        <time>2016-10-21T05:32:20Z</time>
      </trkpt>
      <trkpt lat="42.7513" lon="0.65461">
        <ele>1912.7</ele>
        <time>2016-10-21T05:32:44Z</time>
      </trkpt>
      <trkpt lat="42.75132" lon="0.65472">
        <ele>1916</ele>
        <time>2016-10-21T05:33:06Z</time>
      </trkpt>
      <trkpt lat="42.75129" lon="0.65483">
        <ele>1919.3</ele>
        <time>2016-10-21T05:33:25Z</time>
      </trkpt>
      <trkpt lat="42.75127" lon="0.65494">
        <ele>1923.1</ele>
        <time>2016-10-21T05:33:47Z</time>
      </trkpt>
      <trkpt lat="42.75126" lon="0.65506">
        <ele>1926.1</ele>
        <time>2016-10-21T05:34:09Z</time>
      </trkpt>
      <trkpt lat="42.75126" lon="0.65518">
        <ele>1929.5</ele>
        <time>2016-10-21T05:34:31Z</time>
      </trkpt>
      <trkpt lat="42.75123" lon="0.65529">
        <ele>1932.8</ele>
        <time>2016-10-21T05:34:54Z</time>
      </trkpt>
      <trkpt lat="42.75122" lon="0.6554">
        <ele>1936</ele>
        <time>2016-10-21T05:35:12Z</time>
      </trkpt>
      <trkpt lat="42.75122" lon="0.65551">
        <ele>1939.3</ele>
        <time>2016-10-21T05:35:33Z</time>
      </trkpt>
      <trkpt lat="42.7512" lon="0.65558">
        <ele>1942.3</ele>
        <time>2016-10-21T05:36:25Z</time>
      </trkpt>
      <trkpt lat="42.75124" lon="0.6557">
        <ele>1946</ele>
        <time>2016-10-21T05:36:49Z</time>
      </trkpt>
      <trkpt lat="42.75128" lon="0.6558">
        <ele>1949.6</ele>
        <time>2016-10-21T05:37:11Z</time>
      </trkpt>
      <trkpt lat="42.7513" lon="0.65591">
        <ele>1953.4</ele>
        <time>2016-10-21T05:37:35Z</time>
      </trkpt>
      <trkpt lat="42.75134" lon="0.65602">
        <ele>1957.1</ele>
        <time>2016-10-21T05:38:04Z</time>
      </trkpt>
      <trkpt lat="42.75136" lon="0.65615">
        <ele>1961.3</ele>
        <time>2016-10-21T05:38:24Z</time>
      </trkpt>
      <trkpt lat="42.75137" lon="0.65628">
        <ele>1964.9</ele>
        <time>2016-10-21T05:38:39Z</time>
      </trkpt>
      <trkpt lat="42.75138" lon="0.6564">
        <ele>1969.5</ele>
        <time>2016-10-21T05:38:59Z</time>
      </trkpt>
      <trkpt lat="42.7514" lon="0.65652">
        <ele>1974.5</ele>
        <time>2016-10-21T05:39:22Z</time>
      </trkpt>
      <trkpt lat="42.75137" lon="0.65665">
        <ele>1977.3</ele>
        <time>2016-10-21T05:39:40Z</time>
      </trkpt>
      <trkpt lat="42.75139" lon="0.65675">
        <ele>1981.1</ele>
        <time>2016-10-21T05:40:01Z</time>
      </trkpt>
      <trkpt lat="42.75145" lon="0.65681">
        <ele>1985.4</ele>
        <time>2016-10-21T05:40:22Z</time>
      </trkpt>
      <trkpt lat="42.75145" lon="0.65692">
        <ele>1989.4</ele>
        <time>2016-10-21T05:40:46Z</time>
      </trkpt>
      <trkpt lat="42.75149" lon="0.65703">
        <ele>1994.2</ele>
        <time>2016-10-21T05:41:11Z</time>
      </trkpt>
      <trkpt lat="42.75154" lon="0.65714">
        <ele>1997.1</ele>
        <time>2016-10-21T05:41:34Z</time>
      </trkpt>
      <trkpt lat="42.75157" lon="0.65726">
        <ele>2001.2</ele>
        <time>2016-10-21T05:41:58Z</time>
      </trkpt>
      <trkpt lat="42.75159" lon="0.65737">
        <ele>2005</ele>
        <time>2016-10-21T05:42:38Z</time>
      </trkpt>
      <trkpt lat="42.75161" lon="0.6575">
        <ele>2007.2</ele>
        <time>2016-10-21T05:42:59Z</time>
      </trkpt>
      <trkpt lat="42.75164" lon="0.65763">
        <ele>2011</ele>
        <time>2016-10-21T05:43:19Z</time>
      </trkpt>
      <trkpt lat="42.75167" lon="0.65776">
        <ele>2015.1</ele>
        <time>2016-10-21T05:43:43Z</time>
      </trkpt>
      <trkpt lat="42.75171" lon="0.65786">
        <ele>2018.8</ele>
        <time>2016-10-21T05:44:04Z</time>
      </trkpt>
      <trkpt lat="42.75175" lon="0.65797">
        <ele>2022.7</ele>
        <time>2016-10-21T05:44:26Z</time>
      </trkpt>
      <trkpt lat="42.75182" lon="0.65806">
        <ele>2027.4</ele>
        <time>2016-10-21T05:44:50Z</time>
      </trkpt>
      <trkpt lat="42.75184" lon="0.65817">
        <ele>2030.8</ele>
        <time>2016-10-21T05:45:10Z</time>
      </trkpt>
      <trkpt lat="42.75185" lon="0.65831">
        <ele>2033.4</ele>
        <time>2016-10-21T05:46:02Z</time>
      </trkpt>
      <trkpt lat="42.7519" lon="0.65842">
        <ele>2036.2</ele>
        <time>2016-10-21T05:46:17Z</time>
      </trkpt>
      <trkpt lat="42.75195" lon="0.65852">
        <ele>2039.9</ele>
        <time>2016-10-21T05:46:33Z</time>
      </trkpt>
      <trkpt lat="42.75198" lon="0.65863">
        <ele>2043.2</ele>
        <time>2016-10-21T05:46:52Z</time>
      </trkpt>
      <trkpt lat="42.75199" lon="0.65876">
        <ele>2046.3</ele>
        <time>2016-10-21T05:47:12Z</time>
      </trkpt>
      <trkpt lat="42.75199" lon="0.6589">
        <ele>2049.1</ele>
        <time>2016-10-21T05:47:29Z</time>
      </trkpt>
      <trkpt lat="42.75197" lon="0.65903">
        <ele>2051.7</ele>
        <time>2016-10-21T05:47:45Z</time>
      </trkpt>
      <trkpt lat="42.75196" lon="0.65917">
        <ele>2054.7</ele>
        <time>2016-10-21T05:48:02Z</time>
      </trkpt>
      <trkpt lat="42.75196" lon="0.6593">
        <ele>2056.3</ele>
        <time>2016-10-21T05:48:19Z</time>
      </trkpt>
      <trkpt lat="42.75195" lon="0.65942">
        <ele>2057.9</ele>
        <time>2016-10-21T05:48:35Z</time>
      </trkpt>
      <trkpt lat="42.75193" lon="0.65955">
        <ele>2059.2</ele>
        <time>2016-10-21T05:48:51Z</time>
      </trkpt>
      <trkpt lat="42.75192" lon="0.65968">
        <ele>2060.8</ele>
        <time>2016-10-21T05:49:11Z</time>
      </trkpt>
      <trkpt lat="42.75192" lon="0.65977">
        <ele>2062.2</ele>
        <time>2016-10-21T05:52:31Z</time>
      </trkpt>
      <trkpt lat="42.7519" lon="0.65988">
        <ele>2062.8</ele>
        <time>2016-10-21T05:54:25Z</time>
      </trkpt>
      <trkpt lat="42.75187" lon="0.66001">
        <ele>2063.6</ele>
        <time>2016-10-21T05:54:38Z</time>
      </trkpt>
      <trkpt lat="42.75184" lon="0.66013">
        <ele>2064.2</ele>
        <time>2016-10-21T05:54:50Z</time>
      </trkpt>
      <trkpt lat="42.75182" lon="0.66025">
        <ele>2065.1</ele>
        <time>2016-10-21T05:55:05Z</time>
      </trkpt>
      <trkpt lat="42.75176" lon="0.66035">
        <ele>2065.8</ele>
        <time>2016-10-21T05:55:15Z</time>
      </trkpt>
      <trkpt lat="42.75168" lon="0.66042">
        <ele>2065.4</ele>
        <time>2016-10-21T05:55:27Z</time>
      </trkpt>
      <trkpt lat="42.75161" lon="0.66049">
        <ele>2064.1</ele>
        <time>2016-10-21T05:55:37Z</time>
      </trkpt>
      <trkpt lat="42.75156" lon="0.66059">
        <ele>2062.9</ele>
        <time>2016-10-21T05:55:47Z</time>
      </trkpt>
      <trkpt lat="42.75147" lon="0.66066">
        <ele>2061.8</ele>
        <time>2016-10-21T05:56:04Z</time>
      </trkpt>
      <trkpt lat="42.75138" lon="0.66071">
        <ele>2059.8</ele>
        <time>2016-10-21T05:56:16Z</time>
      </trkpt>
      <trkpt lat="42.75132" lon="0.6608">
        <ele>2057.7</ele>
        <time>2016-10-21T05:56:26Z</time>
      </trkpt>
      <trkpt lat="42.75123" lon="0.66085">
        <ele>2056.8</ele>
        <time>2016-10-21T05:56:35Z</time>
      </trkpt>
      <trkpt lat="42.75114" lon="0.66089">
        <ele>2054.5</ele>
        <time>2016-10-21T05:56:46Z</time>
      </trkpt>
      <trkpt lat="42.75106" lon="0.66092">
        <ele>2052.2</ele>
        <time>2016-10-21T05:56:56Z</time>
      </trkpt>
      <trkpt lat="42.75097" lon="0.66094">
        <ele>2049.5</ele>
        <time>2016-10-21T05:57:07Z</time>
      </trkpt>
      <trkpt lat="42.75089" lon="0.66101">
        <ele>2046.5</ele>
        <time>2016-10-21T05:57:17Z</time>
      </trkpt>
      <trkpt lat="42.75081" lon="0.66109">
        <ele>2044.2</ele>
        <time>2016-10-21T05:57:27Z</time>
      </trkpt>
      <trkpt lat="42.75074" lon="0.66117">
        <ele>2043.3</ele>
        <time>2016-10-21T05:57:36Z</time>
      </trkpt>
      <trkpt lat="42.75067" lon="0.66125">
        <ele>2042.5</ele>
        <time>2016-10-21T05:57:47Z</time>
      </trkpt>
      <trkpt lat="42.75061" lon="0.66136">
        <ele>2042.1</ele>
        <time>2016-10-21T05:57:57Z</time>
      </trkpt>
      <trkpt lat="42.75055" lon="0.66145">
        <ele>2042.7</ele>
        <time>2016-10-21T05:58:43Z</time>
      </trkpt>
      <trkpt lat="42.75047" lon="0.66153">
        <ele>2043.3</ele>
        <time>2016-10-21T05:59:00Z</time>
      </trkpt>
      <trkpt lat="42.75039" lon="0.6616">
        <ele>2044.1</ele>
        <time>2016-10-21T05:59:09Z</time>
      </trkpt>
      <trkpt lat="42.75032" lon="0.6617">
        <ele>2045</ele>
        <time>2016-10-21T05:59:19Z</time>
      </trkpt>
      <trkpt lat="42.75026" lon="0.66181">
        <ele>2044.8</ele>
        <time>2016-10-21T05:59:27Z</time>
      </trkpt>
      <trkpt lat="42.75022" lon="0.66193">
        <ele>2044.9</ele>
        <time>2016-10-21T05:59:35Z</time>
      </trkpt>
      <trkpt lat="42.75019" lon="0.66205">
        <ele>2045.3</ele>
        <time>2016-10-21T05:59:43Z</time>
      </trkpt>
      <trkpt lat="42.75016" lon="0.66217">
        <ele>2045.7</ele>
        <time>2016-10-21T05:59:51Z</time>
      </trkpt>
      <trkpt lat="42.75013" lon="0.6623">
        <ele>2045.9</ele>
        <time>2016-10-21T06:00:00Z</time>
      </trkpt>
      <trkpt lat="42.75008" lon="0.66241">
        <ele>2045.7</ele>
        <time>2016-10-21T06:00:08Z</time>
      </trkpt>
      <trkpt lat="42.75003" lon="0.66253">
        <ele>2045.8</ele>
        <time>2016-10-21T06:00:17Z</time>
      </trkpt>
      <trkpt lat="42.74999" lon="0.66265">
        <ele>2046.4</ele>
        <time>2016-10-21T06:00:25Z</time>
      </trkpt>
      <trkpt lat="42.74996" lon="0.66276">
        <ele>2046.6</ele>
        <time>2016-10-21T06:00:33Z</time>
      </trkpt>
      <trkpt lat="42.74989" lon="0.66287">
        <ele>2046.7</ele>
        <time>2016-10-21T06:00:41Z</time>
      </trkpt>
      <trkpt lat="42.74983" lon="0.66296">
        <ele>2047.2</ele>
        <time>2016-10-21T06:00:50Z</time>
      </trkpt>
      <trkpt lat="42.74975" lon="0.66304">
        <ele>2048.1</ele>
        <time>2016-10-21T06:00:59Z</time>
      </trkpt>
      <trkpt lat="42.74967" lon="0.66314">
        <ele>2049.3</ele>
        <time>2016-10-21T06:01:09Z</time>
      </trkpt>
      <trkpt lat="42.74959" lon="0.66321">
        <ele>2050</ele>
        <time>2016-10-21T06:01:18Z</time>
      </trkpt>
      <trkpt lat="42.74952" lon="0.66328">
        <ele>2050.7</ele>
        <time>2016-10-21T06:01:27Z</time>
      </trkpt>
      <trkpt lat="42.74944" lon="0.66336">
        <ele>2051.5</ele>
        <time>2016-10-21T06:01:36Z</time>
      </trkpt>
      <trkpt lat="42.74937" lon="0.66344">
        <ele>2052.2</ele>
        <time>2016-10-21T06:01:44Z</time>
      </trkpt>
      <trkpt lat="42.7493" lon="0.6635">
        <ele>2053.3</ele>
        <time>2016-10-21T06:01:53Z</time>
      </trkpt>
      <trkpt lat="42.74922" lon="0.66356">
        <ele>2054</ele>
        <time>2016-10-21T06:02:02Z</time>
      </trkpt>
      <trkpt lat="42.74914" lon="0.66362">
        <ele>2054.5</ele>
        <time>2016-10-21T06:02:11Z</time>
      </trkpt>
      <trkpt lat="42.74904" lon="0.66366">
        <ele>2054.7</ele>
        <time>2016-10-21T06:02:20Z</time>
      </trkpt>
      <trkpt lat="42.74895" lon="0.66371">
        <ele>2055.3</ele>
        <time>2016-10-21T06:02:30Z</time>
      </trkpt>
      <trkpt lat="42.74885" lon="0.66374">
        <ele>2055.8</ele>
        <time>2016-10-21T06:02:40Z</time>
      </trkpt>
      <trkpt lat="42.74876" lon="0.66373">
        <ele>2056.4</ele>
        <time>2016-10-21T06:02:49Z</time>
      </trkpt>
      <trkpt lat="42.74867" lon="0.66377">
        <ele>2056.2</ele>
        <time>2016-10-21T06:02:58Z</time>
      </trkpt>
      <trkpt lat="42.74857" lon="0.66375">
        <ele>2056.4</ele>
        <time>2016-10-21T06:03:07Z</time>
      </trkpt>
      <trkpt lat="42.74847" lon="0.6637">
        <ele>2056</ele>
        <time>2016-10-21T06:03:16Z</time>
      </trkpt>
      <trkpt lat="42.74837" lon="0.66368">
        <ele>2056.3</ele>
        <time>2016-10-21T06:03:26Z</time>
      </trkpt>
      <trkpt lat="42.74828" lon="0.6637">
        <ele>2056.5</ele>
        <time>2016-10-21T06:03:36Z</time>
      </trkpt>
      <trkpt lat="42.74819" lon="0.66373">
        <ele>2057.1</ele>
        <time>2016-10-21T06:03:46Z</time>
      </trkpt>
      <trkpt lat="42.7481" lon="0.66374">
        <ele>2058.1</ele>
        <time>2016-10-21T06:03:56Z</time>
      </trkpt>
      <trkpt lat="42.748" lon="0.66375">
        <ele>2058.9</ele>
        <time>2016-10-21T06:04:05Z</time>
      </trkpt>
      <trkpt lat="42.7479" lon="0.66376">
        <ele>2059.5</ele>
        <time>2016-10-21T06:04:15Z</time>
      </trkpt>
      <trkpt lat="42.7478" lon="0.66376">
        <ele>2060.1</ele>
        <time>2016-10-21T06:04:26Z</time>
      </trkpt>
      <trkpt lat="42.7477" lon="0.66373">
        <ele>2061.2</ele>
        <time>2016-10-21T06:04:36Z</time>
      </trkpt>
      <trkpt lat="42.74761" lon="0.66371">
        <ele>2061.5</ele>
        <time>2016-10-21T06:04:46Z</time>
      </trkpt>
      <trkpt lat="42.74752" lon="0.6637">
        <ele>2062.6</ele>
        <time>2016-10-21T06:04:56Z</time>
      </trkpt>
      <trkpt lat="42.74744" lon="0.66361">
        <ele>2063.7</ele>
        <time>2016-10-21T06:05:06Z</time>
      </trkpt>
      <trkpt lat="42.74737" lon="0.66351">
        <ele>2064.7</ele>
        <time>2016-10-21T06:05:15Z</time>
      </trkpt>
      <trkpt lat="42.74729" lon="0.66344">
        <ele>2066</ele>
        <time>2016-10-21T06:05:24Z</time>
      </trkpt>
      <trkpt lat="42.74722" lon="0.66337">
        <ele>2067.8</ele>
        <time>2016-10-21T06:05:39Z</time>
      </trkpt>
      <trkpt lat="42.74715" lon="0.6633">
        <ele>2068.7</ele>
        <time>2016-10-21T06:05:55Z</time>
      </trkpt>
      <trkpt lat="42.74708" lon="0.66323">
        <ele>2068.9</ele>
        <time>2016-10-21T06:06:04Z</time>
      </trkpt>
      <trkpt lat="42.74699" lon="0.66315">
        <ele>2067.9</ele>
        <time>2016-10-21T06:06:14Z</time>
      </trkpt>
      <trkpt lat="42.7469" lon="0.66309">
        <ele>2065.8</ele>
        <time>2016-10-21T06:06:24Z</time>
      </trkpt>
      <trkpt lat="42.7468" lon="0.66303">
        <ele>2064.2</ele>
        <time>2016-10-21T06:06:33Z</time>
      </trkpt>
      <trkpt lat="42.74671" lon="0.66301">
        <ele>2063.5</ele>
        <time>2016-10-21T06:06:42Z</time>
      </trkpt>
      <trkpt lat="42.74663" lon="0.66299">
        <ele>2065.3</ele>
        <time>2016-10-21T06:06:54Z</time>
      </trkpt>
      <trkpt lat="42.74654" lon="0.66295">
        <ele>2068.3</ele>
        <time>2016-10-21T06:07:08Z</time>
      </trkpt>
      <trkpt lat="42.74646" lon="0.66288">
        <ele>2071.8</ele>
        <time>2016-10-21T06:07:24Z</time>
      </trkpt>
      <trkpt lat="42.74637" lon="0.66289">
        <ele>2075</ele>
        <time>2016-10-21T06:07:41Z</time>
      </trkpt>
      <trkpt lat="42.7463" lon="0.66294">
        <ele>2077.2</ele>
        <time>2016-10-21T06:07:54Z</time>
      </trkpt>
      <trkpt lat="42.74623" lon="0.66288">
        <ele>2080.4</ele>
        <time>2016-10-21T06:08:11Z</time>
      </trkpt>
      <trkpt lat="42.74614" lon="0.66285">
        <ele>2084.2</ele>
        <time>2016-10-21T06:08:29Z</time>
      </trkpt>
      <trkpt lat="42.74604" lon="0.66283">
        <ele>2088.6</ele>
        <time>2016-10-21T06:08:50Z</time>
      </trkpt>
      <trkpt lat="42.74594" lon="0.66281">
        <ele>2091.4</ele>
        <time>2016-10-21T06:09:04Z</time>
      </trkpt>
      <trkpt lat="42.74586" lon="0.66275">
        <ele>2093.1</ele>
        <time>2016-10-21T06:09:17Z</time>
      </trkpt>
      <trkpt lat="42.7458" lon="0.66265">
        <ele>2094.7</ele>
        <time>2016-10-21T06:09:31Z</time>
      </trkpt>
      <trkpt lat="42.74571" lon="0.66265">
        <ele>2096.1</ele>
        <time>2016-10-21T06:10:09Z</time>
      </trkpt>
      <trkpt lat="42.74561" lon="0.66261">
        <ele>2099.4</ele>
        <time>2016-10-21T06:10:25Z</time>
      </trkpt>
      <trkpt lat="42.74553" lon="0.66257">
        <ele>2102.5</ele>
        <time>2016-10-21T06:10:44Z</time>
      </trkpt>
      <trkpt lat="42.74543" lon="0.66256">
        <ele>2106</ele>
        <time>2016-10-21T06:11:02Z</time>
      </trkpt>
      <trkpt lat="42.74533" lon="0.66253">
        <ele>2109.8</ele>
        <time>2016-10-21T06:11:20Z</time>
      </trkpt>
      <trkpt lat="42.74525" lon="0.66248">
        <ele>2111.4</ele>
        <time>2016-10-21T06:12:03Z</time>
      </trkpt>
      <trkpt lat="42.74515" lon="0.66246">
        <ele>2112.7</ele>
        <time>2016-10-21T06:12:18Z</time>
      </trkpt>
      <trkpt lat="42.74507" lon="0.66249">
        <ele>2115.8</ele>
        <time>2016-10-21T06:12:36Z</time>
      </trkpt>
      <trkpt lat="42.74499" lon="0.66249">
        <ele>2119.3</ele>
        <time>2016-10-21T06:12:52Z</time>
      </trkpt>
      <trkpt lat="42.74495" lon="0.66257">
        <ele>2122.6</ele>
        <time>2016-10-21T06:14:18Z</time>
      </trkpt>
      <trkpt lat="42.7449" lon="0.66265">
        <ele>2125.1</ele>
        <time>2016-10-21T06:14:32Z</time>
      </trkpt>
      <trkpt lat="42.74481" lon="0.66268">
        <ele>2128.1</ele>
        <time>2016-10-21T06:14:49Z</time>
      </trkpt>
      <trkpt lat="42.74471" lon="0.66271">
        <ele>2131.6</ele>
        <time>2016-10-21T06:15:06Z</time>
      </trkpt>
      <trkpt lat="42.74467" lon="0.66284">
        <ele>2138.1</ele>
        <time>2016-10-21T06:15:41Z</time>
      </trkpt>
      <trkpt lat="42.74463" lon="0.66287">
        <ele>2139.6</ele>
        <time>2016-10-21T06:16:55Z</time>
      </trkpt>
      <trkpt lat="42.74455" lon="0.66294">
        <ele>2139.8</ele>
        <time>2016-10-21T06:17:03Z</time>
      </trkpt>
      <trkpt lat="42.74447" lon="0.66297">
        <ele>2141</ele>
        <time>2016-10-21T06:17:10Z</time>
      </trkpt>
      <trkpt lat="42.74439" lon="0.663">
        <ele>2143.9</ele>
        <time>2016-10-21T06:17:19Z</time>
      </trkpt>
      <trkpt lat="42.74432" lon="0.66307">
        <ele>2147.1</ele>
        <time>2016-10-21T06:17:30Z</time>
      </trkpt>
      <trkpt lat="42.74419" lon="0.66306">
        <ele>2149.8</ele>
        <time>2016-10-21T06:17:41Z</time>
      </trkpt>
      <trkpt lat="42.74413" lon="0.66311">
        <ele>2152</ele>
        <time>2016-10-21T06:17:51Z</time>
      </trkpt>
      <trkpt lat="42.74404" lon="0.66312">
        <ele>2154.4</ele>
        <time>2016-10-21T06:18:02Z</time>
      </trkpt>
      <trkpt lat="42.74395" lon="0.66313">
        <ele>2156</ele>
        <time>2016-10-21T06:18:13Z</time>
      </trkpt>
      <trkpt lat="42.74386" lon="0.66317">
        <ele>2157.3</ele>
        <time>2016-10-21T06:18:22Z</time>
      </trkpt>
      <trkpt lat="42.74378" lon="0.66321">
        <ele>2159.7</ele>
        <time>2016-10-21T06:18:32Z</time>
      </trkpt>
      <trkpt lat="42.74362" lon="0.66322">
        <ele>2162.8</ele>
        <time>2016-10-21T06:22:45Z</time>
      </trkpt>
      <trkpt lat="42.74354" lon="0.66316">
        <ele>2161.1</ele>
        <time>2016-10-21T06:22:54Z</time>
      </trkpt>
      <trkpt lat="42.74345" lon="0.66314">
        <ele>2158.8</ele>
        <time>2016-10-21T06:23:03Z</time>
      </trkpt>
      <trkpt lat="42.74335" lon="0.66315">
        <ele>2157.5</ele>
        <time>2016-10-21T06:23:11Z</time>
      </trkpt>
      <trkpt lat="42.74328" lon="0.66321">
        <ele>2156.6</ele>
        <time>2016-10-21T06:23:19Z</time>
      </trkpt>
      <trkpt lat="42.7432" lon="0.66323">
        <ele>2154.3</ele>
        <time>2016-10-21T06:25:58Z</time>
      </trkpt>
      <trkpt lat="42.74311" lon="0.66328">
        <ele>2152.8</ele>
        <time>2016-10-21T06:26:07Z</time>
      </trkpt>
      <trkpt lat="42.74303" lon="0.66332">
        <ele>2150</ele>
        <time>2016-10-21T06:26:16Z</time>
      </trkpt>
      <trkpt lat="42.74293" lon="0.66334">
        <ele>2146.6</ele>
        <time>2016-10-21T06:26:26Z</time>
      </trkpt>
      <trkpt lat="42.74286" lon="0.66341">
        <ele>2143</ele>
        <time>2016-10-21T06:26:36Z</time>
      </trkpt>
      <trkpt lat="42.74278" lon="0.66349">
        <ele>2139.4</ele>
        <time>2016-10-21T06:26:45Z</time>
      </trkpt>
      <trkpt lat="42.74271" lon="0.66357">
        <ele>2136.4</ele>
        <time>2016-10-21T06:26:52Z</time>
      </trkpt>
      <trkpt lat="42.74264" lon="0.66365">
        <ele>2133.2</ele>
        <time>2016-10-21T06:27:01Z</time>
      </trkpt>
      <trkpt lat="42.74257" lon="0.66374">
        <ele>2130.4</ele>
        <time>2016-10-21T06:27:11Z</time>
      </trkpt>
      <trkpt lat="42.7425" lon="0.66382">
        <ele>2127.3</ele>
        <time>2016-10-21T06:27:21Z</time>
      </trkpt>
      <trkpt lat="42.74243" lon="0.66391">
        <ele>2125.3</ele>
        <time>2016-10-21T06:27:30Z</time>
      </trkpt>
      <trkpt lat="42.74236" lon="0.664">
        <ele>2123.6</ele>
        <time>2016-10-21T06:27:38Z</time>
      </trkpt>
      <trkpt lat="42.74228" lon="0.66408">
        <ele>2122.1</ele>
        <time>2016-10-21T06:27:46Z</time>
      </trkpt>
      <trkpt lat="42.74222" lon="0.66417">
        <ele>2120.6</ele>
        <time>2016-10-21T06:27:53Z</time>
      </trkpt>
      <trkpt lat="42.74215" lon="0.66426">
        <ele>2119.3</ele>
        <time>2016-10-21T06:28:01Z</time>
      </trkpt>
      <trkpt lat="42.74211" lon="0.66438">
        <ele>2118.7</ele>
        <time>2016-10-21T06:28:09Z</time>
      </trkpt>
      <trkpt lat="42.74207" lon="0.66446">
        <ele>2117.6</ele>
        <time>2016-10-21T06:28:42Z</time>
      </trkpt>
      <trkpt lat="42.74203" lon="0.66458">
        <ele>2116.2</ele>
        <time>2016-10-21T06:29:15Z</time>
      </trkpt>
      <trkpt lat="42.74199" lon="0.66469">
        <ele>2116.1</ele>
        <time>2016-10-21T06:29:21Z</time>
      </trkpt>
      <trkpt lat="42.74196" lon="0.66482">
        <ele>2116.2</ele>
        <time>2016-10-21T06:29:28Z</time>
      </trkpt>
      <trkpt lat="42.74192" lon="0.66494">
        <ele>2117</ele>
        <time>2016-10-21T06:29:36Z</time>
      </trkpt>
      <trkpt lat="42.74189" lon="0.66508">
        <ele>2117.1</ele>
        <time>2016-10-21T06:29:43Z</time>
      </trkpt>
      <trkpt lat="42.74186" lon="0.66521">
        <ele>2117.7</ele>
        <time>2016-10-21T06:29:50Z</time>
      </trkpt>
      <trkpt lat="42.74184" lon="0.66535">
        <ele>2118.2</ele>
        <time>2016-10-21T06:29:57Z</time>
      </trkpt>
      <trkpt lat="42.74179" lon="0.66547">
        <ele>2118.3</ele>
        <time>2016-10-21T06:30:03Z</time>
      </trkpt>
      <trkpt lat="42.74175" lon="0.66558">
        <ele>2118.1</ele>
        <time>2016-10-21T06:30:09Z</time>
      </trkpt>
      <trkpt lat="42.74173" lon="0.66571">
        <ele>2118.1</ele>
        <time>2016-10-21T06:30:15Z</time>
      </trkpt>
      <trkpt lat="42.74168" lon="0.66581">
        <ele>2118.3</ele>
        <time>2016-10-21T06:30:22Z</time>
      </trkpt>
      <trkpt lat="42.74162" lon="0.66592">
        <ele>2118.5</ele>
        <time>2016-10-21T06:30:30Z</time>
      </trkpt>
      <trkpt lat="42.74155" lon="0.66602">
        <ele>2119.3</ele>
        <time>2016-10-21T06:30:38Z</time>
      </trkpt>
      <trkpt lat="42.74147" lon="0.6661">
        <ele>2120</ele>
        <time>2016-10-21T06:30:46Z</time>
      </trkpt>
      <trkpt lat="42.74138" lon="0.66616">
        <ele>2120.4</ele>
        <time>2016-10-21T06:30:54Z</time>
      </trkpt>
      <trkpt lat="42.7413" lon="0.66623">
        <ele>2120.8</ele>
        <time>2016-10-21T06:31:02Z</time>
      </trkpt>
      <trkpt lat="42.74122" lon="0.6663">
        <ele>2121.5</ele>
        <time>2016-10-21T06:31:11Z</time>
      </trkpt>
      <trkpt lat="42.74114" lon="0.66635">
        <ele>2122.1</ele>
        <time>2016-10-21T06:31:20Z</time>
      </trkpt>
      <trkpt lat="42.74104" lon="0.66637">
        <ele>2123.1</ele>
        <time>2016-10-21T06:31:28Z</time>
      </trkpt>
      <trkpt lat="42.74093" lon="0.66637">
        <ele>2123.6</ele>
        <time>2016-10-21T06:31:37Z</time>
      </trkpt>
      <trkpt lat="42.74083" lon="0.66638">
        <ele>2124.3</ele>
        <time>2016-10-21T06:31:45Z</time>
      </trkpt>
      <trkpt lat="42.74073" lon="0.66637">
        <ele>2125.1</ele>
        <time>2016-10-21T06:31:53Z</time>
      </trkpt>
      <trkpt lat="42.74063" lon="0.66638">
        <ele>2125.8</ele>
        <time>2016-10-21T06:32:01Z</time>
      </trkpt>
      <trkpt lat="42.74054" lon="0.6664">
        <ele>2126.3</ele>
        <time>2016-10-21T06:32:09Z</time>
      </trkpt>
      <trkpt lat="42.74045" lon="0.66643">
        <ele>2126.8</ele>
        <time>2016-10-21T06:32:18Z</time>
      </trkpt>
      <trkpt lat="42.74035" lon="0.66642">
        <ele>2127</ele>
        <time>2016-10-21T06:32:26Z</time>
      </trkpt>
      <trkpt lat="42.74025" lon="0.66641">
        <ele>2127.2</ele>
        <time>2016-10-21T06:32:34Z</time>
      </trkpt>
      <trkpt lat="42.74016" lon="0.66642">
        <ele>2127.5</ele>
        <time>2016-10-21T06:32:42Z</time>
      </trkpt>
      <trkpt lat="42.74008" lon="0.66644">
        <ele>2127.8</ele>
        <time>2016-10-21T06:32:50Z</time>
      </trkpt>
      <trkpt lat="42.73999" lon="0.66644">
        <ele>2127.8</ele>
        <time>2016-10-21T06:33:00Z</time>
      </trkpt>
      <trkpt lat="42.73989" lon="0.66647">
        <ele>2127.6</ele>
        <time>2016-10-21T06:33:09Z</time>
      </trkpt>
      <trkpt lat="42.73979" lon="0.66649">
        <ele>2128.6</ele>
        <time>2016-10-21T06:33:18Z</time>
      </trkpt>
      <trkpt lat="42.7397" lon="0.66652">
        <ele>2129.7</ele>
        <time>2016-10-21T06:33:26Z</time>
      </trkpt>
      <trkpt lat="42.73961" lon="0.66654">
        <ele>2130.6</ele>
        <time>2016-10-21T06:33:34Z</time>
      </trkpt>
      <trkpt lat="42.7395" lon="0.66655">
        <ele>2131.3</ele>
        <time>2016-10-21T06:33:43Z</time>
      </trkpt>
      <trkpt lat="42.7394" lon="0.66654">
        <ele>2132.2</ele>
        <time>2016-10-21T06:33:52Z</time>
      </trkpt>
      <trkpt lat="42.73931" lon="0.66653">
        <ele>2133.1</ele>
        <time>2016-10-21T06:34:01Z</time>
      </trkpt>
      <trkpt lat="42.73922" lon="0.66653">
        <ele>2134.4</ele>
        <time>2016-10-21T06:34:11Z</time>
      </trkpt>
      <trkpt lat="42.73912" lon="0.66653">
        <ele>2136</ele>
        <time>2016-10-21T06:34:22Z</time>
      </trkpt>
      <trkpt lat="42.73903" lon="0.66654">
        <ele>2137.9</ele>
        <time>2016-10-21T06:34:32Z</time>
      </trkpt>
      <trkpt lat="42.73894" lon="0.66657">
        <ele>2139.4</ele>
        <time>2016-10-21T06:34:42Z</time>
      </trkpt>
      <trkpt lat="42.73885" lon="0.66659">
        <ele>2140.3</ele>
        <time>2016-10-21T06:34:52Z</time>
      </trkpt>
      <trkpt lat="42.73877" lon="0.66664">
        <ele>2140.7</ele>
        <time>2016-10-21T06:35:01Z</time>
      </trkpt>
      <trkpt lat="42.73868" lon="0.66669">
        <ele>2141.6</ele>
        <time>2016-10-21T06:35:11Z</time>
      </trkpt>
      <trkpt lat="42.73859" lon="0.66672">
        <ele>2142.1</ele>
        <time>2016-10-21T06:35:20Z</time>
      </trkpt>
      <trkpt lat="42.7385" lon="0.66677">
        <ele>2142.2</ele>
        <time>2016-10-21T06:35:29Z</time>
      </trkpt>
      <trkpt lat="42.73842" lon="0.66683">
        <ele>2142.4</ele>
        <time>2016-10-21T06:35:37Z</time>
      </trkpt>
      <trkpt lat="42.73832" lon="0.66685">
        <ele>2143</ele>
        <time>2016-10-21T06:35:47Z</time>
      </trkpt>
      <trkpt lat="42.73823" lon="0.66688">
        <ele>2143.9</ele>
        <time>2016-10-21T06:35:58Z</time>
      </trkpt>
      <trkpt lat="42.73815" lon="0.66693">
        <ele>2144.3</ele>
        <time>2016-10-21T06:36:09Z</time>
      </trkpt>
      <trkpt lat="42.73808" lon="0.667">
        <ele>2144</ele>
        <time>2016-10-21T06:36:28Z</time>
      </trkpt>
      <trkpt lat="42.73807" lon="0.667">
        <ele>2169.8</ele>
        <time>2016-10-21T06:36:42Z</time>
      </trkpt>
      <trkpt lat="42.73803" lon="0.66704">
        <ele>2146.1</ele>
        <time>2016-10-21T06:38:35Z</time>
      </trkpt>
      <trkpt lat="42.73798" lon="0.66701">
        <ele>2147.4</ele>
        <time>2016-10-21T06:41:38Z</time>
      </trkpt>
      <trkpt lat="42.7379" lon="0.66695">
        <ele>2146.6</ele>
        <time>2016-10-21T06:41:51Z</time>
      </trkpt>
      <trkpt lat="42.73781" lon="0.66693">
        <ele>2145.4</ele>
        <time>2016-10-21T06:41:59Z</time>
      </trkpt>
      <trkpt lat="42.73772" lon="0.66691">
        <ele>2144.3</ele>
        <time>2016-10-21T06:42:08Z</time>
      </trkpt>
      <trkpt lat="42.73761" lon="0.66691">
        <ele>2141.9</ele>
        <time>2016-10-21T06:42:20Z</time>
      </trkpt>
      <trkpt lat="42.73751" lon="0.66691">
        <ele>2140.1</ele>
        <time>2016-10-21T06:42:30Z</time>
      </trkpt>
      <trkpt lat="42.73742" lon="0.66692">
        <ele>2137.9</ele>
        <time>2016-10-21T06:42:38Z</time>
      </trkpt>
      <trkpt lat="42.73732" lon="0.66694">
        <ele>2135.4</ele>
        <time>2016-10-21T06:43:08Z</time>
      </trkpt>
      <trkpt lat="42.73723" lon="0.66694">
        <ele>2132.2</ele>
        <time>2016-10-21T06:43:18Z</time>
      </trkpt>
      <trkpt lat="42.73712" lon="0.66694">
        <ele>2129.6</ele>
        <time>2016-10-21T06:43:30Z</time>
      </trkpt>
      <trkpt lat="42.73702" lon="0.66694">
        <ele>2127.2</ele>
        <time>2016-10-21T06:43:40Z</time>
      </trkpt>
      <trkpt lat="42.73693" lon="0.66698">
        <ele>2124.7</ele>
        <time>2016-10-21T06:43:49Z</time>
      </trkpt>
      <trkpt lat="42.73685" lon="0.66702">
        <ele>2122.3</ele>
        <time>2016-10-21T06:43:56Z</time>
      </trkpt>
      <trkpt lat="42.73676" lon="0.66706">
        <ele>2119.2</ele>
        <time>2016-10-21T06:44:04Z</time>
      </trkpt>
      <trkpt lat="42.73667" lon="0.66711">
        <ele>2116.3</ele>
        <time>2016-10-21T06:44:11Z</time>
      </trkpt>
      <trkpt lat="42.73659" lon="0.66718">
        <ele>2113.1</ele>
        <time>2016-10-21T06:44:19Z</time>
      </trkpt>
      <trkpt lat="42.73653" lon="0.66727">
        <ele>2111.1</ele>
        <time>2016-10-21T06:44:26Z</time>
      </trkpt>
      <trkpt lat="42.73647" lon="0.66738">
        <ele>2111.1</ele>
        <time>2016-10-21T06:44:33Z</time>
      </trkpt>
      <trkpt lat="42.73641" lon="0.66747">
        <ele>2112.1</ele>
        <time>2016-10-21T06:44:41Z</time>
      </trkpt>
      <trkpt lat="42.73634" lon="0.66758">
        <ele>2111.6</ele>
        <time>2016-10-21T06:44:49Z</time>
      </trkpt>
      <trkpt lat="42.73627" lon="0.66769">
        <ele>2110.6</ele>
        <time>2016-10-21T06:44:56Z</time>
      </trkpt>
      <trkpt lat="42.73619" lon="0.66779">
        <ele>2110.6</ele>
        <time>2016-10-21T06:45:03Z</time>
      </trkpt>
      <trkpt lat="42.73612" lon="0.66787">
        <ele>2111.3</ele>
        <time>2016-10-21T06:45:10Z</time>
      </trkpt>
      <trkpt lat="42.73604" lon="0.66795">
        <ele>2112.3</ele>
        <time>2016-10-21T06:45:17Z</time>
      </trkpt>
      <trkpt lat="42.73595" lon="0.66802">
        <ele>2113.1</ele>
        <time>2016-10-21T06:45:25Z</time>
      </trkpt>
      <trkpt lat="42.73587" lon="0.66809">
        <ele>2114.3</ele>
        <time>2016-10-21T06:45:33Z</time>
      </trkpt>
      <trkpt lat="42.73579" lon="0.66815">
        <ele>2115.4</ele>
        <time>2016-10-21T06:45:40Z</time>
      </trkpt>
      <trkpt lat="42.73572" lon="0.66822">
        <ele>2116.3</ele>
        <time>2016-10-21T06:45:47Z</time>
      </trkpt>
      <trkpt lat="42.73564" lon="0.66829">
        <ele>2116.3</ele>
        <time>2016-10-21T06:45:54Z</time>
      </trkpt>
      <trkpt lat="42.73556" lon="0.66835">
        <ele>2116.1</ele>
        <time>2016-10-21T06:46:02Z</time>
      </trkpt>
      <trkpt lat="42.73548" lon="0.66845">
        <ele>2115.3</ele>
        <time>2016-10-21T06:46:43Z</time>
      </trkpt>
      <trkpt lat="42.73539" lon="0.66853">
        <ele>2114.5</ele>
        <time>2016-10-21T06:46:50Z</time>
      </trkpt>
      <trkpt lat="42.73532" lon="0.66861">
        <ele>2113.8</ele>
        <time>2016-10-21T06:46:56Z</time>
      </trkpt>
      <trkpt lat="42.73525" lon="0.66868">
        <ele>2113.4</ele>
        <time>2016-10-21T06:47:02Z</time>
      </trkpt>
      <trkpt lat="42.73516" lon="0.66875">
        <ele>2113</ele>
        <time>2016-10-21T06:47:08Z</time>
      </trkpt>
      <trkpt lat="42.73508" lon="0.66882">
        <ele>2113.2</ele>
        <time>2016-10-21T06:47:15Z</time>
      </trkpt>
      <trkpt lat="42.73501" lon="0.66889">
        <ele>2114.7</ele>
        <time>2016-10-21T06:47:23Z</time>
      </trkpt>
      <trkpt lat="42.73493" lon="0.66896">
        <ele>2117.2</ele>
        <time>2016-10-21T06:47:35Z</time>
      </trkpt>
      <trkpt lat="42.73487" lon="0.66902">
        <ele>2119</ele>
        <time>2016-10-21T06:47:45Z</time>
      </trkpt>
      <trkpt lat="42.73481" lon="0.6691">
        <ele>2120.6</ele>
        <time>2016-10-21T06:47:53Z</time>
      </trkpt>
      <trkpt lat="42.73476" lon="0.66921">
        <ele>2121.6</ele>
        <time>2016-10-21T06:48:01Z</time>
      </trkpt>
      <trkpt lat="42.7347" lon="0.66934">
        <ele>2123.4</ele>
        <time>2016-10-21T06:48:10Z</time>
      </trkpt>
      <trkpt lat="42.73462" lon="0.66946">
        <ele>2125.6</ele>
        <time>2016-10-21T06:48:21Z</time>
      </trkpt>
      <trkpt lat="42.73458" lon="0.66959">
        <ele>2128.1</ele>
        <time>2016-10-21T06:48:33Z</time>
      </trkpt>
      <trkpt lat="42.73452" lon="0.66967">
        <ele>2130</ele>
        <time>2016-10-21T06:48:44Z</time>
      </trkpt>
      <trkpt lat="42.73444" lon="0.66975">
        <ele>2131.9</ele>
        <time>2016-10-21T06:48:58Z</time>
      </trkpt>
      <trkpt lat="42.73439" lon="0.66985">
        <ele>2134.4</ele>
        <time>2016-10-21T06:49:10Z</time>
      </trkpt>
      <trkpt lat="42.73436" lon="0.66997">
        <ele>2137.4</ele>
        <time>2016-10-21T06:49:23Z</time>
      </trkpt>
      <trkpt lat="42.7343" lon="0.67006">
        <ele>2140</ele>
        <time>2016-10-21T06:49:37Z</time>
      </trkpt>
      <trkpt lat="42.73422" lon="0.67004">
        <ele>2143.3</ele>
        <time>2016-10-21T06:50:22Z</time>
      </trkpt>
      <trkpt lat="42.73414" lon="0.67">
        <ele>2143.7</ele>
        <time>2016-10-21T06:50:35Z</time>
      </trkpt>
      <trkpt lat="42.73404" lon="0.66996">
        <ele>2144.6</ele>
        <time>2016-10-21T06:50:46Z</time>
      </trkpt>
      <trkpt lat="42.73397" lon="0.66993">
        <ele>2145.7</ele>
        <time>2016-10-21T06:51:49Z</time>
      </trkpt>
      <trkpt lat="42.73389" lon="0.66985">
        <ele>2145.2</ele>
        <time>2016-10-21T06:52:00Z</time>
      </trkpt>
      <trkpt lat="42.73382" lon="0.6698">
        <ele>2142</ele>
        <time>2016-10-21T06:52:14Z</time>
      </trkpt>
      <trkpt lat="42.73371" lon="0.6698">
        <ele>2141</ele>
        <time>2016-10-21T06:52:24Z</time>
      </trkpt>
      <trkpt lat="42.73362" lon="0.66978">
        <ele>2139.8</ele>
        <time>2016-10-21T06:52:35Z</time>
      </trkpt>
      <trkpt lat="42.73352" lon="0.66977">
        <ele>2138.5</ele>
        <time>2016-10-21T06:52:45Z</time>
      </trkpt>
      <trkpt lat="42.73342" lon="0.66983">
        <ele>2137.4</ele>
        <time>2016-10-21T06:52:55Z</time>
      </trkpt>
      <trkpt lat="42.73333" lon="0.66988">
        <ele>2137.4</ele>
        <time>2016-10-21T06:53:06Z</time>
      </trkpt>
      <trkpt lat="42.73325" lon="0.66989">
        <ele>2137.6</ele>
        <time>2016-10-21T06:53:19Z</time>
      </trkpt>
      <trkpt lat="42.73314" lon="0.66991">
        <ele>2137.5</ele>
        <time>2016-10-21T06:53:33Z</time>
      </trkpt>
      <trkpt lat="42.73304" lon="0.66988">
        <ele>2136.5</ele>
        <time>2016-10-21T06:53:41Z</time>
      </trkpt>
      <trkpt lat="42.73294" lon="0.66985">
        <ele>2135.9</ele>
        <time>2016-10-21T06:53:49Z</time>
      </trkpt>
      <trkpt lat="42.73286" lon="0.66979">
        <ele>2134.8</ele>
        <time>2016-10-21T06:53:56Z</time>
      </trkpt>
      <trkpt lat="42.73278" lon="0.66973">
        <ele>2133.5</ele>
        <time>2016-10-21T06:54:04Z</time>
      </trkpt>
      <trkpt lat="42.73269" lon="0.66968">
        <ele>2131.4</ele>
        <time>2016-10-21T06:54:12Z</time>
      </trkpt>
      <trkpt lat="42.7326" lon="0.66964">
        <ele>2128.7</ele>
        <time>2016-10-21T06:54:19Z</time>
      </trkpt>
      <trkpt lat="42.73251" lon="0.66963">
        <ele>2126.4</ele>
        <time>2016-10-21T06:54:54Z</time>
      </trkpt>
      <trkpt lat="42.73245" lon="0.66963">
        <ele>2126.6</ele>
        <time>2016-10-21T06:55:49Z</time>
      </trkpt>
      <trkpt lat="42.73236" lon="0.66966">
        <ele>2126.5</ele>
        <time>2016-10-21T06:55:54Z</time>
      </trkpt>
      <trkpt lat="42.73226" lon="0.66967">
        <ele>2125.4</ele>
        <time>2016-10-21T06:56:00Z</time>
      </trkpt>
      <trkpt lat="42.73216" lon="0.66971">
        <ele>2124.8</ele>
        <time>2016-10-21T06:56:06Z</time>
      </trkpt>
      <trkpt lat="42.73208" lon="0.66977">
        <ele>2124.7</ele>
        <time>2016-10-21T06:56:12Z</time>
      </trkpt>
      <trkpt lat="42.73202" lon="0.66982">
        <ele>2125</ele>
        <time>2016-10-21T06:56:18Z</time>
      </trkpt>
      <trkpt lat="42.73195" lon="0.6699">
        <ele>2125.2</ele>
        <time>2016-10-21T06:56:27Z</time>
      </trkpt>
      <trkpt lat="42.73191" lon="0.67002">
        <ele>2124.3</ele>
        <time>2016-10-21T06:56:34Z</time>
      </trkpt>
      <trkpt lat="42.73182" lon="0.67006">
        <ele>2123.8</ele>
        <time>2016-10-21T06:56:42Z</time>
      </trkpt>
      <trkpt lat="42.73172" lon="0.6701">
        <ele>2123.9</ele>
        <time>2016-10-21T06:56:51Z</time>
      </trkpt>
      <trkpt lat="42.73165" lon="0.67018">
        <ele>2125.2</ele>
        <time>2016-10-21T06:57:00Z</time>
      </trkpt>
      <trkpt lat="42.73156" lon="0.67024">
        <ele>2126.4</ele>
        <time>2016-10-21T06:57:09Z</time>
      </trkpt>
      <trkpt lat="42.73148" lon="0.6703">
        <ele>2127</ele>
        <time>2016-10-21T06:57:18Z</time>
      </trkpt>
      <trkpt lat="42.73139" lon="0.67035">
        <ele>2128.1</ele>
        <time>2016-10-21T06:57:26Z</time>
      </trkpt>
      <trkpt lat="42.73132" lon="0.6704">
        <ele>2128.5</ele>
        <time>2016-10-21T06:58:13Z</time>
      </trkpt>
      <trkpt lat="42.73123" lon="0.67042">
        <ele>2127.8</ele>
        <time>2016-10-21T06:58:34Z</time>
      </trkpt>
      <trkpt lat="42.73114" lon="0.67045">
        <ele>2127.2</ele>
        <time>2016-10-21T06:58:45Z</time>
      </trkpt>
      <trkpt lat="42.73105" lon="0.67047">
        <ele>2125.7</ele>
        <time>2016-10-21T06:58:54Z</time>
      </trkpt>
      <trkpt lat="42.73097" lon="0.6705">
        <ele>2123.9</ele>
        <time>2016-10-21T06:59:02Z</time>
      </trkpt>
      <trkpt lat="42.73089" lon="0.67057">
        <ele>2122.2</ele>
        <time>2016-10-21T06:59:11Z</time>
      </trkpt>
      <trkpt lat="42.73081" lon="0.67061">
        <ele>2120.2</ele>
        <time>2016-10-21T06:59:20Z</time>
      </trkpt>
      <trkpt lat="42.73073" lon="0.67067">
        <ele>2117.3</ele>
        <time>2016-10-21T06:59:30Z</time>
      </trkpt>
      <trkpt lat="42.73065" lon="0.67075">
        <ele>2114.6</ele>
        <time>2016-10-21T07:00:13Z</time>
      </trkpt>
      <trkpt lat="42.73059" lon="0.67085">
        <ele>2112.9</ele>
        <time>2016-10-21T07:00:18Z</time>
      </trkpt>
      <trkpt lat="42.73053" lon="0.67094">
        <ele>2110.3</ele>
        <time>2016-10-21T07:00:23Z</time>
      </trkpt>
      <trkpt lat="42.73046" lon="0.67102">
        <ele>2107.1</ele>
        <time>2016-10-21T07:00:29Z</time>
      </trkpt>
      <trkpt lat="42.7304" lon="0.67113">
        <ele>2104.1</ele>
        <time>2016-10-21T07:00:36Z</time>
      </trkpt>
      <trkpt lat="42.73034" lon="0.67123">
        <ele>2100.5</ele>
        <time>2016-10-21T07:00:43Z</time>
      </trkpt>
      <trkpt lat="42.7303" lon="0.67134">
        <ele>2098.2</ele>
        <time>2016-10-21T07:00:50Z</time>
      </trkpt>
      <trkpt lat="42.73025" lon="0.67146">
        <ele>2096.1</ele>
        <time>2016-10-21T07:00:57Z</time>
      </trkpt>
      <trkpt lat="42.73018" lon="0.67157">
        <ele>2093.9</ele>
        <time>2016-10-21T07:01:05Z</time>
      </trkpt>
      <trkpt lat="42.73014" lon="0.67168">
        <ele>2091.6</ele>
        <time>2016-10-21T07:01:13Z</time>
      </trkpt>
      <trkpt lat="42.7301" lon="0.67179">
        <ele>2089.2</ele>
        <time>2016-10-21T07:01:29Z</time>
      </trkpt>
      <trkpt lat="42.73003" lon="0.67188">
        <ele>2087.5</ele>
        <time>2016-10-21T07:01:35Z</time>
      </trkpt>
      <trkpt lat="42.72997" lon="0.67198">
        <ele>2085.6</ele>
        <time>2016-10-21T07:01:41Z</time>
      </trkpt>
      <trkpt lat="42.72992" lon="0.67207">
        <ele>2083.6</ele>
        <time>2016-10-21T07:01:47Z</time>
      </trkpt>
      <trkpt lat="42.72988" lon="0.67217">
        <ele>2081</ele>
        <time>2016-10-21T07:01:54Z</time>
      </trkpt>
      <trkpt lat="42.72982" lon="0.67228">
        <ele>2078.3</ele>
        <time>2016-10-21T07:02:02Z</time>
      </trkpt>
      <trkpt lat="42.72979" lon="0.67241">
        <ele>2076.5</ele>
        <time>2016-10-21T07:02:10Z</time>
      </trkpt>
      <trkpt lat="42.72977" lon="0.67253">
        <ele>2075.1</ele>
        <time>2016-10-21T07:02:16Z</time>
      </trkpt>
      <trkpt lat="42.72973" lon="0.67266">
        <ele>2072.6</ele>
        <time>2016-10-21T07:02:24Z</time>
      </trkpt>
      <trkpt lat="42.72971" lon="0.67279">
        <ele>2070.5</ele>
        <time>2016-10-21T07:02:30Z</time>
      </trkpt>
      <trkpt lat="42.72969" lon="0.67291">
        <ele>2068</ele>
        <time>2016-10-21T07:02:38Z</time>
      </trkpt>
      <trkpt lat="42.72965" lon="0.67304">
        <ele>2066.2</ele>
        <time>2016-10-21T07:02:45Z</time>
      </trkpt>
      <trkpt lat="42.7296" lon="0.67316">
        <ele>2064.2</ele>
        <time>2016-10-21T07:02:52Z</time>
      </trkpt>
      <trkpt lat="42.72955" lon="0.67328">
        <ele>2062.9</ele>
        <time>2016-10-21T07:02:59Z</time>
      </trkpt>
      <trkpt lat="42.72952" lon="0.6734">
        <ele>2061.6</ele>
        <time>2016-10-21T07:03:06Z</time>
      </trkpt>
      <trkpt lat="42.72952" lon="0.67352">
        <ele>2059.9</ele>
        <time>2016-10-21T07:03:13Z</time>
      </trkpt>
      <trkpt lat="42.72951" lon="0.67365">
        <ele>2057.1</ele>
        <time>2016-10-21T07:03:20Z</time>
      </trkpt>
      <trkpt lat="42.72947" lon="0.67378">
        <ele>2054.4</ele>
        <time>2016-10-21T07:03:28Z</time>
      </trkpt>
      <trkpt lat="42.72944" lon="0.67391">
        <ele>2051.8</ele>
        <time>2016-10-21T07:03:36Z</time>
      </trkpt>
      <trkpt lat="42.72939" lon="0.67403">
        <ele>2050.2</ele>
        <time>2016-10-21T07:03:44Z</time>
      </trkpt>
      <trkpt lat="42.72934" lon="0.67415">
        <ele>2050.2</ele>
        <time>2016-10-21T07:03:52Z</time>
      </trkpt>
      <trkpt lat="42.72929" lon="0.67427">
        <ele>2049.5</ele>
        <time>2016-10-21T07:04:00Z</time>
      </trkpt>
      <trkpt lat="42.72922" lon="0.67435">
        <ele>2049</ele>
        <time>2016-10-21T07:04:17Z</time>
      </trkpt>
      <trkpt lat="42.7292" lon="0.67442">
        <ele>2048.7</ele>
        <time>2016-10-21T07:04:37Z</time>
      </trkpt>
      <trkpt lat="42.72927" lon="0.67453">
        <ele>2050.6</ele>
        <time>2016-10-21T07:04:52Z</time>
      </trkpt>
      <trkpt lat="42.7293" lon="0.67465">
        <ele>2052.5</ele>
        <time>2016-10-21T07:05:06Z</time>
      </trkpt>
      <trkpt lat="42.72928" lon="0.67477">
        <ele>2053.3</ele>
        <time>2016-10-21T07:05:29Z</time>
      </trkpt>
      <trkpt lat="42.72924" lon="0.67488">
        <ele>2053.6</ele>
        <time>2016-10-21T07:05:37Z</time>
      </trkpt>
      <trkpt lat="42.72919" lon="0.67499">
        <ele>2053.6</ele>
        <time>2016-10-21T07:05:45Z</time>
      </trkpt>
      <trkpt lat="42.72916" lon="0.67511">
        <ele>2053.5</ele>
        <time>2016-10-21T07:05:53Z</time>
      </trkpt>
      <trkpt lat="42.72912" lon="0.67522">
        <ele>2053.5</ele>
        <time>2016-10-21T07:06:04Z</time>
      </trkpt>
      <trkpt lat="42.72908" lon="0.67533">
        <ele>2053.9</ele>
        <time>2016-10-21T07:06:12Z</time>
      </trkpt>
      <trkpt lat="42.72902" lon="0.67545">
        <ele>2053.9</ele>
        <time>2016-10-21T07:06:20Z</time>
      </trkpt>
      <trkpt lat="42.72897" lon="0.67555">
        <ele>2053.6</ele>
        <time>2016-10-21T07:06:27Z</time>
      </trkpt>
      <trkpt lat="42.72891" lon="0.67564">
        <ele>2052.9</ele>
        <time>2016-10-21T07:06:34Z</time>
      </trkpt>
      <trkpt lat="42.72884" lon="0.67571">
        <ele>2052.1</ele>
        <time>2016-10-21T07:06:41Z</time>
      </trkpt>
      <trkpt lat="42.72876" lon="0.6758">
        <ele>2051.1</ele>
        <time>2016-10-21T07:06:49Z</time>
      </trkpt>
      <trkpt lat="42.72871" lon="0.6759">
        <ele>2050.1</ele>
        <time>2016-10-21T07:06:56Z</time>
      </trkpt>
      <trkpt lat="42.72867" lon="0.67602">
        <ele>2049.9</ele>
        <time>2016-10-21T07:07:04Z</time>
      </trkpt>
      <trkpt lat="42.72862" lon="0.67613">
        <ele>2050.4</ele>
        <time>2016-10-21T07:07:13Z</time>
      </trkpt>
      <trkpt lat="42.72858" lon="0.67624">
        <ele>2051</ele>
        <time>2016-10-21T07:07:21Z</time>
      </trkpt>
      <trkpt lat="42.72854" lon="0.67635">
        <ele>2051.7</ele>
        <time>2016-10-21T07:07:29Z</time>
      </trkpt>
      <trkpt lat="42.72849" lon="0.67646">
        <ele>2051.7</ele>
        <time>2016-10-21T07:07:37Z</time>
      </trkpt>
      <trkpt lat="42.7284" lon="0.67655">
        <ele>2051</ele>
        <time>2016-10-21T07:07:45Z</time>
      </trkpt>
      <trkpt lat="42.72832" lon="0.67661">
        <ele>2049.4</ele>
        <time>2016-10-21T07:07:52Z</time>
      </trkpt>
      <trkpt lat="42.72826" lon="0.67669">
        <ele>2048</ele>
        <time>2016-10-21T07:08:00Z</time>
      </trkpt>
      <trkpt lat="42.72819" lon="0.67679">
        <ele>2047.2</ele>
        <time>2016-10-21T07:08:08Z</time>
      </trkpt>
      <trkpt lat="42.72812" lon="0.67689">
        <ele>2046.6</ele>
        <time>2016-10-21T07:08:16Z</time>
      </trkpt>
      <trkpt lat="42.72805" lon="0.67699">
        <ele>2045.8</ele>
        <time>2016-10-21T07:08:24Z</time>
      </trkpt>
      <trkpt lat="42.72798" lon="0.67709">
        <ele>2045.4</ele>
        <time>2016-10-21T07:08:32Z</time>
      </trkpt>
      <trkpt lat="42.7279" lon="0.67717">
        <ele>2045.1</ele>
        <time>2016-10-21T07:08:40Z</time>
      </trkpt>
      <trkpt lat="42.72783" lon="0.67725">
        <ele>2044.7</ele>
        <time>2016-10-21T07:08:48Z</time>
      </trkpt>
      <trkpt lat="42.72776" lon="0.67734">
        <ele>2044.7</ele>
        <time>2016-10-21T07:08:57Z</time>
      </trkpt>
      <trkpt lat="42.72768" lon="0.67742">
        <ele>2044.6</ele>
        <time>2016-10-21T07:09:05Z</time>
      </trkpt>
      <trkpt lat="42.72761" lon="0.6775">
        <ele>2043.9</ele>
        <time>2016-10-21T07:09:14Z</time>
      </trkpt>
      <trkpt lat="42.72753" lon="0.67757">
        <ele>2044.9</ele>
        <time>2016-10-21T07:09:24Z</time>
      </trkpt>
      <trkpt lat="42.72745" lon="0.67764">
        <ele>2046.1</ele>
        <time>2016-10-21T07:09:34Z</time>
      </trkpt>
      <trkpt lat="42.72736" lon="0.67771">
        <ele>2046.7</ele>
        <time>2016-10-21T07:09:43Z</time>
      </trkpt>
      <trkpt lat="42.72728" lon="0.67774">
        <ele>2047.7</ele>
        <time>2016-10-21T07:09:52Z</time>
      </trkpt>
      <trkpt lat="42.72719" lon="0.67779">
        <ele>2048.1</ele>
        <time>2016-10-21T07:10:01Z</time>
      </trkpt>
      <trkpt lat="42.72711" lon="0.67782">
        <ele>2048.1</ele>
        <time>2016-10-21T07:10:11Z</time>
      </trkpt>
      <trkpt lat="42.72702" lon="0.67785">
        <ele>2049</ele>
        <time>2016-10-21T07:10:23Z</time>
      </trkpt>
      <trkpt lat="42.72693" lon="0.67783">
        <ele>2050.6</ele>
        <time>2016-10-21T07:10:34Z</time>
      </trkpt>
      <trkpt lat="42.72685" lon="0.67782">
        <ele>2050.8</ele>
        <time>2016-10-21T07:10:43Z</time>
      </trkpt>
      <trkpt lat="42.72675" lon="0.67781">
        <ele>2050.6</ele>
        <time>2016-10-21T07:10:52Z</time>
      </trkpt>
      <trkpt lat="42.72666" lon="0.6778">
        <ele>2051.2</ele>
        <time>2016-10-21T07:11:04Z</time>
      </trkpt>
      <trkpt lat="42.72659" lon="0.67787">
        <ele>2053.5</ele>
        <time>2016-10-21T07:11:18Z</time>
      </trkpt>
      <trkpt lat="42.72651" lon="0.67791">
        <ele>2056.3</ele>
        <time>2016-10-21T07:11:32Z</time>
      </trkpt>
      <trkpt lat="42.72644" lon="0.67797">
        <ele>2059.6</ele>
        <time>2016-10-21T07:11:47Z</time>
      </trkpt>
      <trkpt lat="42.72637" lon="0.67805">
        <ele>2062.7</ele>
        <time>2016-10-21T07:12:03Z</time>
      </trkpt>
      <trkpt lat="42.72632" lon="0.67813">
        <ele>2065.2</ele>
        <time>2016-10-21T07:12:17Z</time>
      </trkpt>
      <trkpt lat="42.72625" lon="0.67819">
        <ele>2067.2</ele>
        <time>2016-10-21T07:12:33Z</time>
      </trkpt>
      <trkpt lat="42.72616" lon="0.67824">
        <ele>2070.1</ele>
        <time>2016-10-21T07:12:48Z</time>
      </trkpt>
      <trkpt lat="42.72608" lon="0.67829">
        <ele>2072.6</ele>
        <time>2016-10-21T07:13:03Z</time>
      </trkpt>
      <trkpt lat="42.72601" lon="0.67836">
        <ele>2075.3</ele>
        <time>2016-10-21T07:13:18Z</time>
      </trkpt>
      <trkpt lat="42.72592" lon="0.67841">
        <ele>2077.4</ele>
        <time>2016-10-21T07:13:32Z</time>
      </trkpt>
      <trkpt lat="42.72583" lon="0.67844">
        <ele>2079.6</ele>
        <time>2016-10-21T07:13:47Z</time>
      </trkpt>
      <trkpt lat="42.72575" lon="0.6785">
        <ele>2081.8</ele>
        <time>2016-10-21T07:14:02Z</time>
      </trkpt>
      <trkpt lat="42.72565" lon="0.67852">
        <ele>2084.6</ele>
        <time>2016-10-21T07:14:19Z</time>
      </trkpt>
      <trkpt lat="42.72556" lon="0.67849">
        <ele>2087.9</ele>
        <time>2016-10-21T07:14:38Z</time>
      </trkpt>
      <trkpt lat="42.72545" lon="0.67849">
        <ele>2090.9</ele>
        <time>2016-10-21T07:14:59Z</time>
      </trkpt>
      <trkpt lat="42.72536" lon="0.67849">
        <ele>2093.9</ele>
        <time>2016-10-21T07:15:16Z</time>
      </trkpt>
      <trkpt lat="42.72527" lon="0.67849">
        <ele>2096.9</ele>
        <time>2016-10-21T07:15:33Z</time>
      </trkpt>
      <trkpt lat="42.72518" lon="0.6785">
        <ele>2100.5</ele>
        <time>2016-10-21T07:15:52Z</time>
      </trkpt>
      <trkpt lat="42.72509" lon="0.67852">
        <ele>2103</ele>
        <time>2016-10-21T07:16:11Z</time>
      </trkpt>
      <trkpt lat="42.72499" lon="0.67853">
        <ele>2105.9</ele>
        <time>2016-10-21T07:16:27Z</time>
      </trkpt>
      <trkpt lat="42.72492" lon="0.67854">
        <ele>2109</ele>
        <time>2016-10-21T07:20:08Z</time>
      </trkpt>
      <trkpt lat="42.72483" lon="0.67855">
        <ele>2110.4</ele>
        <time>2016-10-21T07:20:24Z</time>
      </trkpt>
      <trkpt lat="42.72475" lon="0.67857">
        <ele>2114.3</ele>
        <time>2016-10-21T07:20:41Z</time>
      </trkpt>
      <trkpt lat="42.72467" lon="0.67861">
        <ele>2118.7</ele>
        <time>2016-10-21T07:21:02Z</time>
      </trkpt>
      <trkpt lat="42.72459" lon="0.67866">
        <ele>2123</ele>
        <time>2016-10-21T07:21:27Z</time>
      </trkpt>
      <trkpt lat="42.7245" lon="0.67866">
        <ele>2126.8</ele>
        <time>2016-10-21T07:21:50Z</time>
      </trkpt>
      <trkpt lat="42.72442" lon="0.67863">
        <ele>2131.4</ele>
        <time>2016-10-21T07:22:16Z</time>
      </trkpt>
      <trkpt lat="42.72435" lon="0.6787">
        <ele>2136.7</ele>
        <time>2016-10-21T07:22:44Z</time>
      </trkpt>
      <trkpt lat="42.72426" lon="0.67876">
        <ele>2142</ele>
        <time>2016-10-21T07:23:13Z</time>
      </trkpt>
      <trkpt lat="42.72417" lon="0.67879">
        <ele>2147.9</ele>
        <time>2016-10-21T07:23:42Z</time>
      </trkpt>
      <trkpt lat="42.72411" lon="0.67883">
        <ele>2152.1</ele>
        <time>2016-10-21T07:24:06Z</time>
      </trkpt>
      <trkpt lat="42.72404" lon="0.6789">
        <ele>2156.1</ele>
        <time>2016-10-21T07:24:27Z</time>
      </trkpt>
      <trkpt lat="42.72397" lon="0.67894">
        <ele>2160.1</ele>
        <time>2016-10-21T07:24:49Z</time>
      </trkpt>
      <trkpt lat="42.7239" lon="0.679">
        <ele>2165.8</ele>
        <time>2016-10-21T07:25:18Z</time>
      </trkpt>
      <trkpt lat="42.72385" lon="0.6791">
        <ele>2171.5</ele>
        <time>2016-10-21T07:25:51Z</time>
      </trkpt>
      <trkpt lat="42.72383" lon="0.67923">
        <ele>2175.6</ele>
        <time>2016-10-21T07:26:17Z</time>
      </trkpt>
      <trkpt lat="42.72377" lon="0.67931">
        <ele>2179.8</ele>
        <time>2016-10-21T07:26:40Z</time>
      </trkpt>
      <trkpt lat="42.7237" lon="0.67937">
        <ele>2183.7</ele>
        <time>2016-10-21T07:27:02Z</time>
      </trkpt>
      <trkpt lat="42.72362" lon="0.67941">
        <ele>2189</ele>
        <time>2016-10-21T07:27:30Z</time>
      </trkpt>
      <trkpt lat="42.72358" lon="0.6795">
        <ele>2194</ele>
        <time>2016-10-21T07:27:57Z</time>
      </trkpt>
      <trkpt lat="42.72351" lon="0.67958">
        <ele>2198.1</ele>
        <time>2016-10-21T07:28:20Z</time>
      </trkpt>
      <trkpt lat="42.72345" lon="0.67966">
        <ele>2201.8</ele>
        <time>2016-10-21T07:28:40Z</time>
      </trkpt>
      <trkpt lat="42.72338" lon="0.67976">
        <ele>2205</ele>
        <time>2016-10-21T07:29:10Z</time>
      </trkpt>
      <trkpt lat="42.72333" lon="0.67988">
        <ele>2208.5</ele>
        <time>2016-10-21T07:29:33Z</time>
      </trkpt>
      <trkpt lat="42.72331" lon="0.67999">
        <ele>2213.6</ele>
        <time>2016-10-21T07:29:58Z</time>
      </trkpt>
      <trkpt lat="42.72328" lon="0.68007">
        <ele>2218</ele>
        <time>2016-10-21T07:30:34Z</time>
      </trkpt>
      <trkpt lat="42.72328" lon="0.68017">
        <ele>2218.3</ele>
        <time>2016-10-21T07:31:13Z</time>
      </trkpt>
      <trkpt lat="42.72327" lon="0.68025">
        <ele>2219.5</ele>
        <time>2016-10-21T07:35:29Z</time>
      </trkpt>
      <trkpt lat="42.72328" lon="0.68039">
        <ele>2218</ele>
        <time>2016-10-21T07:35:40Z</time>
      </trkpt>
      <trkpt lat="42.72329" lon="0.68052">
        <ele>2215.2</ele>
        <time>2016-10-21T07:35:50Z</time>
      </trkpt>
      <trkpt lat="42.72326" lon="0.68064">
        <ele>2211.8</ele>
        <time>2016-10-21T07:36:03Z</time>
      </trkpt>
      <trkpt lat="42.72322" lon="0.68076">
        <ele>2207.3</ele>
        <time>2016-10-21T07:36:17Z</time>
      </trkpt>
      <trkpt lat="42.72323" lon="0.68088">
        <ele>2204.6</ele>
        <time>2016-10-21T07:36:26Z</time>
      </trkpt>
      <trkpt lat="42.72324" lon="0.68102">
        <ele>2203.4</ele>
        <time>2016-10-21T07:36:35Z</time>
      </trkpt>
      <trkpt lat="42.72326" lon="0.68114">
        <ele>2202.4</ele>
        <time>2016-10-21T07:36:44Z</time>
      </trkpt>
      <trkpt lat="42.72329" lon="0.68127">
        <ele>2202</ele>
        <time>2016-10-21T07:36:53Z</time>
      </trkpt>
      <trkpt lat="42.72331" lon="0.6814">
        <ele>2201.2</ele>
        <time>2016-10-21T07:37:01Z</time>
      </trkpt>
      <trkpt lat="42.72332" lon="0.68154">
        <ele>2200.8</ele>
        <time>2016-10-21T07:37:11Z</time>
      </trkpt>
      <trkpt lat="42.72334" lon="0.68169">
        <ele>2200.3</ele>
        <time>2016-10-21T07:37:20Z</time>
      </trkpt>
      <trkpt lat="42.72335" lon="0.68183">
        <ele>2200</ele>
        <time>2016-10-21T07:37:28Z</time>
      </trkpt>
      <trkpt lat="42.72334" lon="0.68196">
        <ele>2200.5</ele>
        <time>2016-10-21T07:37:38Z</time>
      </trkpt>
      <trkpt lat="42.72334" lon="0.6821">
        <ele>2201.1</ele>
        <time>2016-10-21T07:37:47Z</time>
      </trkpt>
      <trkpt lat="42.72335" lon="0.68223">
        <ele>2200.7</ele>
        <time>2016-10-21T07:37:55Z</time>
      </trkpt>
      <trkpt lat="42.72332" lon="0.68236">
        <ele>2200.4</ele>
        <time>2016-10-21T07:38:03Z</time>
      </trkpt>
      <trkpt lat="42.72333" lon="0.68248">
        <ele>2200.5</ele>
        <time>2016-10-21T07:38:11Z</time>
      </trkpt>
      <trkpt lat="42.72331" lon="0.68261">
        <ele>2199.5</ele>
        <time>2016-10-21T07:38:20Z</time>
      </trkpt>
      <trkpt lat="42.7233" lon="0.68275">
        <ele>2198.8</ele>
        <time>2016-10-21T07:38:32Z</time>
      </trkpt>
      <trkpt lat="42.72327" lon="0.68288">
        <ele>2198.4</ele>
        <time>2016-10-21T07:38:40Z</time>
      </trkpt>
      <trkpt lat="42.72328" lon="0.68301">
        <ele>2196.9</ele>
        <time>2016-10-21T07:38:49Z</time>
      </trkpt>
      <trkpt lat="42.72328" lon="0.68315">
        <ele>2194.7</ele>
        <time>2016-10-21T07:38:58Z</time>
      </trkpt>
      <trkpt lat="42.72329" lon="0.68327">
        <ele>2192.4</ele>
        <time>2016-10-21T07:39:09Z</time>
      </trkpt>
      <trkpt lat="42.72329" lon="0.68336">
        <ele>2191.7</ele>
        <time>2016-10-21T07:40:12Z</time>
      </trkpt>
      <trkpt lat="42.72327" lon="0.6835">
        <ele>2190.9</ele>
        <time>2016-10-21T07:40:20Z</time>
      </trkpt>
      <trkpt lat="42.72328" lon="0.68363">
        <ele>2189</ele>
        <time>2016-10-21T07:40:28Z</time>
      </trkpt>
      <trkpt lat="42.7233" lon="0.68376">
        <ele>2188</ele>
        <time>2016-10-21T07:40:35Z</time>
      </trkpt>
      <trkpt lat="42.72327" lon="0.6839">
        <ele>2186.5</ele>
        <time>2016-10-21T07:40:43Z</time>
      </trkpt>
      <trkpt lat="42.72327" lon="0.68404">
        <ele>2185.2</ele>
        <time>2016-10-21T07:40:50Z</time>
      </trkpt>
      <trkpt lat="42.72324" lon="0.68416">
        <ele>2183.6</ele>
        <time>2016-10-21T07:40:58Z</time>
      </trkpt>
      <trkpt lat="42.72322" lon="0.68427">
        <ele>2182.2</ele>
        <time>2016-10-21T07:41:06Z</time>
      </trkpt>
      <trkpt lat="42.72319" lon="0.6844">
        <ele>2180.3</ele>
        <time>2016-10-21T07:41:16Z</time>
      </trkpt>
      <trkpt lat="42.72315" lon="0.68452">
        <ele>2179.9</ele>
        <time>2016-10-21T07:41:24Z</time>
      </trkpt>
      <trkpt lat="42.72313" lon="0.68466">
        <ele>2180.3</ele>
        <time>2016-10-21T07:41:33Z</time>
      </trkpt>
      <trkpt lat="42.7231" lon="0.68478">
        <ele>2180.5</ele>
        <time>2016-10-21T07:41:41Z</time>
      </trkpt>
      <trkpt lat="42.72308" lon="0.6849">
        <ele>2180.8</ele>
        <time>2016-10-21T07:41:49Z</time>
      </trkpt>
      <trkpt lat="42.72304" lon="0.68502">
        <ele>2181.3</ele>
        <time>2016-10-21T07:41:59Z</time>
      </trkpt>
      <trkpt lat="42.72303" lon="0.68516">
        <ele>2182.6</ele>
        <time>2016-10-21T07:42:12Z</time>
      </trkpt>
      <trkpt lat="42.72301" lon="0.68529">
        <ele>2184</ele>
        <time>2016-10-21T07:42:23Z</time>
      </trkpt>
      <trkpt lat="42.72299" lon="0.68541">
        <ele>2185.8</ele>
        <time>2016-10-21T07:42:40Z</time>
      </trkpt>
      <trkpt lat="42.72299" lon="0.68555">
        <ele>2186.6</ele>
        <time>2016-10-21T07:42:52Z</time>
      </trkpt>
      <trkpt lat="42.723" lon="0.68569">
        <ele>2187.3</ele>
        <time>2016-10-21T07:43:03Z</time>
      </trkpt>
      <trkpt lat="42.723" lon="0.68581">
        <ele>2186.2</ele>
        <time>2016-10-21T07:43:12Z</time>
      </trkpt>
      <trkpt lat="42.72299" lon="0.68595">
        <ele>2184.7</ele>
        <time>2016-10-21T07:43:23Z</time>
      </trkpt>
      <trkpt lat="42.72295" lon="0.68606">
        <ele>2183.1</ele>
        <time>2016-10-21T07:43:31Z</time>
      </trkpt>
      <trkpt lat="42.72293" lon="0.68619">
        <ele>2182.9</ele>
        <time>2016-10-21T07:43:39Z</time>
      </trkpt>
      <trkpt lat="42.72288" lon="0.68631">
        <ele>2182.9</ele>
        <time>2016-10-21T07:43:47Z</time>
      </trkpt>
      <trkpt lat="42.72285" lon="0.68643">
        <ele>2183.2</ele>
        <time>2016-10-21T07:43:55Z</time>
      </trkpt>
      <trkpt lat="42.72282" lon="0.68655">
        <ele>2184.1</ele>
        <time>2016-10-21T07:44:03Z</time>
      </trkpt>
      <trkpt lat="42.72278" lon="0.68667">
        <ele>2185.2</ele>
        <time>2016-10-21T07:44:12Z</time>
      </trkpt>
      <trkpt lat="42.72274" lon="0.6868">
        <ele>2186.9</ele>
        <time>2016-10-21T07:44:21Z</time>
      </trkpt>
      <trkpt lat="42.72269" lon="0.68692">
        <ele>2188.7</ele>
        <time>2016-10-21T07:44:31Z</time>
      </trkpt>
      <trkpt lat="42.72264" lon="0.68701">
        <ele>2190.6</ele>
        <time>2016-10-21T07:44:42Z</time>
      </trkpt>
      <trkpt lat="42.72256" lon="0.68708">
        <ele>2193.8</ele>
        <time>2016-10-21T07:44:57Z</time>
      </trkpt>
      <trkpt lat="42.72253" lon="0.68719">
        <ele>2197.9</ele>
        <time>2016-10-21T07:45:12Z</time>
      </trkpt>
      <trkpt lat="42.72247" lon="0.68728">
        <ele>2202.2</ele>
        <time>2016-10-21T07:45:28Z</time>
      </trkpt>
      <trkpt lat="42.72241" lon="0.68738">
        <ele>2206.6</ele>
        <time>2016-10-21T07:45:46Z</time>
      </trkpt>
      <trkpt lat="42.72235" lon="0.68746">
        <ele>2210.1</ele>
        <time>2016-10-21T07:46:02Z</time>
      </trkpt>
      <trkpt lat="42.72226" lon="0.68752">
        <ele>2212.2</ele>
        <time>2016-10-21T07:46:15Z</time>
      </trkpt>
      <trkpt lat="42.72219" lon="0.6876">
        <ele>2214.5</ele>
        <time>2016-10-21T07:46:28Z</time>
      </trkpt>
      <trkpt lat="42.72212" lon="0.68768">
        <ele>2216.9</ele>
        <time>2016-10-21T07:46:42Z</time>
      </trkpt>
      <trkpt lat="42.72204" lon="0.68774">
        <ele>2220.6</ele>
        <time>2016-10-21T07:46:59Z</time>
      </trkpt>
      <trkpt lat="42.72197" lon="0.68782">
        <ele>2222.9</ele>
        <time>2016-10-21T07:47:19Z</time>
      </trkpt>
      <trkpt lat="42.72189" lon="0.68787">
        <ele>2223.8</ele>
        <time>2016-10-21T07:47:29Z</time>
      </trkpt>
      <trkpt lat="42.72182" lon="0.68794">
        <ele>2225.4</ele>
        <time>2016-10-21T07:47:38Z</time>
      </trkpt>
      <trkpt lat="42.72175" lon="0.68801">
        <ele>2227.6</ele>
        <time>2016-10-21T07:47:49Z</time>
      </trkpt>
      <trkpt lat="42.72167" lon="0.68808">
        <ele>2228.8</ele>
        <time>2016-10-21T07:47:58Z</time>
      </trkpt>
      <trkpt lat="42.7216" lon="0.68815">
        <ele>2229.9</ele>
        <time>2016-10-21T07:48:08Z</time>
      </trkpt>
      <trkpt lat="42.72153" lon="0.68825">
        <ele>2232</ele>
        <time>2016-10-21T07:48:21Z</time>
      </trkpt>
      <trkpt lat="42.72145" lon="0.6883">
        <ele>2234.4</ele>
        <time>2016-10-21T07:48:33Z</time>
      </trkpt>
      <trkpt lat="42.72136" lon="0.68836">
        <ele>2236.1</ele>
        <time>2016-10-21T07:48:44Z</time>
      </trkpt>
      <trkpt lat="42.72128" lon="0.68843">
        <ele>2237.6</ele>
        <time>2016-10-21T07:48:55Z</time>
      </trkpt>
      <trkpt lat="42.7212" lon="0.68848">
        <ele>2239.4</ele>
        <time>2016-10-21T07:49:06Z</time>
      </trkpt>
      <trkpt lat="42.72111" lon="0.68852">
        <ele>2241.6</ele>
        <time>2016-10-21T07:49:18Z</time>
      </trkpt>
      <trkpt lat="42.72103" lon="0.6886">
        <ele>2243.2</ele>
        <time>2016-10-21T07:49:29Z</time>
      </trkpt>
      <trkpt lat="42.72094" lon="0.68865">
        <ele>2244.9</ele>
        <time>2016-10-21T07:49:39Z</time>
      </trkpt>
      <trkpt lat="42.72086" lon="0.6887">
        <ele>2246.4</ele>
        <time>2016-10-21T07:49:47Z</time>
      </trkpt>
      <trkpt lat="42.72076" lon="0.68872">
        <ele>2247.7</ele>
        <time>2016-10-21T07:49:56Z</time>
      </trkpt>
      <trkpt lat="42.72068" lon="0.68874">
        <ele>2248.9</ele>
        <time>2016-10-21T07:50:04Z</time>
      </trkpt>
      <trkpt lat="42.7206" lon="0.68879">
        <ele>2250.8</ele>
        <time>2016-10-21T07:50:28Z</time>
      </trkpt>
      <trkpt lat="42.72053" lon="0.68886">
        <ele>2252.5</ele>
        <time>2016-10-21T07:50:36Z</time>
      </trkpt>
      <trkpt lat="42.72045" lon="0.68893">
        <ele>2255.5</ele>
        <time>2016-10-21T07:50:45Z</time>
      </trkpt>
      <trkpt lat="42.72037" lon="0.68901">
        <ele>2258.4</ele>
        <time>2016-10-21T07:50:55Z</time>
      </trkpt>
      <trkpt lat="42.72028" lon="0.6891">
        <ele>2260.4</ele>
        <time>2016-10-21T07:51:04Z</time>
      </trkpt>
      <trkpt lat="42.7202" lon="0.68915">
        <ele>2262.6</ele>
        <time>2016-10-21T07:51:13Z</time>
      </trkpt>
      <trkpt lat="42.72012" lon="0.68923">
        <ele>2263.1</ele>
        <time>2016-10-21T07:51:22Z</time>
      </trkpt>
      <trkpt lat="42.72006" lon="0.68936">
        <ele>2263.4</ele>
        <time>2016-10-21T07:53:16Z</time>
      </trkpt>
      <trkpt lat="42.72006" lon="0.68936">
        <ele>2262.8</ele>
        <time>2016-10-21T07:54:11Z</time>
      </trkpt>
      <trkpt lat="42.72006" lon="0.68948">
        <ele>2261.9</ele>
        <time>2016-10-21T07:54:20Z</time>
      </trkpt>
      <trkpt lat="42.72004" lon="0.68962">
        <ele>2258.3</ele>
        <time>2016-10-21T07:54:32Z</time>
      </trkpt>
      <trkpt lat="42.72004" lon="0.68976">
        <ele>2255.2</ele>
        <time>2016-10-21T07:54:43Z</time>
      </trkpt>
      <trkpt lat="42.72001" lon="0.68989">
        <ele>2252.9</ele>
        <time>2016-10-21T07:54:55Z</time>
      </trkpt>
      <trkpt lat="42.71998" lon="0.69001">
        <ele>2250.1</ele>
        <time>2016-10-21T07:55:06Z</time>
      </trkpt>
      <trkpt lat="42.71995" lon="0.69012">
        <ele>2247</ele>
        <time>2016-10-21T07:55:17Z</time>
      </trkpt>
      <trkpt lat="42.71993" lon="0.69025">
        <ele>2243.5</ele>
        <time>2016-10-21T07:55:29Z</time>
      </trkpt>
      <trkpt lat="42.71992" lon="0.69038">
        <ele>2241.3</ele>
        <time>2016-10-21T07:55:40Z</time>
      </trkpt>
      <trkpt lat="42.7199" lon="0.69051">
        <ele>2237.9</ele>
        <time>2016-10-21T07:55:50Z</time>
      </trkpt>
      <trkpt lat="42.71986" lon="0.69062">
        <ele>2234.6</ele>
        <time>2016-10-21T07:56:00Z</time>
      </trkpt>
      <trkpt lat="42.71983" lon="0.69074">
        <ele>2230.5</ele>
        <time>2016-10-21T07:56:12Z</time>
      </trkpt>
      <trkpt lat="42.7198" lon="0.69086">
        <ele>2226.1</ele>
        <time>2016-10-21T07:56:25Z</time>
      </trkpt>
      <trkpt lat="42.71979" lon="0.69099">
        <ele>2222.1</ele>
        <time>2016-10-21T07:56:37Z</time>
      </trkpt>
      <trkpt lat="42.71977" lon="0.69112">
        <ele>2219.2</ele>
        <time>2016-10-21T07:56:48Z</time>
      </trkpt>
      <trkpt lat="42.71973" lon="0.69124">
        <ele>2215.7</ele>
        <time>2016-10-21T07:57:00Z</time>
      </trkpt>
      <trkpt lat="42.7197" lon="0.69137">
        <ele>2211.1</ele>
        <time>2016-10-21T07:57:17Z</time>
      </trkpt>
      <trkpt lat="42.71966" lon="0.69151">
        <ele>2206.9</ele>
        <time>2016-10-21T07:57:29Z</time>
      </trkpt>
      <trkpt lat="42.71962" lon="0.69165">
        <ele>2202.8</ele>
        <time>2016-10-21T07:57:40Z</time>
      </trkpt>
      <trkpt lat="42.71957" lon="0.69179">
        <ele>2200.3</ele>
        <time>2016-10-21T07:57:50Z</time>
      </trkpt>
      <trkpt lat="42.71952" lon="0.69188">
        <ele>2197.4</ele>
        <time>2016-10-21T07:57:59Z</time>
      </trkpt>
      <trkpt lat="42.71947" lon="0.692">
        <ele>2194.8</ele>
        <time>2016-10-21T07:58:08Z</time>
      </trkpt>
      <trkpt lat="42.71942" lon="0.6921">
        <ele>2192.6</ele>
        <time>2016-10-21T07:58:16Z</time>
      </trkpt>
      <trkpt lat="42.71936" lon="0.69221">
        <ele>2190.3</ele>
        <time>2016-10-21T07:58:24Z</time>
      </trkpt>
      <trkpt lat="42.7193" lon="0.69233">
        <ele>2188.9</ele>
        <time>2016-10-21T07:58:32Z</time>
      </trkpt>
      <trkpt lat="42.71926" lon="0.69244">
        <ele>2188.4</ele>
        <time>2016-10-21T07:58:39Z</time>
      </trkpt>
      <trkpt lat="42.71923" lon="0.69255">
        <ele>2188.3</ele>
        <time>2016-10-21T07:58:46Z</time>
      </trkpt>
      <trkpt lat="42.71919" lon="0.69267">
        <ele>2188.5</ele>
        <time>2016-10-21T07:58:54Z</time>
      </trkpt>
      <trkpt lat="42.71914" lon="0.69279">
        <ele>2188.9</ele>
        <time>2016-10-21T07:59:02Z</time>
      </trkpt>
      <trkpt lat="42.71909" lon="0.69291">
        <ele>2188.6</ele>
        <time>2016-10-21T07:59:09Z</time>
      </trkpt>
      <trkpt lat="42.71903" lon="0.69302">
        <ele>2189.6</ele>
        <time>2016-10-21T07:59:19Z</time>
      </trkpt>
      <trkpt lat="42.71896" lon="0.69311">
        <ele>2190.5</ele>
        <time>2016-10-21T07:59:30Z</time>
      </trkpt>
      <trkpt lat="42.7189" lon="0.69321">
        <ele>2189.9</ele>
        <time>2016-10-21T07:59:39Z</time>
      </trkpt>
      <trkpt lat="42.71885" lon="0.69331">
        <ele>2191</ele>
        <time>2016-10-21T07:59:51Z</time>
      </trkpt>
      <trkpt lat="42.71877" lon="0.69338">
        <ele>2193.7</ele>
        <time>2016-10-21T08:00:04Z</time>
      </trkpt>
      <trkpt lat="42.7187" lon="0.69348">
        <ele>2196.6</ele>
        <time>2016-10-21T08:00:18Z</time>
      </trkpt>
      <trkpt lat="42.71863" lon="0.69355">
        <ele>2199.7</ele>
        <time>2016-10-21T08:00:34Z</time>
      </trkpt>
      <trkpt lat="42.71857" lon="0.69363">
        <ele>2202.7</ele>
        <time>2016-10-21T08:00:51Z</time>
      </trkpt>
      <trkpt lat="42.71848" lon="0.6937">
        <ele>2205.9</ele>
        <time>2016-10-21T08:01:08Z</time>
      </trkpt>
      <trkpt lat="42.7184" lon="0.69377">
        <ele>2208.7</ele>
        <time>2016-10-21T08:01:24Z</time>
      </trkpt>
      <trkpt lat="42.71833" lon="0.69385">
        <ele>2211.8</ele>
        <time>2016-10-21T08:01:39Z</time>
      </trkpt>
      <trkpt lat="42.71826" lon="0.69393">
        <ele>2214.9</ele>
        <time>2016-10-21T08:02:11Z</time>
      </trkpt>
      <trkpt lat="42.71823" lon="0.69402">
        <ele>2217.8</ele>
        <time>2016-10-21T08:02:30Z</time>
      </trkpt>
      <trkpt lat="42.71818" lon="0.69412">
        <ele>2219.6</ele>
        <time>2016-10-21T08:02:46Z</time>
      </trkpt>
      <trkpt lat="42.71816" lon="0.69424">
        <ele>2222.8</ele>
        <time>2016-10-21T08:03:00Z</time>
      </trkpt>
      <trkpt lat="42.71814" lon="0.69438">
        <ele>2225.5</ele>
        <time>2016-10-21T08:03:14Z</time>
      </trkpt>
      <trkpt lat="42.71813" lon="0.69451">
        <ele>2228</ele>
        <time>2016-10-21T08:03:28Z</time>
      </trkpt>
      <trkpt lat="42.71811" lon="0.69464">
        <ele>2231.2</ele>
        <time>2016-10-21T08:03:44Z</time>
      </trkpt>
      <trkpt lat="42.71806" lon="0.69474">
        <ele>2232.4</ele>
        <time>2016-10-21T08:03:58Z</time>
      </trkpt>
      <trkpt lat="42.71807" lon="0.6948">
        <ele>2235</ele>
        <time>2016-10-21T08:06:26Z</time>
      </trkpt>
      <trkpt lat="42.71801" lon="0.69486">
        <ele>2233.1</ele>
        <time>2016-10-21T08:07:01Z</time>
      </trkpt>
      <trkpt lat="42.718" lon="0.695">
        <ele>2231.7</ele>
        <time>2016-10-21T08:07:13Z</time>
      </trkpt>
      <trkpt lat="42.71799" lon="0.69512">
        <ele>2232.3</ele>
        <time>2016-10-21T08:07:26Z</time>
      </trkpt>
      <trkpt lat="42.71802" lon="0.69525">
        <ele>2235.2</ele>
        <time>2016-10-21T08:07:44Z</time>
      </trkpt>
      <trkpt lat="42.71806" lon="0.69537">
        <ele>2238.2</ele>
        <time>2016-10-21T08:08:01Z</time>
      </trkpt>
      <trkpt lat="42.718" lon="0.69547">
        <ele>2239.8</ele>
        <time>2016-10-21T08:08:14Z</time>
      </trkpt>
      <trkpt lat="42.71797" lon="0.6956">
        <ele>2241.6</ele>
        <time>2016-10-21T08:08:29Z</time>
      </trkpt>
      <trkpt lat="42.71794" lon="0.69573">
        <ele>2244.9</ele>
        <time>2016-10-21T08:08:48Z</time>
      </trkpt>
      <trkpt lat="42.71793" lon="0.69586">
        <ele>2248.1</ele>
        <time>2016-10-21T08:09:06Z</time>
      </trkpt>
      <trkpt lat="42.71791" lon="0.69599">
        <ele>2252</ele>
        <time>2016-10-21T08:09:27Z</time>
      </trkpt>
      <trkpt lat="42.71794" lon="0.69611">
        <ele>2255</ele>
        <time>2016-10-21T08:09:43Z</time>
      </trkpt>
      <trkpt lat="42.7179" lon="0.69615">
        <ele>2257.3</ele>
        <time>2016-10-21T08:09:59Z</time>
      </trkpt>
      <trkpt lat="42.7179" lon="0.69627">
        <ele>2260.2</ele>
        <time>2016-10-21T08:10:15Z</time>
      </trkpt>
      <trkpt lat="42.71791" lon="0.6964">
        <ele>2262.1</ele>
        <time>2016-10-21T08:10:29Z</time>
      </trkpt>
      <trkpt lat="42.71794" lon="0.69652">
        <ele>2263.4</ele>
        <time>2016-10-21T08:10:41Z</time>
      </trkpt>
      <trkpt lat="42.718" lon="0.69661">
        <ele>2264.4</ele>
        <time>2016-10-21T08:10:55Z</time>
      </trkpt>
      <trkpt lat="42.71804" lon="0.69672">
        <ele>2265.5</ele>
        <time>2016-10-21T08:11:07Z</time>
      </trkpt>
      <trkpt lat="42.71808" lon="0.69682">
        <ele>2265.9</ele>
        <time>2016-10-21T08:11:19Z</time>
      </trkpt>
      <trkpt lat="42.71811" lon="0.69692">
        <ele>2266.6</ele>
        <time>2016-10-21T08:11:33Z</time>
      </trkpt>
      <trkpt lat="42.71811" lon="0.69695">
        <ele>2268.9</ele>
        <time>2016-10-21T08:12:29Z</time>
      </trkpt>
      <trkpt lat="42.71808" lon="0.69696">
        <ele>2271.3</ele>
        <time>2016-10-21T08:54:20Z</time>
      </trkpt>
      <trkpt lat="42.71805" lon="0.69685">
        <ele>2270.2</ele>
        <time>2016-10-21T08:55:14Z</time>
      </trkpt>
      <trkpt lat="42.71801" lon="0.69673">
        <ele>2268.2</ele>
        <time>2016-10-21T08:55:30Z</time>
      </trkpt>
      <trkpt lat="42.71794" lon="0.69659">
        <ele>2268.4</ele>
        <time>2016-10-21T08:55:43Z</time>
      </trkpt>
      <trkpt lat="42.71788" lon="0.69649">
        <ele>2267.4</ele>
        <time>2016-10-21T08:55:54Z</time>
      </trkpt>
      <trkpt lat="42.71782" lon="0.69638">
        <ele>2266.3</ele>
        <time>2016-10-21T08:56:03Z</time>
      </trkpt>
      <trkpt lat="42.71778" lon="0.69625">
        <ele>2266.9</ele>
        <time>2016-10-21T08:56:17Z</time>
      </trkpt>
      <trkpt lat="42.71772" lon="0.69616">
        <ele>2268.3</ele>
        <time>2016-10-21T08:56:28Z</time>
      </trkpt>
      <trkpt lat="42.71765" lon="0.69608">
        <ele>2265.6</ele>
        <time>2016-10-21T08:56:41Z</time>
      </trkpt>
      <trkpt lat="42.71758" lon="0.696">
        <ele>2260.9</ele>
        <time>2016-10-21T08:56:54Z</time>
      </trkpt>
      <trkpt lat="42.71754" lon="0.69591">
        <ele>2256</ele>
        <time>2016-10-21T08:57:12Z</time>
      </trkpt>
      <trkpt lat="42.71745" lon="0.6959">
        <ele>2251.2</ele>
        <time>2016-10-21T08:57:28Z</time>
      </trkpt>
      <trkpt lat="42.71736" lon="0.6959">
        <ele>2246.3</ele>
        <time>2016-10-21T08:57:44Z</time>
      </trkpt>
      <trkpt lat="42.71726" lon="0.69589">
        <ele>2243.2</ele>
        <time>2016-10-21T08:57:55Z</time>
      </trkpt>
      <trkpt lat="42.71717" lon="0.69589">
        <ele>2241.6</ele>
        <time>2016-10-21T08:58:05Z</time>
      </trkpt>
      <trkpt lat="42.71711" lon="0.69577">
        <ele>2240.2</ele>
        <time>2016-10-21T08:58:21Z</time>
      </trkpt>
      <trkpt lat="42.71706" lon="0.69569">
        <ele>2235.2</ele>
        <time>2016-10-21T08:58:39Z</time>
      </trkpt>
      <trkpt lat="42.71698" lon="0.6957">
        <ele>2230.1</ele>
        <time>2016-10-21T08:58:55Z</time>
      </trkpt>
      <trkpt lat="42.7169" lon="0.69564">
        <ele>2226.8</ele>
        <time>2016-10-21T08:59:07Z</time>
      </trkpt>
      <trkpt lat="42.71681" lon="0.6956">
        <ele>2223.6</ele>
        <time>2016-10-21T08:59:18Z</time>
      </trkpt>
      <trkpt lat="42.71674" lon="0.69552">
        <ele>2220.4</ele>
        <time>2016-10-21T08:59:30Z</time>
      </trkpt>
      <trkpt lat="42.71667" lon="0.69545">
        <ele>2216.7</ele>
        <time>2016-10-21T08:59:45Z</time>
      </trkpt>
      <trkpt lat="42.7166" lon="0.69538">
        <ele>2214.6</ele>
        <time>2016-10-21T08:59:55Z</time>
      </trkpt>
      <trkpt lat="42.71651" lon="0.69533">
        <ele>2212.1</ele>
        <time>2016-10-21T09:00:07Z</time>
      </trkpt>
      <trkpt lat="42.71643" lon="0.69526">
        <ele>2208</ele>
        <time>2016-10-21T09:00:19Z</time>
      </trkpt>
      <trkpt lat="42.71638" lon="0.69516">
        <ele>2203.8</ele>
        <time>2016-10-21T09:00:30Z</time>
      </trkpt>
      <trkpt lat="42.71634" lon="0.69504">
        <ele>2197.6</ele>
        <time>2016-10-21T09:00:44Z</time>
      </trkpt>
      <trkpt lat="42.71634" lon="0.6949">
        <ele>2191.8</ele>
        <time>2016-10-21T09:00:58Z</time>
      </trkpt>
      <trkpt lat="42.71627" lon="0.69483">
        <ele>2186.6</ele>
        <time>2016-10-21T09:01:10Z</time>
      </trkpt>
      <trkpt lat="42.71622" lon="0.6948">
        <ele>2182.8</ele>
        <time>2016-10-21T09:01:23Z</time>
      </trkpt>
      <trkpt lat="42.71614" lon="0.69469">
        <ele>2178.6</ele>
        <time>2016-10-21T09:01:42Z</time>
      </trkpt>
      <trkpt lat="42.71611" lon="0.69461">
        <ele>2175.6</ele>
        <time>2016-10-21T09:01:52Z</time>
      </trkpt>
      <trkpt lat="42.71602" lon="0.69459">
        <ele>2172.2</ele>
        <time>2016-10-21T09:02:03Z</time>
      </trkpt>
      <trkpt lat="42.71595" lon="0.69452">
        <ele>2169.9</ele>
        <time>2016-10-21T09:02:25Z</time>
      </trkpt>
      <trkpt lat="42.71589" lon="0.69443">
        <ele>2166.7</ele>
        <time>2016-10-21T09:02:40Z</time>
      </trkpt>
      <trkpt lat="42.71585" lon="0.69433">
        <ele>2162.8</ele>
        <time>2016-10-21T09:02:52Z</time>
      </trkpt>
      <trkpt lat="42.71579" lon="0.69422">
        <ele>2159</ele>
        <time>2016-10-21T09:03:01Z</time>
      </trkpt>
      <trkpt lat="42.71574" lon="0.69412">
        <ele>2156</ele>
        <time>2016-10-21T09:03:09Z</time>
      </trkpt>
      <trkpt lat="42.71567" lon="0.69403">
        <ele>2152.8</ele>
        <time>2016-10-21T09:03:19Z</time>
      </trkpt>
      <trkpt lat="42.71561" lon="0.69392">
        <ele>2149.7</ele>
        <time>2016-10-21T09:03:27Z</time>
      </trkpt>
      <trkpt lat="42.71555" lon="0.69382">
        <ele>2146</ele>
        <time>2016-10-21T09:03:42Z</time>
      </trkpt>
      <trkpt lat="42.71552" lon="0.69371">
        <ele>2143.9</ele>
        <time>2016-10-21T09:03:51Z</time>
      </trkpt>
      <trkpt lat="42.71544" lon="0.69364">
        <ele>2142</ele>
        <time>2016-10-21T09:04:00Z</time>
      </trkpt>
      <trkpt lat="42.71535" lon="0.69357">
        <ele>2140.9</ele>
        <time>2016-10-21T09:04:08Z</time>
      </trkpt>
      <trkpt lat="42.71528" lon="0.69345">
        <ele>2139.2</ele>
        <time>2016-10-21T09:04:16Z</time>
      </trkpt>
      <trkpt lat="42.71524" lon="0.69334">
        <ele>2138.3</ele>
        <time>2016-10-21T09:04:24Z</time>
      </trkpt>
      <trkpt lat="42.71516" lon="0.69325">
        <ele>2137.6</ele>
        <time>2016-10-21T09:04:32Z</time>
      </trkpt>
      <trkpt lat="42.71508" lon="0.69318">
        <ele>2136.8</ele>
        <time>2016-10-21T09:04:40Z</time>
      </trkpt>
      <trkpt lat="42.71499" lon="0.69311">
        <ele>2136.1</ele>
        <time>2016-10-21T09:04:48Z</time>
      </trkpt>
      <trkpt lat="42.71491" lon="0.69305">
        <ele>2135.6</ele>
        <time>2016-10-21T09:04:55Z</time>
      </trkpt>
      <trkpt lat="42.71483" lon="0.69297">
        <ele>2135</ele>
        <time>2016-10-21T09:05:02Z</time>
      </trkpt>
      <trkpt lat="42.71474" lon="0.69294">
        <ele>2133.9</ele>
        <time>2016-10-21T09:05:09Z</time>
      </trkpt>
      <trkpt lat="42.71465" lon="0.6929">
        <ele>2132.9</ele>
        <time>2016-10-21T09:05:16Z</time>
      </trkpt>
      <trkpt lat="42.71457" lon="0.69284">
        <ele>2132.1</ele>
        <time>2016-10-21T09:05:22Z</time>
      </trkpt>
      <trkpt lat="42.71452" lon="0.69273">
        <ele>2132</ele>
        <time>2016-10-21T09:05:29Z</time>
      </trkpt>
      <trkpt lat="42.71446" lon="0.69264">
        <ele>2132</ele>
        <time>2016-10-21T09:05:36Z</time>
      </trkpt>
      <trkpt lat="42.7144" lon="0.69255">
        <ele>2132.7</ele>
        <time>2016-10-21T09:05:44Z</time>
      </trkpt>
      <trkpt lat="42.71432" lon="0.69249">
        <ele>2133.1</ele>
        <time>2016-10-21T09:05:52Z</time>
      </trkpt>
      <trkpt lat="42.71424" lon="0.69245">
        <ele>2132.2</ele>
        <time>2016-10-21T09:05:59Z</time>
      </trkpt>
      <trkpt lat="42.71419" lon="0.69236">
        <ele>2130.9</ele>
        <time>2016-10-21T09:06:07Z</time>
      </trkpt>
      <trkpt lat="42.71414" lon="0.69225">
        <ele>2129.1</ele>
        <time>2016-10-21T09:06:16Z</time>
      </trkpt>
      <trkpt lat="42.71409" lon="0.69214">
        <ele>2127.1</ele>
        <time>2016-10-21T09:06:26Z</time>
      </trkpt>
      <trkpt lat="42.71406" lon="0.69201">
        <ele>2125.9</ele>
        <time>2016-10-21T09:06:36Z</time>
      </trkpt>
      <trkpt lat="42.71401" lon="0.69191">
        <ele>2124.6</ele>
        <time>2016-10-21T09:06:45Z</time>
      </trkpt>
      <trkpt lat="42.71394" lon="0.69182">
        <ele>2122.5</ele>
        <time>2016-10-21T09:06:55Z</time>
      </trkpt>
      <trkpt lat="42.71387" lon="0.69174">
        <ele>2120.5</ele>
        <time>2016-10-21T09:07:04Z</time>
      </trkpt>
      <trkpt lat="42.71378" lon="0.69167">
        <ele>2118.5</ele>
        <time>2016-10-21T09:07:13Z</time>
      </trkpt>
      <trkpt lat="42.71369" lon="0.6916">
        <ele>2117.1</ele>
        <time>2016-10-21T09:07:22Z</time>
      </trkpt>
      <trkpt lat="42.71367" lon="0.69148">
        <ele>2115.7</ele>
        <time>2016-10-21T09:07:32Z</time>
      </trkpt>
      <trkpt lat="42.71362" lon="0.69136">
        <ele>2112.9</ele>
        <time>2016-10-21T09:07:42Z</time>
      </trkpt>
      <trkpt lat="42.71356" lon="0.69125">
        <ele>2110.1</ele>
        <time>2016-10-21T09:07:53Z</time>
      </trkpt>
      <trkpt lat="42.71352" lon="0.69121">
        <ele>2107.1</ele>
        <time>2016-10-21T09:11:11Z</time>
      </trkpt>
      <trkpt lat="42.71347" lon="0.69111">
        <ele>2106.1</ele>
        <time>2016-10-21T09:11:19Z</time>
      </trkpt>
      <trkpt lat="42.71344" lon="0.69099">
        <ele>2103.4</ele>
        <time>2016-10-21T09:11:27Z</time>
      </trkpt>
      <trkpt lat="42.7134" lon="0.69088">
        <ele>2101.1</ele>
        <time>2016-10-21T09:11:35Z</time>
      </trkpt>
      <trkpt lat="42.71338" lon="0.69075">
        <ele>2098.2</ele>
        <time>2016-10-21T09:11:44Z</time>
      </trkpt>
      <trkpt lat="42.71338" lon="0.69062">
        <ele>2095.6</ele>
        <time>2016-10-21T09:11:53Z</time>
      </trkpt>
      <trkpt lat="42.71335" lon="0.69049">
        <ele>2092.7</ele>
        <time>2016-10-21T09:12:03Z</time>
      </trkpt>
      <trkpt lat="42.71334" lon="0.69038">
        <ele>2089.7</ele>
        <time>2016-10-21T09:12:13Z</time>
      </trkpt>
      <trkpt lat="42.71331" lon="0.69025">
        <ele>2086.2</ele>
        <time>2016-10-21T09:12:25Z</time>
      </trkpt>
      <trkpt lat="42.71326" lon="0.69015">
        <ele>2082.5</ele>
        <time>2016-10-21T09:12:50Z</time>
      </trkpt>
      <trkpt lat="42.71323" lon="0.69003">
        <ele>2080</ele>
        <time>2016-10-21T09:13:09Z</time>
      </trkpt>
      <trkpt lat="42.71321" lon="0.68991">
        <ele>2077.1</ele>
        <time>2016-10-21T09:13:19Z</time>
      </trkpt>
      <trkpt lat="42.7132" lon="0.68978">
        <ele>2074.1</ele>
        <time>2016-10-21T09:13:29Z</time>
      </trkpt>
      <trkpt lat="42.71319" lon="0.68966">
        <ele>2070.3</ele>
        <time>2016-10-21T09:13:50Z</time>
      </trkpt>
      <trkpt lat="42.71318" lon="0.68954">
        <ele>2068.9</ele>
        <time>2016-10-21T09:14:01Z</time>
      </trkpt>
      <trkpt lat="42.71319" lon="0.68942">
        <ele>2066.2</ele>
        <time>2016-10-21T09:14:12Z</time>
      </trkpt>
      <trkpt lat="42.7132" lon="0.68931">
        <ele>2062.8</ele>
        <time>2016-10-21T09:14:23Z</time>
      </trkpt>
      <trkpt lat="42.71323" lon="0.68919">
        <ele>2059.7</ele>
        <time>2016-10-21T09:14:32Z</time>
      </trkpt>
      <trkpt lat="42.71328" lon="0.68908">
        <ele>2056.5</ele>
        <time>2016-10-21T09:14:42Z</time>
      </trkpt>
      <trkpt lat="42.71331" lon="0.68905">
        <ele>2053.1</ele>
        <time>2016-10-21T09:15:22Z</time>
      </trkpt>
      <trkpt lat="42.71334" lon="0.68893">
        <ele>2052.5</ele>
        <time>2016-10-21T09:16:13Z</time>
      </trkpt>
      <trkpt lat="42.71338" lon="0.68884">
        <ele>2051.2</ele>
        <time>2016-10-21T09:16:33Z</time>
      </trkpt>
      <trkpt lat="42.71344" lon="0.68865">
        <ele>2049.5</ele>
        <time>2016-10-21T09:17:20Z</time>
      </trkpt>
      <trkpt lat="42.71347" lon="0.68854">
        <ele>2049</ele>
        <time>2016-10-21T09:17:42Z</time>
      </trkpt>
      <trkpt lat="42.71353" lon="0.68802">
        <ele>2032.8</ele>
        <time>2016-10-21T09:18:26Z</time>
      </trkpt>
      <trkpt lat="42.71367" lon="0.68746">
        <ele>2022.4</ele>
        <time>2016-10-21T09:19:40Z</time>
      </trkpt>
      <trkpt lat="42.71373" lon="0.68709">
        <ele>2014.4</ele>
        <time>2016-10-21T09:20:45Z</time>
      </trkpt>
      <trkpt lat="42.71385" lon="0.68685">
        <ele>2009.8</ele>
        <time>2016-10-21T09:22:03Z</time>
      </trkpt>
      <trkpt lat="42.71397" lon="0.68649">
        <ele>2003.2</ele>
        <time>2016-10-21T09:22:27Z</time>
      </trkpt>
      <trkpt lat="42.71415" lon="0.68616">
        <ele>1996.7</ele>
        <time>2016-10-21T09:22:50Z</time>
      </trkpt>
      <trkpt lat="42.71443" lon="0.68584">
        <ele>1996</ele>
        <time>2016-10-21T09:23:14Z</time>
      </trkpt>
      <trkpt lat="42.71458" lon="0.6856">
        <ele>1996.5</ele>
        <time>2016-10-21T09:23:45Z</time>
      </trkpt>
      <trkpt lat="42.7148" lon="0.68529">
        <ele>1995.7</ele>
        <time>2016-10-21T09:24:17Z</time>
      </trkpt>
      <trkpt lat="42.71501" lon="0.68499">
        <ele>1992.9</ele>
        <time>2016-10-21T09:24:40Z</time>
      </trkpt>
      <trkpt lat="42.71516" lon="0.68477">
        <ele>1992.6</ele>
        <time>2016-10-21T09:25:03Z</time>
      </trkpt>
      <trkpt lat="42.71535" lon="0.68456">
        <ele>1992.9</ele>
        <time>2016-10-21T09:25:18Z</time>
      </trkpt>
      <trkpt lat="42.71543" lon="0.68433">
        <ele>1989.3</ele>
        <time>2016-10-21T09:25:26Z</time>
      </trkpt>
      <trkpt lat="42.71553" lon="0.68409">
        <ele>1974.7</ele>
        <time>2016-10-21T09:25:40Z</time>
      </trkpt>
      <trkpt lat="42.7156" lon="0.68402">
        <ele>1973.6</ele>
        <time>2016-10-21T09:25:47Z</time>
      </trkpt>
      <trkpt lat="42.71566" lon="0.68393">
        <ele>1972.4</ele>
        <time>2016-10-21T09:25:54Z</time>
      </trkpt>
      <trkpt lat="42.71572" lon="0.68384">
        <ele>1971.8</ele>
        <time>2016-10-21T09:26:01Z</time>
      </trkpt>
      <trkpt lat="42.71578" lon="0.68373">
        <ele>1971.1</ele>
        <time>2016-10-21T09:26:08Z</time>
      </trkpt>
      <trkpt lat="42.71583" lon="0.68364">
        <ele>1970.7</ele>
        <time>2016-10-21T09:26:15Z</time>
      </trkpt>
      <trkpt lat="42.71591" lon="0.68357">
        <ele>1970</ele>
        <time>2016-10-21T09:26:23Z</time>
      </trkpt>
      <trkpt lat="42.71599" lon="0.6835">
        <ele>1969.4</ele>
        <time>2016-10-21T09:26:33Z</time>
      </trkpt>
      <trkpt lat="42.71606" lon="0.6834">
        <ele>1967.1</ele>
        <time>2016-10-21T09:26:43Z</time>
      </trkpt>
      <trkpt lat="42.71612" lon="0.68332">
        <ele>1964.1</ele>
        <time>2016-10-21T09:26:53Z</time>
      </trkpt>
      <trkpt lat="42.71618" lon="0.68322">
        <ele>1961.6</ele>
        <time>2016-10-21T09:27:02Z</time>
      </trkpt>
      <trkpt lat="42.71622" lon="0.6831">
        <ele>1959.9</ele>
        <time>2016-10-21T09:27:11Z</time>
      </trkpt>
      <trkpt lat="42.71624" lon="0.68299">
        <ele>1957.9</ele>
        <time>2016-10-21T09:27:19Z</time>
      </trkpt>
      <trkpt lat="42.71631" lon="0.68291">
        <ele>1956.3</ele>
        <time>2016-10-21T09:27:28Z</time>
      </trkpt>
      <trkpt lat="42.71638" lon="0.68258">
        <ele>1948.8</ele>
        <time>2016-10-21T09:28:12Z</time>
      </trkpt>
      <trkpt lat="42.71647" lon="0.6825">
        <ele>1945.1</ele>
        <time>2016-10-21T09:28:25Z</time>
      </trkpt>
      <trkpt lat="42.71654" lon="0.68243">
        <ele>1942.9</ele>
        <time>2016-10-21T09:28:34Z</time>
      </trkpt>
      <trkpt lat="42.71665" lon="0.68239">
        <ele>1941.1</ele>
        <time>2016-10-21T09:28:43Z</time>
      </trkpt>
      <trkpt lat="42.71672" lon="0.6823">
        <ele>1939.6</ele>
        <time>2016-10-21T09:28:53Z</time>
      </trkpt>
      <trkpt lat="42.71678" lon="0.68221">
        <ele>1938.6</ele>
        <time>2016-10-21T09:29:03Z</time>
      </trkpt>
      <trkpt lat="42.7168" lon="0.68202">
        <ele>1939.3</ele>
        <time>2016-10-21T09:55:52Z</time>
      </trkpt>
      <trkpt lat="42.71675" lon="0.68193">
        <ele>1938.7</ele>
        <time>2016-10-21T09:56:10Z</time>
      </trkpt>
      <trkpt lat="42.71671" lon="0.68182">
        <ele>1936.3</ele>
        <time>2016-10-21T09:56:20Z</time>
      </trkpt>
      <trkpt lat="42.71669" lon="0.6817">
        <ele>1934.5</ele>
        <time>2016-10-21T09:56:29Z</time>
      </trkpt>
      <trkpt lat="42.71664" lon="0.68158">
        <ele>1932.8</ele>
        <time>2016-10-21T09:56:39Z</time>
      </trkpt>
      <trkpt lat="42.71662" lon="0.68146">
        <ele>1931.1</ele>
        <time>2016-10-21T09:56:48Z</time>
      </trkpt>
      <trkpt lat="42.71654" lon="0.68141">
        <ele>1929.3</ele>
        <time>2016-10-21T09:56:58Z</time>
      </trkpt>
      <trkpt lat="42.7165" lon="0.68131">
        <ele>1927.6</ele>
        <time>2016-10-21T09:57:07Z</time>
      </trkpt>
      <trkpt lat="42.71648" lon="0.6812">
        <ele>1925.3</ele>
        <time>2016-10-21T09:57:15Z</time>
      </trkpt>
      <trkpt lat="42.71649" lon="0.68106">
        <ele>1923.7</ele>
        <time>2016-10-21T09:57:23Z</time>
      </trkpt>
      <trkpt lat="42.71649" lon="0.68093">
        <ele>1922.1</ele>
        <time>2016-10-21T09:57:32Z</time>
      </trkpt>
      <trkpt lat="42.71651" lon="0.68081">
        <ele>1920.7</ele>
        <time>2016-10-21T09:57:41Z</time>
      </trkpt>
      <trkpt lat="42.71655" lon="0.68068">
        <ele>1919.5</ele>
        <time>2016-10-21T09:57:49Z</time>
      </trkpt>
      <trkpt lat="42.71659" lon="0.68056">
        <ele>1918.4</ele>
        <time>2016-10-21T09:57:57Z</time>
      </trkpt>
      <trkpt lat="42.71659" lon="0.68045">
        <ele>1917.2</ele>
        <time>2016-10-21T09:58:05Z</time>
      </trkpt>
      <trkpt lat="42.71659" lon="0.68032">
        <ele>1915.9</ele>
        <time>2016-10-21T09:58:14Z</time>
      </trkpt>
      <trkpt lat="42.71663" lon="0.6802">
        <ele>1915.1</ele>
        <time>2016-10-21T09:58:22Z</time>
      </trkpt>
      <trkpt lat="42.71666" lon="0.68007">
        <ele>1914.1</ele>
        <time>2016-10-21T09:58:30Z</time>
      </trkpt>
      <trkpt lat="42.7167" lon="0.67996">
        <ele>1913.5</ele>
        <time>2016-10-21T09:58:38Z</time>
      </trkpt>
      <trkpt lat="42.71675" lon="0.67985">
        <ele>1913.3</ele>
        <time>2016-10-21T09:58:45Z</time>
      </trkpt>
      <trkpt lat="42.71678" lon="0.67973">
        <ele>1912.5</ele>
        <time>2016-10-21T09:58:53Z</time>
      </trkpt>
      <trkpt lat="42.7168" lon="0.67962">
        <ele>1912</ele>
        <time>2016-10-21T09:59:01Z</time>
      </trkpt>
      <trkpt lat="42.71682" lon="0.6795">
        <ele>1911.8</ele>
        <time>2016-10-21T09:59:09Z</time>
      </trkpt>
      <trkpt lat="42.71687" lon="0.6794">
        <ele>1911.7</ele>
        <time>2016-10-21T09:59:18Z</time>
      </trkpt>
      <trkpt lat="42.7169" lon="0.67926">
        <ele>1911.5</ele>
        <time>2016-10-21T09:59:27Z</time>
      </trkpt>
      <trkpt lat="42.71692" lon="0.67914">
        <ele>1911.4</ele>
        <time>2016-10-21T09:59:36Z</time>
      </trkpt>
      <trkpt lat="42.71692" lon="0.67899">
        <ele>1911.3</ele>
        <time>2016-10-21T09:59:44Z</time>
      </trkpt>
      <trkpt lat="42.71697" lon="0.67886">
        <ele>1911.2</ele>
        <time>2016-10-21T09:59:51Z</time>
      </trkpt>
      <trkpt lat="42.71701" lon="0.67875">
        <ele>1911</ele>
        <time>2016-10-21T09:59:59Z</time>
      </trkpt>
      <trkpt lat="42.71706" lon="0.67863">
        <ele>1911</ele>
        <time>2016-10-21T10:00:07Z</time>
      </trkpt>
      <trkpt lat="42.7171" lon="0.6785">
        <ele>1910.3</ele>
        <time>2016-10-21T10:00:15Z</time>
      </trkpt>
      <trkpt lat="42.71711" lon="0.67838">
        <ele>1909.8</ele>
        <time>2016-10-21T10:00:23Z</time>
      </trkpt>
      <trkpt lat="42.71713" lon="0.67826">
        <ele>1910.2</ele>
        <time>2016-10-21T10:00:32Z</time>
      </trkpt>
      <trkpt lat="42.71717" lon="0.67814">
        <ele>1911</ele>
        <time>2016-10-21T10:00:40Z</time>
      </trkpt>
      <trkpt lat="42.71719" lon="0.67802">
        <ele>1911.5</ele>
        <time>2016-10-21T10:00:48Z</time>
      </trkpt>
      <trkpt lat="42.71724" lon="0.67792">
        <ele>1912.2</ele>
        <time>2016-10-21T10:00:57Z</time>
      </trkpt>
      <trkpt lat="42.71727" lon="0.6778">
        <ele>1912</ele>
        <time>2016-10-21T10:01:06Z</time>
      </trkpt>
      <trkpt lat="42.71732" lon="0.6777">
        <ele>1911.8</ele>
        <time>2016-10-21T10:01:14Z</time>
      </trkpt>
      <trkpt lat="42.71736" lon="0.67757">
        <ele>1910.4</ele>
        <time>2016-10-21T10:01:22Z</time>
      </trkpt>
      <trkpt lat="42.71739" lon="0.67743">
        <ele>1909.8</ele>
        <time>2016-10-21T10:01:30Z</time>
      </trkpt>
      <trkpt lat="42.7174" lon="0.67735">
        <ele>1908.9</ele>
        <time>2016-10-21T10:01:51Z</time>
      </trkpt>
      <trkpt lat="42.71738" lon="0.6772">
        <ele>1907.8</ele>
        <time>2016-10-21T10:02:06Z</time>
      </trkpt>
      <trkpt lat="42.71736" lon="0.6771">
        <ele>1905.3</ele>
        <time>2016-10-21T10:02:15Z</time>
      </trkpt>
      <trkpt lat="42.71732" lon="0.67701">
        <ele>1903</ele>
        <time>2016-10-21T10:02:23Z</time>
      </trkpt>
      <trkpt lat="42.71727" lon="0.67691">
        <ele>1901.1</ele>
        <time>2016-10-21T10:02:30Z</time>
      </trkpt>
      <trkpt lat="42.71721" lon="0.67685">
        <ele>1898.6</ele>
        <time>2016-10-21T10:02:41Z</time>
      </trkpt>
      <trkpt lat="42.71713" lon="0.67682">
        <ele>1895.2</ele>
        <time>2016-10-21T10:02:52Z</time>
      </trkpt>
      <trkpt lat="42.71705" lon="0.67675">
        <ele>1890.9</ele>
        <time>2016-10-21T10:03:07Z</time>
      </trkpt>
      <trkpt lat="42.71697" lon="0.67672">
        <ele>1888.4</ele>
        <time>2016-10-21T10:03:17Z</time>
      </trkpt>
      <trkpt lat="42.71691" lon="0.67659">
        <ele>1884.4</ele>
        <time>2016-10-21T10:03:29Z</time>
      </trkpt>
      <trkpt lat="42.71686" lon="0.67649">
        <ele>1882.8</ele>
        <time>2016-10-21T10:03:37Z</time>
      </trkpt>
      <trkpt lat="42.71685" lon="0.67636">
        <ele>1881.6</ele>
        <time>2016-10-21T10:03:46Z</time>
      </trkpt>
      <trkpt lat="42.71684" lon="0.67624">
        <ele>1880.5</ele>
        <time>2016-10-21T10:03:55Z</time>
      </trkpt>
      <trkpt lat="42.71683" lon="0.67612">
        <ele>1878.5</ele>
        <time>2016-10-21T10:04:04Z</time>
      </trkpt>
      <trkpt lat="42.71681" lon="0.67599">
        <ele>1876</ele>
        <time>2016-10-21T10:04:14Z</time>
      </trkpt>
      <trkpt lat="42.71678" lon="0.67586">
        <ele>1872.7</ele>
        <time>2016-10-21T10:04:24Z</time>
      </trkpt>
      <trkpt lat="42.71678" lon="0.67574">
        <ele>1869.9</ele>
        <time>2016-10-21T10:04:34Z</time>
      </trkpt>
      <trkpt lat="42.7168" lon="0.67565">
        <ele>1866.6</ele>
        <time>2016-10-21T10:04:44Z</time>
      </trkpt>
      <trkpt lat="42.71683" lon="0.67555">
        <ele>1864</ele>
        <time>2016-10-21T10:04:54Z</time>
      </trkpt>
      <trkpt lat="42.71686" lon="0.67542">
        <ele>1860.8</ele>
        <time>2016-10-21T10:05:04Z</time>
      </trkpt>
      <trkpt lat="42.71688" lon="0.67529">
        <ele>1856.3</ele>
        <time>2016-10-21T10:05:16Z</time>
      </trkpt>
      <trkpt lat="42.71688" lon="0.67517">
        <ele>1853</ele>
        <time>2016-10-21T10:05:26Z</time>
      </trkpt>
      <trkpt lat="42.71685" lon="0.67507">
        <ele>1848.4</ele>
        <time>2016-10-21T10:05:38Z</time>
      </trkpt>
      <trkpt lat="42.71689" lon="0.67502">
        <ele>1843.7</ele>
        <time>2016-10-21T10:05:53Z</time>
      </trkpt>
      <trkpt lat="42.71689" lon="0.67488">
        <ele>1841.9</ele>
        <time>2016-10-21T10:06:02Z</time>
      </trkpt>
      <trkpt lat="42.71696" lon="0.67481">
        <ele>1839.2</ele>
        <time>2016-10-21T10:06:28Z</time>
      </trkpt>
      <trkpt lat="42.71704" lon="0.67471">
        <ele>1836.8</ele>
        <time>2016-10-21T10:06:47Z</time>
      </trkpt>
      <trkpt lat="42.71709" lon="0.67461">
        <ele>1836.2</ele>
        <time>2016-10-21T10:06:55Z</time>
      </trkpt>
      <trkpt lat="42.71715" lon="0.6745">
        <ele>1834.7</ele>
        <time>2016-10-21T10:07:03Z</time>
      </trkpt>
      <trkpt lat="42.7172" lon="0.6744">
        <ele>1833.5</ele>
        <time>2016-10-21T10:07:10Z</time>
      </trkpt>
      <trkpt lat="42.71724" lon="0.67429">
        <ele>1832.5</ele>
        <time>2016-10-21T10:07:17Z</time>
      </trkpt>
      <trkpt lat="42.71731" lon="0.67419">
        <ele>1830.8</ele>
        <time>2016-10-21T10:07:26Z</time>
      </trkpt>
      <trkpt lat="42.71737" lon="0.67407">
        <ele>1829</ele>
        <time>2016-10-21T10:07:34Z</time>
      </trkpt>
      <trkpt lat="42.71742" lon="0.67396">
        <ele>1827.4</ele>
        <time>2016-10-21T10:07:43Z</time>
      </trkpt>
      <trkpt lat="42.71746" lon="0.67384">
        <ele>1825.3</ele>
        <time>2016-10-21T10:07:51Z</time>
      </trkpt>
      <trkpt lat="42.71752" lon="0.67375">
        <ele>1823.4</ele>
        <time>2016-10-21T10:08:01Z</time>
      </trkpt>
      <trkpt lat="42.71757" lon="0.67365">
        <ele>1821</ele>
        <time>2016-10-21T10:08:21Z</time>
      </trkpt>
      <trkpt lat="42.71762" lon="0.67354">
        <ele>1819.7</ele>
        <time>2016-10-21T10:08:30Z</time>
      </trkpt>
      <trkpt lat="42.71769" lon="0.67345">
        <ele>1818.3</ele>
        <time>2016-10-21T10:08:38Z</time>
      </trkpt>
      <trkpt lat="42.71774" lon="0.67335">
        <ele>1816.4</ele>
        <time>2016-10-21T10:08:46Z</time>
      </trkpt>
      <trkpt lat="42.71779" lon="0.67324">
        <ele>1814.4</ele>
        <time>2016-10-21T10:08:55Z</time>
      </trkpt>
      <trkpt lat="42.7178" lon="0.67312">
        <ele>1812.4</ele>
        <time>2016-10-21T10:09:03Z</time>
      </trkpt>
      <trkpt lat="42.71781" lon="0.67299">
        <ele>1810</ele>
        <time>2016-10-21T10:09:12Z</time>
      </trkpt>
      <trkpt lat="42.71782" lon="0.67287">
        <ele>1808</ele>
        <time>2016-10-21T10:09:20Z</time>
      </trkpt>
      <trkpt lat="42.71785" lon="0.67276">
        <ele>1806</ele>
        <time>2016-10-21T10:09:28Z</time>
      </trkpt>
      <trkpt lat="42.71792" lon="0.67266">
        <ele>1804.1</ele>
        <time>2016-10-21T10:09:36Z</time>
      </trkpt>
      <trkpt lat="42.71796" lon="0.67253">
        <ele>1802.8</ele>
        <time>2016-10-21T10:09:55Z</time>
      </trkpt>
      <trkpt lat="42.71799" lon="0.6724">
        <ele>1801.8</ele>
        <time>2016-10-21T10:10:03Z</time>
      </trkpt>
      <trkpt lat="42.71802" lon="0.67228">
        <ele>1800.7</ele>
        <time>2016-10-21T10:10:11Z</time>
      </trkpt>
      <trkpt lat="42.71807" lon="0.67215">
        <ele>1799.7</ele>
        <time>2016-10-21T10:10:19Z</time>
      </trkpt>
      <trkpt lat="42.71811" lon="0.67204">
        <ele>1798.9</ele>
        <time>2016-10-21T10:10:26Z</time>
      </trkpt>
      <trkpt lat="42.71814" lon="0.67191">
        <ele>1798.3</ele>
        <time>2016-10-21T10:10:34Z</time>
      </trkpt>
      <trkpt lat="42.71818" lon="0.67178">
        <ele>1797.9</ele>
        <time>2016-10-21T10:10:42Z</time>
      </trkpt>
      <trkpt lat="42.71822" lon="0.67166">
        <ele>1797.4</ele>
        <time>2016-10-21T10:10:50Z</time>
      </trkpt>
      <trkpt lat="42.71825" lon="0.67153">
        <ele>1796.6</ele>
        <time>2016-10-21T10:10:58Z</time>
      </trkpt>
      <trkpt lat="42.71827" lon="0.67138">
        <ele>1795.8</ele>
        <time>2016-10-21T10:11:06Z</time>
      </trkpt>
      <trkpt lat="42.71829" lon="0.67125">
        <ele>1794.1</ele>
        <time>2016-10-21T10:11:13Z</time>
      </trkpt>
      <trkpt lat="42.71834" lon="0.67113">
        <ele>1792.7</ele>
        <time>2016-10-21T10:11:21Z</time>
      </trkpt>
      <trkpt lat="42.71836" lon="0.671">
        <ele>1791.8</ele>
        <time>2016-10-21T10:11:29Z</time>
      </trkpt>
      <trkpt lat="42.71838" lon="0.67088">
        <ele>1790.5</ele>
        <time>2016-10-21T10:11:38Z</time>
      </trkpt>
      <trkpt lat="42.71842" lon="0.67077">
        <ele>1788.7</ele>
        <time>2016-10-21T10:11:46Z</time>
      </trkpt>
      <trkpt lat="42.71847" lon="0.67065">
        <ele>1786.1</ele>
        <time>2016-10-21T10:11:55Z</time>
      </trkpt>
      <trkpt lat="42.7185" lon="0.67052">
        <ele>1783.4</ele>
        <time>2016-10-21T10:12:03Z</time>
      </trkpt>
      <trkpt lat="42.7185" lon="0.67039">
        <ele>1781.7</ele>
        <time>2016-10-21T10:12:10Z</time>
      </trkpt>
      <trkpt lat="42.71851" lon="0.67026">
        <ele>1779.3</ele>
        <time>2016-10-21T10:12:19Z</time>
      </trkpt>
      <trkpt lat="42.71852" lon="0.67014">
        <ele>1777.5</ele>
        <time>2016-10-21T10:12:27Z</time>
      </trkpt>
      <trkpt lat="42.71853" lon="0.67">
        <ele>1775.7</ele>
        <time>2016-10-21T10:12:35Z</time>
      </trkpt>
      <trkpt lat="42.71856" lon="0.66987">
        <ele>1773.8</ele>
        <time>2016-10-21T10:12:43Z</time>
      </trkpt>
      <trkpt lat="42.71858" lon="0.66974">
        <ele>1772.2</ele>
        <time>2016-10-21T10:12:50Z</time>
      </trkpt>
      <trkpt lat="42.71859" lon="0.66961">
        <ele>1770.7</ele>
        <time>2016-10-21T10:12:57Z</time>
      </trkpt>
      <trkpt lat="42.71859" lon="0.66948">
        <ele>1768.8</ele>
        <time>2016-10-21T10:13:05Z</time>
      </trkpt>
      <trkpt lat="42.71858" lon="0.66936">
        <ele>1767.6</ele>
        <time>2016-10-21T10:13:12Z</time>
      </trkpt>
      <trkpt lat="42.71857" lon="0.66923">
        <ele>1766.3</ele>
        <time>2016-10-21T10:13:20Z</time>
      </trkpt>
      <trkpt lat="42.71856" lon="0.66908">
        <ele>1765.2</ele>
        <time>2016-10-21T10:13:28Z</time>
      </trkpt>
      <trkpt lat="42.71856" lon="0.66894">
        <ele>1763.9</ele>
        <time>2016-10-21T10:13:35Z</time>
      </trkpt>
      <trkpt lat="42.71857" lon="0.66881">
        <ele>1762.6</ele>
        <time>2016-10-21T10:13:42Z</time>
      </trkpt>
      <trkpt lat="42.71857" lon="0.66869">
        <ele>1761</ele>
        <time>2016-10-21T10:13:49Z</time>
      </trkpt>
      <trkpt lat="42.71857" lon="0.66856">
        <ele>1759.8</ele>
        <time>2016-10-21T10:13:57Z</time>
      </trkpt>
      <trkpt lat="42.71855" lon="0.66844">
        <ele>1758.9</ele>
        <time>2016-10-21T10:14:05Z</time>
      </trkpt>
      <trkpt lat="42.71855" lon="0.6683">
        <ele>1757.9</ele>
        <time>2016-10-21T10:14:12Z</time>
      </trkpt>
      <trkpt lat="42.71854" lon="0.66817">
        <ele>1756.8</ele>
        <time>2016-10-21T10:14:20Z</time>
      </trkpt>
      <trkpt lat="42.71853" lon="0.66806">
        <ele>1755.3</ele>
        <time>2016-10-21T10:14:28Z</time>
      </trkpt>
      <trkpt lat="42.71852" lon="0.66793">
        <ele>1753.8</ele>
        <time>2016-10-21T10:14:36Z</time>
      </trkpt>
      <trkpt lat="42.71852" lon="0.66779">
        <ele>1751.9</ele>
        <time>2016-10-21T10:14:45Z</time>
      </trkpt>
      <trkpt lat="42.71855" lon="0.66769">
        <ele>1749.1</ele>
        <time>2016-10-21T10:15:37Z</time>
      </trkpt>
      <trkpt lat="42.71852" lon="0.66769">
        <ele>1748.5</ele>
        <time>2016-10-21T10:15:52Z</time>
      </trkpt>
      <trkpt lat="42.71856" lon="0.66767">
        <ele>1748.9</ele>
        <time>2016-10-21T10:16:12Z</time>
      </trkpt>
      <trkpt lat="42.71864" lon="0.66762">
        <ele>1748.6</ele>
        <time>2016-10-21T10:16:25Z</time>
      </trkpt>
      <trkpt lat="42.71873" lon="0.66756">
        <ele>1748.4</ele>
        <time>2016-10-21T10:16:33Z</time>
      </trkpt>
      <trkpt lat="42.71881" lon="0.66752">
        <ele>1748.1</ele>
        <time>2016-10-21T10:16:39Z</time>
      </trkpt>
      <trkpt lat="42.71889" lon="0.66747">
        <ele>1747.7</ele>
        <time>2016-10-21T10:16:47Z</time>
      </trkpt>
      <trkpt lat="42.71899" lon="0.66742">
        <ele>1747.2</ele>
        <time>2016-10-21T10:16:55Z</time>
      </trkpt>
      <trkpt lat="42.71906" lon="0.66735">
        <ele>1746.8</ele>
        <time>2016-10-21T10:17:03Z</time>
      </trkpt>
      <trkpt lat="42.71914" lon="0.66725">
        <ele>1747.4</ele>
        <time>2016-10-21T10:17:11Z</time>
      </trkpt>
      <trkpt lat="42.7192" lon="0.66717">
        <ele>1748</ele>
        <time>2016-10-21T10:17:18Z</time>
      </trkpt>
      <trkpt lat="42.71928" lon="0.66709">
        <ele>1748.6</ele>
        <time>2016-10-21T10:17:26Z</time>
      </trkpt>
      <trkpt lat="42.71935" lon="0.66698">
        <ele>1749.1</ele>
        <time>2016-10-21T10:17:34Z</time>
      </trkpt>
      <trkpt lat="42.71942" lon="0.66688">
        <ele>1749.3</ele>
        <time>2016-10-21T10:17:41Z</time>
      </trkpt>
      <trkpt lat="42.71949" lon="0.66679">
        <ele>1749.7</ele>
        <time>2016-10-21T10:17:49Z</time>
      </trkpt>
      <trkpt lat="42.71954" lon="0.6667">
        <ele>1750.3</ele>
        <time>2016-10-21T10:17:56Z</time>
      </trkpt>
      <trkpt lat="42.71961" lon="0.6666">
        <ele>1750.9</ele>
        <time>2016-10-21T10:18:04Z</time>
      </trkpt>
      <trkpt lat="42.71967" lon="0.66652">
        <ele>1751.6</ele>
        <time>2016-10-21T10:18:11Z</time>
      </trkpt>
      <trkpt lat="42.71974" lon="0.66644">
        <ele>1752.1</ele>
        <time>2016-10-21T10:18:18Z</time>
      </trkpt>
      <trkpt lat="42.71981" lon="0.66637">
        <ele>1752.4</ele>
        <time>2016-10-21T10:18:25Z</time>
      </trkpt>
      <trkpt lat="42.71988" lon="0.6663">
        <ele>1752.9</ele>
        <time>2016-10-21T10:18:32Z</time>
      </trkpt>
      <trkpt lat="42.71994" lon="0.66622">
        <ele>1753.9</ele>
        <time>2016-10-21T10:18:40Z</time>
      </trkpt>
      <trkpt lat="42.72002" lon="0.66614">
        <ele>1754.6</ele>
        <time>2016-10-21T10:18:48Z</time>
      </trkpt>
      <trkpt lat="42.7201" lon="0.66607">
        <ele>1755.6</ele>
        <time>2016-10-21T10:18:56Z</time>
      </trkpt>
      <trkpt lat="42.72017" lon="0.66599">
        <ele>1756.7</ele>
        <time>2016-10-21T10:19:04Z</time>
      </trkpt>
      <trkpt lat="42.72025" lon="0.66592">
        <ele>1757.4</ele>
        <time>2016-10-21T10:19:12Z</time>
      </trkpt>
      <trkpt lat="42.72033" lon="0.66586">
        <ele>1757.8</ele>
        <time>2016-10-21T10:19:19Z</time>
      </trkpt>
      <trkpt lat="42.72042" lon="0.6658">
        <ele>1757.8</ele>
        <time>2016-10-21T10:19:27Z</time>
      </trkpt>
      <trkpt lat="42.72052" lon="0.66576">
        <ele>1757.5</ele>
        <time>2016-10-21T10:19:35Z</time>
      </trkpt>
      <trkpt lat="42.72062" lon="0.66573">
        <ele>1756.7</ele>
        <time>2016-10-21T10:19:43Z</time>
      </trkpt>
      <trkpt lat="42.72071" lon="0.66569">
        <ele>1756</ele>
        <time>2016-10-21T10:19:50Z</time>
      </trkpt>
      <trkpt lat="42.7208" lon="0.66563">
        <ele>1755.6</ele>
        <time>2016-10-21T10:19:57Z</time>
      </trkpt>
      <trkpt lat="42.72086" lon="0.66556">
        <ele>1755.5</ele>
        <time>2016-10-21T10:20:04Z</time>
      </trkpt>
      <trkpt lat="42.72096" lon="0.66546">
        <ele>1755</ele>
        <time>2016-10-21T10:20:12Z</time>
      </trkpt>
      <trkpt lat="42.72102" lon="0.66539">
        <ele>1754.8</ele>
        <time>2016-10-21T10:20:19Z</time>
      </trkpt>
      <trkpt lat="42.72109" lon="0.66533">
        <ele>1753.9</ele>
        <time>2016-10-21T10:20:34Z</time>
      </trkpt>
      <trkpt lat="42.72117" lon="0.66525">
        <ele>1753.2</ele>
        <time>2016-10-21T10:20:42Z</time>
      </trkpt>
      <trkpt lat="42.72126" lon="0.66517">
        <ele>1752.2</ele>
        <time>2016-10-21T10:20:50Z</time>
      </trkpt>
      <trkpt lat="42.72135" lon="0.66513">
        <ele>1751.2</ele>
        <time>2016-10-21T10:20:58Z</time>
      </trkpt>
      <trkpt lat="42.72145" lon="0.66506">
        <ele>1749.2</ele>
        <time>2016-10-21T10:21:06Z</time>
      </trkpt>
      <trkpt lat="42.72154" lon="0.66501">
        <ele>1747.7</ele>
        <time>2016-10-21T10:21:13Z</time>
      </trkpt>
      <trkpt lat="42.72162" lon="0.66495">
        <ele>1746.8</ele>
        <time>2016-10-21T10:21:20Z</time>
      </trkpt>
      <trkpt lat="42.72171" lon="0.6649">
        <ele>1746</ele>
        <time>2016-10-21T10:21:27Z</time>
      </trkpt>
      <trkpt lat="42.7218" lon="0.66484">
        <ele>1745</ele>
        <time>2016-10-21T10:21:34Z</time>
      </trkpt>
      <trkpt lat="42.72188" lon="0.66477">
        <ele>1743.8</ele>
        <time>2016-10-21T10:21:42Z</time>
      </trkpt>
      <trkpt lat="42.72197" lon="0.6647">
        <ele>1741.8</ele>
        <time>2016-10-21T10:21:50Z</time>
      </trkpt>
      <trkpt lat="42.72205" lon="0.66464">
        <ele>1740</ele>
        <time>2016-10-21T10:21:57Z</time>
      </trkpt>
      <trkpt lat="42.72213" lon="0.66456">
        <ele>1738.9</ele>
        <time>2016-10-21T10:22:05Z</time>
      </trkpt>
      <trkpt lat="42.72221" lon="0.66448">
        <ele>1738</ele>
        <time>2016-10-21T10:22:12Z</time>
      </trkpt>
      <trkpt lat="42.7223" lon="0.66441">
        <ele>1737.5</ele>
        <time>2016-10-21T10:22:19Z</time>
      </trkpt>
      <trkpt lat="42.72237" lon="0.66435">
        <ele>1736.9</ele>
        <time>2016-10-21T10:22:26Z</time>
      </trkpt>
      <trkpt lat="42.72242" lon="0.66424">
        <ele>1736.2</ele>
        <time>2016-10-21T10:22:36Z</time>
      </trkpt>
      <trkpt lat="42.7225" lon="0.66416">
        <ele>1734.8</ele>
        <time>2016-10-21T10:22:45Z</time>
      </trkpt>
      <trkpt lat="42.72257" lon="0.6641">
        <ele>1733.9</ele>
        <time>2016-10-21T10:22:54Z</time>
      </trkpt>
      <trkpt lat="42.72264" lon="0.66402">
        <ele>1733.3</ele>
        <time>2016-10-21T10:23:02Z</time>
      </trkpt>
      <trkpt lat="42.72271" lon="0.66392">
        <ele>1731.6</ele>
        <time>2016-10-21T10:23:10Z</time>
      </trkpt>
      <trkpt lat="42.72281" lon="0.66391">
        <ele>1729.4</ele>
        <time>2016-10-21T10:23:57Z</time>
      </trkpt>
      <trkpt lat="42.72286" lon="0.66392">
        <ele>1728.8</ele>
        <time>2016-10-21T10:26:02Z</time>
      </trkpt>
      <trkpt lat="42.72294" lon="0.66404">
        <ele>1728</ele>
        <time>2016-10-21T10:26:12Z</time>
      </trkpt>
      <trkpt lat="42.72303" lon="0.6641">
        <ele>1726.3</ele>
        <time>2016-10-21T10:26:22Z</time>
      </trkpt>
      <trkpt lat="42.72311" lon="0.66407">
        <ele>1725.7</ele>
        <time>2016-10-21T10:26:31Z</time>
      </trkpt>
      <trkpt lat="42.7232" lon="0.6641">
        <ele>1726.6</ele>
        <time>2016-10-21T10:26:40Z</time>
      </trkpt>
      <trkpt lat="42.72329" lon="0.66409">
        <ele>1728.2</ele>
        <time>2016-10-21T10:26:50Z</time>
      </trkpt>
      <trkpt lat="42.72337" lon="0.66414">
        <ele>1730.2</ele>
        <time>2016-10-21T10:27:01Z</time>
      </trkpt>
      <trkpt lat="42.72346" lon="0.66409">
        <ele>1730.8</ele>
        <time>2016-10-21T10:27:09Z</time>
      </trkpt>
      <trkpt lat="42.72355" lon="0.66405">
        <ele>1731.2</ele>
        <time>2016-10-21T10:27:17Z</time>
      </trkpt>
      <trkpt lat="42.72364" lon="0.664">
        <ele>1731</ele>
        <time>2016-10-21T10:27:25Z</time>
      </trkpt>
      <trkpt lat="42.72373" lon="0.66397">
        <ele>1730.6</ele>
        <time>2016-10-21T10:27:32Z</time>
      </trkpt>
      <trkpt lat="42.72382" lon="0.66392">
        <ele>1730.2</ele>
        <time>2016-10-21T10:27:40Z</time>
      </trkpt>
      <trkpt lat="42.7239" lon="0.66386">
        <ele>1729.7</ele>
        <time>2016-10-21T10:27:48Z</time>
      </trkpt>
      <trkpt lat="42.72398" lon="0.66379">
        <ele>1729.7</ele>
        <time>2016-10-21T10:27:56Z</time>
      </trkpt>
      <trkpt lat="42.72406" lon="0.66372">
        <ele>1729.7</ele>
        <time>2016-10-21T10:28:04Z</time>
      </trkpt>
      <trkpt lat="42.72414" lon="0.66364">
        <ele>1729.7</ele>
        <time>2016-10-21T10:28:12Z</time>
      </trkpt>
      <trkpt lat="42.72422" lon="0.66358">
        <ele>1729.9</ele>
        <time>2016-10-21T10:28:19Z</time>
      </trkpt>
      <trkpt lat="42.72431" lon="0.66351">
        <ele>1730.3</ele>
        <time>2016-10-21T10:28:27Z</time>
      </trkpt>
      <trkpt lat="42.72438" lon="0.66343">
        <ele>1730.7</ele>
        <time>2016-10-21T10:28:34Z</time>
      </trkpt>
      <trkpt lat="42.72447" lon="0.66337">
        <ele>1730.7</ele>
        <time>2016-10-21T10:28:41Z</time>
      </trkpt>
      <trkpt lat="42.72454" lon="0.6633">
        <ele>1730.2</ele>
        <time>2016-10-21T10:28:48Z</time>
      </trkpt>
      <trkpt lat="42.72463" lon="0.66323">
        <ele>1729.3</ele>
        <time>2016-10-21T10:28:55Z</time>
      </trkpt>
      <trkpt lat="42.72469" lon="0.66315">
        <ele>1728.9</ele>
        <time>2016-10-21T10:29:02Z</time>
      </trkpt>
      <trkpt lat="42.72476" lon="0.66307">
        <ele>1729</ele>
        <time>2016-10-21T10:29:10Z</time>
      </trkpt>
      <trkpt lat="42.72484" lon="0.663">
        <ele>1729.2</ele>
        <time>2016-10-21T10:29:17Z</time>
      </trkpt>
      <trkpt lat="42.7249" lon="0.66291">
        <ele>1729.2</ele>
        <time>2016-10-21T10:29:24Z</time>
      </trkpt>
      <trkpt lat="42.72498" lon="0.66281">
        <ele>1729.2</ele>
        <time>2016-10-21T10:29:31Z</time>
      </trkpt>
      <trkpt lat="42.72504" lon="0.66271">
        <ele>1728.9</ele>
        <time>2016-10-21T10:29:38Z</time>
      </trkpt>
      <trkpt lat="42.72511" lon="0.66263">
        <ele>1728.8</ele>
        <time>2016-10-21T10:29:45Z</time>
      </trkpt>
      <trkpt lat="42.72517" lon="0.66253">
        <ele>1729.1</ele>
        <time>2016-10-21T10:29:52Z</time>
      </trkpt>
      <trkpt lat="42.72524" lon="0.66243">
        <ele>1729.3</ele>
        <time>2016-10-21T10:30:00Z</time>
      </trkpt>
      <trkpt lat="42.7253" lon="0.66232">
        <ele>1729.3</ele>
        <time>2016-10-21T10:30:07Z</time>
      </trkpt>
      <trkpt lat="42.72536" lon="0.66223">
        <ele>1729.3</ele>
        <time>2016-10-21T10:30:14Z</time>
      </trkpt>
      <trkpt lat="42.72543" lon="0.66214">
        <ele>1729.3</ele>
        <time>2016-10-21T10:30:21Z</time>
      </trkpt>
      <trkpt lat="42.7255" lon="0.66205">
        <ele>1729.1</ele>
        <time>2016-10-21T10:30:28Z</time>
      </trkpt>
      <trkpt lat="42.72559" lon="0.66199">
        <ele>1729</ele>
        <time>2016-10-21T10:30:36Z</time>
      </trkpt>
      <trkpt lat="42.72567" lon="0.66193">
        <ele>1728.7</ele>
        <time>2016-10-21T10:30:43Z</time>
      </trkpt>
      <trkpt lat="42.72577" lon="0.66189">
        <ele>1728.4</ele>
        <time>2016-10-21T10:30:51Z</time>
      </trkpt>
      <trkpt lat="42.72585" lon="0.66187">
        <ele>1728.2</ele>
        <time>2016-10-21T10:30:58Z</time>
      </trkpt>
      <trkpt lat="42.72593" lon="0.66185">
        <ele>1727.8</ele>
        <time>2016-10-21T10:31:05Z</time>
      </trkpt>
      <trkpt lat="42.72601" lon="0.66182">
        <ele>1727.4</ele>
        <time>2016-10-21T10:31:11Z</time>
      </trkpt>
      <trkpt lat="42.72609" lon="0.66177">
        <ele>1726.9</ele>
        <time>2016-10-21T10:31:17Z</time>
      </trkpt>
      <trkpt lat="42.72617" lon="0.66174">
        <ele>1726.6</ele>
        <time>2016-10-21T10:31:24Z</time>
      </trkpt>
      <trkpt lat="42.72626" lon="0.66172">
        <ele>1726.5</ele>
        <time>2016-10-21T10:31:31Z</time>
      </trkpt>
      <trkpt lat="42.72635" lon="0.66169">
        <ele>1726.4</ele>
        <time>2016-10-21T10:31:38Z</time>
      </trkpt>
      <trkpt lat="42.72642" lon="0.66163">
        <ele>1726.3</ele>
        <time>2016-10-21T10:31:44Z</time>
      </trkpt>
      <trkpt lat="42.72651" lon="0.66159">
        <ele>1725.6</ele>
        <time>2016-10-21T10:31:53Z</time>
      </trkpt>
      <trkpt lat="42.7266" lon="0.66155">
        <ele>1724.9</ele>
        <time>2016-10-21T10:32:00Z</time>
      </trkpt>
      <trkpt lat="42.72668" lon="0.66151">
        <ele>1724.6</ele>
        <time>2016-10-21T10:32:06Z</time>
      </trkpt>
      <trkpt lat="42.72677" lon="0.66143">
        <ele>1724</ele>
        <time>2016-10-21T10:32:13Z</time>
      </trkpt>
      <trkpt lat="42.72687" lon="0.66138">
        <ele>1723.6</ele>
        <time>2016-10-21T10:32:21Z</time>
      </trkpt>
      <trkpt lat="42.72696" lon="0.66132">
        <ele>1723.1</ele>
        <time>2016-10-21T10:32:28Z</time>
      </trkpt>
      <trkpt lat="42.72704" lon="0.66127">
        <ele>1722.9</ele>
        <time>2016-10-21T10:32:35Z</time>
      </trkpt>
      <trkpt lat="42.72712" lon="0.6612">
        <ele>1722.5</ele>
        <time>2016-10-21T10:32:42Z</time>
      </trkpt>
      <trkpt lat="42.72719" lon="0.66113">
        <ele>1722.3</ele>
        <time>2016-10-21T10:32:48Z</time>
      </trkpt>
      <trkpt lat="42.72727" lon="0.66106">
        <ele>1722.5</ele>
        <time>2016-10-21T10:32:56Z</time>
      </trkpt>
      <trkpt lat="42.72735" lon="0.661">
        <ele>1722.2</ele>
        <time>2016-10-21T10:33:04Z</time>
      </trkpt>
      <trkpt lat="42.72741" lon="0.66095">
        <ele>1721.3</ele>
        <time>2016-10-21T10:33:39Z</time>
      </trkpt>
      <trkpt lat="42.72749" lon="0.6609">
        <ele>1721.1</ele>
        <time>2016-10-21T10:33:46Z</time>
      </trkpt>
      <trkpt lat="42.72755" lon="0.66082">
        <ele>1721</ele>
        <time>2016-10-21T10:33:55Z</time>
      </trkpt>
      <trkpt lat="42.72764" lon="0.66076">
        <ele>1721.4</ele>
        <time>2016-10-21T10:34:04Z</time>
      </trkpt>
      <trkpt lat="42.72772" lon="0.6607">
        <ele>1721.1</ele>
        <time>2016-10-21T10:34:14Z</time>
      </trkpt>
      <trkpt lat="42.72781" lon="0.66063">
        <ele>1720.8</ele>
        <time>2016-10-21T10:34:21Z</time>
      </trkpt>
      <trkpt lat="42.72788" lon="0.66057">
        <ele>1720.2</ele>
        <time>2016-10-21T10:34:28Z</time>
      </trkpt>
      <trkpt lat="42.72798" lon="0.66048">
        <ele>1719.6</ele>
        <time>2016-10-21T10:34:36Z</time>
      </trkpt>
      <trkpt lat="42.72808" lon="0.66044">
        <ele>1718.8</ele>
        <time>2016-10-21T10:34:43Z</time>
      </trkpt>
      <trkpt lat="42.72816" lon="0.6604">
        <ele>1718.2</ele>
        <time>2016-10-21T10:34:49Z</time>
      </trkpt>
      <trkpt lat="42.72825" lon="0.66032">
        <ele>1717.4</ele>
        <time>2016-10-21T10:34:56Z</time>
      </trkpt>
      <trkpt lat="42.72831" lon="0.66024">
        <ele>1716.2</ele>
        <time>2016-10-21T10:35:27Z</time>
      </trkpt>
      <trkpt lat="42.72836" lon="0.66013">
        <ele>1715.9</ele>
        <time>2016-10-21T10:35:34Z</time>
      </trkpt>
      <trkpt lat="42.72842" lon="0.66004">
        <ele>1715.9</ele>
        <time>2016-10-21T10:35:41Z</time>
      </trkpt>
      <trkpt lat="42.72849" lon="0.65996">
        <ele>1715.6</ele>
        <time>2016-10-21T10:35:48Z</time>
      </trkpt>
      <trkpt lat="42.72856" lon="0.65986">
        <ele>1715.6</ele>
        <time>2016-10-21T10:35:55Z</time>
      </trkpt>
      <trkpt lat="42.72864" lon="0.65974">
        <ele>1715.4</ele>
        <time>2016-10-21T10:36:02Z</time>
      </trkpt>
      <trkpt lat="42.72871" lon="0.65962">
        <ele>1715.1</ele>
        <time>2016-10-21T10:36:08Z</time>
      </trkpt>
      <trkpt lat="42.72877" lon="0.65954">
        <ele>1714.9</ele>
        <time>2016-10-21T10:36:15Z</time>
      </trkpt>
      <trkpt lat="42.72883" lon="0.65946">
        <ele>1714.8</ele>
        <time>2016-10-21T10:36:22Z</time>
      </trkpt>
      <trkpt lat="42.7289" lon="0.65937">
        <ele>1714.3</ele>
        <time>2016-10-21T10:36:29Z</time>
      </trkpt>
      <trkpt lat="42.72896" lon="0.65926">
        <ele>1713.6</ele>
        <time>2016-10-21T10:36:36Z</time>
      </trkpt>
      <trkpt lat="42.72901" lon="0.65922">
        <ele>1712.9</ele>
        <time>2016-10-21T10:37:29Z</time>
      </trkpt>
      <trkpt lat="42.72909" lon="0.65911">
        <ele>1712.8</ele>
        <time>2016-10-21T10:37:38Z</time>
      </trkpt>
      <trkpt lat="42.72917" lon="0.659">
        <ele>1712.3</ele>
        <time>2016-10-21T10:37:45Z</time>
      </trkpt>
      <trkpt lat="42.72922" lon="0.6589">
        <ele>1711.4</ele>
        <time>2016-10-21T10:37:52Z</time>
      </trkpt>
      <trkpt lat="42.72929" lon="0.65878">
        <ele>1710.9</ele>
        <time>2016-10-21T10:37:59Z</time>
      </trkpt>
      <trkpt lat="42.72936" lon="0.65869">
        <ele>1710.4</ele>
        <time>2016-10-21T10:38:07Z</time>
      </trkpt>
      <trkpt lat="42.72943" lon="0.65858">
        <ele>1709.8</ele>
        <time>2016-10-21T10:38:14Z</time>
      </trkpt>
      <trkpt lat="42.72949" lon="0.65849">
        <ele>1709</ele>
        <time>2016-10-21T10:38:22Z</time>
      </trkpt>
      <trkpt lat="42.72956" lon="0.65836">
        <ele>1708.2</ele>
        <time>2016-10-21T10:38:29Z</time>
      </trkpt>
      <trkpt lat="42.72961" lon="0.65826">
        <ele>1707.7</ele>
        <time>2016-10-21T10:38:36Z</time>
      </trkpt>
      <trkpt lat="42.72967" lon="0.65815">
        <ele>1707.4</ele>
        <time>2016-10-21T10:38:43Z</time>
      </trkpt>
      <trkpt lat="42.72972" lon="0.65803">
        <ele>1706.9</ele>
        <time>2016-10-21T10:38:51Z</time>
      </trkpt>
      <trkpt lat="42.72978" lon="0.65793">
        <ele>1707.1</ele>
        <time>2016-10-21T10:38:58Z</time>
      </trkpt>
      <trkpt lat="42.72986" lon="0.65783">
        <ele>1706.2</ele>
        <time>2016-10-21T10:39:06Z</time>
      </trkpt>
      <trkpt lat="42.72994" lon="0.65775">
        <ele>1705.4</ele>
        <time>2016-10-21T10:39:13Z</time>
      </trkpt>
      <trkpt lat="42.73002" lon="0.65769">
        <ele>1704.8</ele>
        <time>2016-10-21T10:39:21Z</time>
      </trkpt>
      <trkpt lat="42.73011" lon="0.65764">
        <ele>1704.3</ele>
        <time>2016-10-21T10:39:27Z</time>
      </trkpt>
      <trkpt lat="42.73022" lon="0.6576">
        <ele>1703.6</ele>
        <time>2016-10-21T10:39:35Z</time>
      </trkpt>
      <trkpt lat="42.73029" lon="0.65753">
        <ele>1702.8</ele>
        <time>2016-10-21T10:39:42Z</time>
      </trkpt>
      <trkpt lat="42.73034" lon="0.65742">
        <ele>1701.4</ele>
        <time>2016-10-21T10:39:50Z</time>
      </trkpt>
      <trkpt lat="42.73036" lon="0.65729">
        <ele>1700.6</ele>
        <time>2016-10-21T10:39:57Z</time>
      </trkpt>
      <trkpt lat="42.73037" lon="0.65717">
        <ele>1699.9</ele>
        <time>2016-10-21T10:40:04Z</time>
      </trkpt>
      <trkpt lat="42.73038" lon="0.65703">
        <ele>1698.9</ele>
        <time>2016-10-21T10:40:11Z</time>
      </trkpt>
      <trkpt lat="42.73039" lon="0.65691">
        <ele>1698.3</ele>
        <time>2016-10-21T10:40:18Z</time>
      </trkpt>
      <trkpt lat="42.73042" lon="0.65678">
        <ele>1698</ele>
        <time>2016-10-21T10:40:26Z</time>
      </trkpt>
      <trkpt lat="42.73048" lon="0.65668">
        <ele>1697.8</ele>
        <time>2016-10-21T10:40:33Z</time>
      </trkpt>
      <trkpt lat="42.73056" lon="0.65658">
        <ele>1697.2</ele>
        <time>2016-10-21T10:40:40Z</time>
      </trkpt>
      <trkpt lat="42.73065" lon="0.65652">
        <ele>1696.8</ele>
        <time>2016-10-21T10:40:47Z</time>
      </trkpt>
      <trkpt lat="42.73075" lon="0.65648">
        <ele>1695.6</ele>
        <time>2016-10-21T10:40:56Z</time>
      </trkpt>
      <trkpt lat="42.73084" lon="0.65643">
        <ele>1694.2</ele>
        <time>2016-10-21T10:41:04Z</time>
      </trkpt>
      <trkpt lat="42.73092" lon="0.65634">
        <ele>1693.6</ele>
        <time>2016-10-21T10:41:12Z</time>
      </trkpt>
      <trkpt lat="42.73097" lon="0.65623">
        <ele>1692.8</ele>
        <time>2016-10-21T10:41:20Z</time>
      </trkpt>
      <trkpt lat="42.73102" lon="0.65612">
        <ele>1691.8</ele>
        <time>2016-10-21T10:41:28Z</time>
      </trkpt>
      <trkpt lat="42.73106" lon="0.65599">
        <ele>1691.1</ele>
        <time>2016-10-21T10:41:35Z</time>
      </trkpt>
      <trkpt lat="42.73112" lon="0.65588">
        <ele>1690.6</ele>
        <time>2016-10-21T10:41:43Z</time>
      </trkpt>
      <trkpt lat="42.73119" lon="0.65578">
        <ele>1689.9</ele>
        <time>2016-10-21T10:41:50Z</time>
      </trkpt>
      <trkpt lat="42.73128" lon="0.6557">
        <ele>1689.1</ele>
        <time>2016-10-21T10:41:58Z</time>
      </trkpt>
      <trkpt lat="42.73136" lon="0.65562">
        <ele>1688.1</ele>
        <time>2016-10-21T10:42:06Z</time>
      </trkpt>
      <trkpt lat="42.73141" lon="0.65551">
        <ele>1687</ele>
        <time>2016-10-21T10:42:13Z</time>
      </trkpt>
      <trkpt lat="42.73148" lon="0.65543">
        <ele>1686.2</ele>
        <time>2016-10-21T10:42:20Z</time>
      </trkpt>
      <trkpt lat="42.73155" lon="0.65534">
        <ele>1685.1</ele>
        <time>2016-10-21T10:42:28Z</time>
      </trkpt>
      <trkpt lat="42.73161" lon="0.65526">
        <ele>1684.4</ele>
        <time>2016-10-21T10:42:35Z</time>
      </trkpt>
      <trkpt lat="42.73168" lon="0.65516">
        <ele>1683.3</ele>
        <time>2016-10-21T10:42:43Z</time>
      </trkpt>
      <trkpt lat="42.73174" lon="0.65505">
        <ele>1682.4</ele>
        <time>2016-10-21T10:42:50Z</time>
      </trkpt>
      <trkpt lat="42.7318" lon="0.65493">
        <ele>1681.5</ele>
        <time>2016-10-21T10:42:58Z</time>
      </trkpt>
      <trkpt lat="42.73187" lon="0.65481">
        <ele>1680.9</ele>
        <time>2016-10-21T10:43:06Z</time>
      </trkpt>
      <trkpt lat="42.73194" lon="0.65471">
        <ele>1680.3</ele>
        <time>2016-10-21T10:43:13Z</time>
      </trkpt>
      <trkpt lat="42.73201" lon="0.65463">
        <ele>1679.6</ele>
        <time>2016-10-21T10:43:20Z</time>
      </trkpt>
      <trkpt lat="42.73209" lon="0.65455">
        <ele>1678.5</ele>
        <time>2016-10-21T10:43:28Z</time>
      </trkpt>
      <trkpt lat="42.73216" lon="0.65447">
        <ele>1677.9</ele>
        <time>2016-10-21T10:43:35Z</time>
      </trkpt>
      <trkpt lat="42.73224" lon="0.65438">
        <ele>1676.7</ele>
        <time>2016-10-21T10:43:43Z</time>
      </trkpt>
      <trkpt lat="42.73232" lon="0.65431">
        <ele>1675.7</ele>
        <time>2016-10-21T10:43:50Z</time>
      </trkpt>
      <trkpt lat="42.73241" lon="0.65426">
        <ele>1674.8</ele>
        <time>2016-10-21T10:43:58Z</time>
      </trkpt>
      <trkpt lat="42.73249" lon="0.65419">
        <ele>1673.6</ele>
        <time>2016-10-21T10:44:05Z</time>
      </trkpt>
      <trkpt lat="42.73258" lon="0.6541">
        <ele>1672.2</ele>
        <time>2016-10-21T10:44:13Z</time>
      </trkpt>
      <trkpt lat="42.73267" lon="0.65403">
        <ele>1670.9</ele>
        <time>2016-10-21T10:44:20Z</time>
      </trkpt>
      <trkpt lat="42.73275" lon="0.65394">
        <ele>1669.7</ele>
        <time>2016-10-21T10:44:28Z</time>
      </trkpt>
      <trkpt lat="42.73283" lon="0.65385">
        <ele>1668.9</ele>
        <time>2016-10-21T10:44:35Z</time>
      </trkpt>
      <trkpt lat="42.73291" lon="0.65377">
        <ele>1668.1</ele>
        <time>2016-10-21T10:44:42Z</time>
      </trkpt>
      <trkpt lat="42.73298" lon="0.65367">
        <ele>1666.9</ele>
        <time>2016-10-21T10:44:52Z</time>
      </trkpt>
      <trkpt lat="42.73306" lon="0.65359">
        <ele>1666.1</ele>
        <time>2016-10-21T10:45:01Z</time>
      </trkpt>
      <trkpt lat="42.73312" lon="0.6535">
        <ele>1665.1</ele>
        <time>2016-10-21T10:45:09Z</time>
      </trkpt>
      <trkpt lat="42.7332" lon="0.6534">
        <ele>1664</ele>
        <time>2016-10-21T10:45:17Z</time>
      </trkpt>
      <trkpt lat="42.73327" lon="0.65331">
        <ele>1662.8</ele>
        <time>2016-10-21T10:45:26Z</time>
      </trkpt>
      <trkpt lat="42.73334" lon="0.65322">
        <ele>1661.7</ele>
        <time>2016-10-21T10:45:34Z</time>
      </trkpt>
      <trkpt lat="42.73341" lon="0.6531">
        <ele>1660.3</ele>
        <time>2016-10-21T10:45:43Z</time>
      </trkpt>
      <trkpt lat="42.73346" lon="0.653">
        <ele>1659.3</ele>
        <time>2016-10-21T10:45:50Z</time>
      </trkpt>
      <trkpt lat="42.73353" lon="0.6529">
        <ele>1658</ele>
        <time>2016-10-21T10:46:04Z</time>
      </trkpt>
      <trkpt lat="42.73361" lon="0.65283">
        <ele>1657.4</ele>
        <time>2016-10-21T10:46:12Z</time>
      </trkpt>
      <trkpt lat="42.7337" lon="0.65277">
        <ele>1656.6</ele>
        <time>2016-10-21T10:46:19Z</time>
      </trkpt>
      <trkpt lat="42.73377" lon="0.6527">
        <ele>1655.1</ele>
        <time>2016-10-21T10:46:27Z</time>
      </trkpt>
      <trkpt lat="42.73383" lon="0.6526">
        <ele>1653.6</ele>
        <time>2016-10-21T10:46:35Z</time>
      </trkpt>
      <trkpt lat="42.73392" lon="0.65257">
        <ele>1652.6</ele>
        <time>2016-10-21T10:46:42Z</time>
      </trkpt>
      <trkpt lat="42.73399" lon="0.6525">
        <ele>1650.9</ele>
        <time>2016-10-21T10:46:58Z</time>
      </trkpt>
      <trkpt lat="42.7341" lon="0.65244">
        <ele>1650.2</ele>
        <time>2016-10-21T10:47:54Z</time>
      </trkpt>
      <trkpt lat="42.73415" lon="0.65235">
        <ele>1649.1</ele>
        <time>2016-10-21T10:48:06Z</time>
      </trkpt>
      <trkpt lat="42.73423" lon="0.65228">
        <ele>1648.2</ele>
        <time>2016-10-21T10:48:17Z</time>
      </trkpt>
      <trkpt lat="42.73432" lon="0.65224">
        <ele>1647.5</ele>
        <time>2016-10-21T10:48:27Z</time>
      </trkpt>
      <trkpt lat="42.73441" lon="0.65224">
        <ele>1646.4</ele>
        <time>2016-10-21T10:48:36Z</time>
      </trkpt>
      <trkpt lat="42.73453" lon="0.65223">
        <ele>1645.2</ele>
        <time>2016-10-21T10:48:45Z</time>
      </trkpt>
      <trkpt lat="42.73463" lon="0.6522">
        <ele>1644.6</ele>
        <time>2016-10-21T10:48:53Z</time>
      </trkpt>
      <trkpt lat="42.73472" lon="0.65213">
        <ele>1643.6</ele>
        <time>2016-10-21T10:49:04Z</time>
      </trkpt>
      <trkpt lat="42.7348" lon="0.65205">
        <ele>1642.6</ele>
        <time>2016-10-21T10:49:13Z</time>
      </trkpt>
      <trkpt lat="42.73489" lon="0.65199">
        <ele>1641.7</ele>
        <time>2016-10-21T10:49:21Z</time>
      </trkpt>
      <trkpt lat="42.73498" lon="0.65192">
        <ele>1640.7</ele>
        <time>2016-10-21T10:49:30Z</time>
      </trkpt>
      <trkpt lat="42.73506" lon="0.65186">
        <ele>1640.1</ele>
        <time>2016-10-21T10:49:38Z</time>
      </trkpt>
      <trkpt lat="42.73516" lon="0.65178">
        <ele>1638.9</ele>
        <time>2016-10-21T10:49:46Z</time>
      </trkpt>
      <trkpt lat="42.73523" lon="0.65179">
        <ele>1636.9</ele>
        <time>2016-10-21T10:50:06Z</time>
      </trkpt>
      <trkpt lat="42.73532" lon="0.6518">
        <ele>1634.2</ele>
        <time>2016-10-21T10:50:19Z</time>
      </trkpt>
      <trkpt lat="42.73541" lon="0.65181">
        <ele>1632.6</ele>
        <time>2016-10-21T10:50:28Z</time>
      </trkpt>
      <trkpt lat="42.7355" lon="0.65178">
        <ele>1631.4</ele>
        <time>2016-10-21T10:50:37Z</time>
      </trkpt>
      <trkpt lat="42.7356" lon="0.65176">
        <ele>1629.2</ele>
        <time>2016-10-21T10:50:46Z</time>
      </trkpt>
      <trkpt lat="42.73569" lon="0.65177">
        <ele>1627.9</ele>
        <time>2016-10-21T10:50:54Z</time>
      </trkpt>
      <trkpt lat="42.73578" lon="0.65174">
        <ele>1626.1</ele>
        <time>2016-10-21T10:51:05Z</time>
      </trkpt>
      <trkpt lat="42.73587" lon="0.65172">
        <ele>1623.8</ele>
        <time>2016-10-21T10:51:15Z</time>
      </trkpt>
      <trkpt lat="42.73595" lon="0.65168">
        <ele>1622.2</ele>
        <time>2016-10-21T10:51:25Z</time>
      </trkpt>
      <trkpt lat="42.73605" lon="0.65163">
        <ele>1621</ele>
        <time>2016-10-21T10:51:34Z</time>
      </trkpt>
      <trkpt lat="42.73611" lon="0.65154">
        <ele>1619.7</ele>
        <time>2016-10-21T10:51:42Z</time>
      </trkpt>
      <trkpt lat="42.73618" lon="0.65145">
        <ele>1618.7</ele>
        <time>2016-10-21T10:51:50Z</time>
      </trkpt>
      <trkpt lat="42.73627" lon="0.6514">
        <ele>1617.9</ele>
        <time>2016-10-21T10:51:58Z</time>
      </trkpt>
      <trkpt lat="42.73637" lon="0.65135">
        <ele>1617</ele>
        <time>2016-10-21T10:52:06Z</time>
      </trkpt>
      <trkpt lat="42.73645" lon="0.65129">
        <ele>1616.3</ele>
        <time>2016-10-21T10:52:14Z</time>
      </trkpt>
      <trkpt lat="42.73651" lon="0.65121">
        <ele>1615.9</ele>
        <time>2016-10-21T10:52:22Z</time>
      </trkpt>
      <trkpt lat="42.73659" lon="0.65116">
        <ele>1614.8</ele>
        <time>2016-10-21T10:52:31Z</time>
      </trkpt>
      <trkpt lat="42.73668" lon="0.6511">
        <ele>1613.7</ele>
        <time>2016-10-21T10:52:40Z</time>
      </trkpt>
      <trkpt lat="42.73677" lon="0.65105">
        <ele>1612.1</ele>
        <time>2016-10-21T10:52:50Z</time>
      </trkpt>
      <trkpt lat="42.73685" lon="0.65102">
        <ele>1610.2</ele>
        <time>2016-10-21T10:52:59Z</time>
      </trkpt>
      <trkpt lat="42.73693" lon="0.65096">
        <ele>1608.3</ele>
        <time>2016-10-21T10:53:09Z</time>
      </trkpt>
      <trkpt lat="42.73701" lon="0.6509">
        <ele>1606.4</ele>
        <time>2016-10-21T10:53:18Z</time>
      </trkpt>
      <trkpt lat="42.73709" lon="0.65084">
        <ele>1605.2</ele>
        <time>2016-10-21T10:53:26Z</time>
      </trkpt>
      <trkpt lat="42.73718" lon="0.65082">
        <ele>1603.6</ele>
        <time>2016-10-21T10:53:35Z</time>
      </trkpt>
      <trkpt lat="42.73728" lon="0.65081">
        <ele>1602</ele>
        <time>2016-10-21T10:53:44Z</time>
      </trkpt>
      <trkpt lat="42.73737" lon="0.65079">
        <ele>1600</ele>
        <time>2016-10-21T10:54:19Z</time>
      </trkpt>
      <trkpt lat="42.73746" lon="0.65079">
        <ele>1599.1</ele>
        <time>2016-10-21T10:54:29Z</time>
      </trkpt>
      <trkpt lat="42.73756" lon="0.65079">
        <ele>1598</ele>
        <time>2016-10-21T10:54:39Z</time>
      </trkpt>
      <trkpt lat="42.73765" lon="0.65078">
        <ele>1596.7</ele>
        <time>2016-10-21T10:54:49Z</time>
      </trkpt>
      <trkpt lat="42.73774" lon="0.65075">
        <ele>1595.7</ele>
        <time>2016-10-21T10:54:58Z</time>
      </trkpt>
      <trkpt lat="42.73781" lon="0.65073">
        <ele>1593.5</ele>
        <time>2016-10-21T10:55:09Z</time>
      </trkpt>
      <trkpt lat="42.73791" lon="0.65077">
        <ele>1592.6</ele>
        <time>2016-10-21T10:55:22Z</time>
      </trkpt>
      <trkpt lat="42.73799" lon="0.65083">
        <ele>1592.9</ele>
        <time>2016-10-21T10:55:31Z</time>
      </trkpt>
      <trkpt lat="42.73808" lon="0.65087">
        <ele>1593.6</ele>
        <time>2016-10-21T10:55:40Z</time>
      </trkpt>
      <trkpt lat="42.73817" lon="0.65089">
        <ele>1594.4</ele>
        <time>2016-10-21T10:55:49Z</time>
      </trkpt>
      <trkpt lat="42.73826" lon="0.65092">
        <ele>1594.9</ele>
        <time>2016-10-21T10:55:57Z</time>
      </trkpt>
      <trkpt lat="42.73834" lon="0.65097">
        <ele>1595.9</ele>
        <time>2016-10-21T10:56:06Z</time>
      </trkpt>
      <trkpt lat="42.73843" lon="0.65101">
        <ele>1596.4</ele>
        <time>2016-10-21T10:56:14Z</time>
      </trkpt>
      <trkpt lat="42.73853" lon="0.65107">
        <ele>1596.4</ele>
        <time>2016-10-21T10:56:22Z</time>
      </trkpt>
      <trkpt lat="42.73861" lon="0.65112">
        <ele>1596.4</ele>
        <time>2016-10-21T10:56:30Z</time>
      </trkpt>
      <trkpt lat="42.7387" lon="0.65111">
        <ele>1596.5</ele>
        <time>2016-10-21T10:56:38Z</time>
      </trkpt>
      <trkpt lat="42.73879" lon="0.65106">
        <ele>1597.3</ele>
        <time>2016-10-21T10:56:47Z</time>
      </trkpt>
      <trkpt lat="42.73886" lon="0.65101">
        <ele>1598.4</ele>
        <time>2016-10-21T10:56:55Z</time>
      </trkpt>
      <trkpt lat="42.73896" lon="0.651">
        <ele>1599.2</ele>
        <time>2016-10-21T10:57:03Z</time>
      </trkpt>
      <trkpt lat="42.73906" lon="0.65098">
        <ele>1599.7</ele>
        <time>2016-10-21T10:57:11Z</time>
      </trkpt>
      <trkpt lat="42.73915" lon="0.65098">
        <ele>1600.1</ele>
        <time>2016-10-21T10:57:19Z</time>
      </trkpt>
      <trkpt lat="42.73925" lon="0.65098">
        <ele>1600.3</ele>
        <time>2016-10-21T10:57:28Z</time>
      </trkpt>
      <trkpt lat="42.73935" lon="0.65098">
        <ele>1600.6</ele>
        <time>2016-10-21T10:57:36Z</time>
      </trkpt>
      <trkpt lat="42.73944" lon="0.65099">
        <ele>1600.6</ele>
        <time>2016-10-21T10:57:44Z</time>
      </trkpt>
      <trkpt lat="42.73954" lon="0.651">
        <ele>1600.9</ele>
        <time>2016-10-21T10:57:52Z</time>
      </trkpt>
      <trkpt lat="42.73963" lon="0.65098">
        <ele>1601.2</ele>
        <time>2016-10-21T10:58:00Z</time>
      </trkpt>
      <trkpt lat="42.73973" lon="0.65099">
        <ele>1600.7</ele>
        <time>2016-10-21T10:58:08Z</time>
      </trkpt>
      <trkpt lat="42.73983" lon="0.651">
        <ele>1600.8</ele>
        <time>2016-10-21T10:58:17Z</time>
      </trkpt>
      <trkpt lat="42.73993" lon="0.65101">
        <ele>1601.1</ele>
        <time>2016-10-21T10:58:25Z</time>
      </trkpt>
      <trkpt lat="42.74003" lon="0.65103">
        <ele>1601.5</ele>
        <time>2016-10-21T10:58:33Z</time>
      </trkpt>
      <trkpt lat="42.74012" lon="0.65104">
        <ele>1602.4</ele>
        <time>2016-10-21T10:58:41Z</time>
      </trkpt>
      <trkpt lat="42.74021" lon="0.65104">
        <ele>1602.8</ele>
        <time>2016-10-21T10:58:49Z</time>
      </trkpt>
      <trkpt lat="42.74031" lon="0.65105">
        <ele>1603.2</ele>
        <time>2016-10-21T10:58:57Z</time>
      </trkpt>
      <trkpt lat="42.74041" lon="0.65105">
        <ele>1604.1</ele>
        <time>2016-10-21T10:59:05Z</time>
      </trkpt>
      <trkpt lat="42.74051" lon="0.65104">
        <ele>1604.5</ele>
        <time>2016-10-21T10:59:13Z</time>
      </trkpt>
      <trkpt lat="42.7406" lon="0.65102">
        <ele>1605.2</ele>
        <time>2016-10-21T10:59:21Z</time>
      </trkpt>
      <trkpt lat="42.74069" lon="0.65101">
        <ele>1605.6</ele>
        <time>2016-10-21T10:59:29Z</time>
      </trkpt>
      <trkpt lat="42.74079" lon="0.65096">
        <ele>1605.9</ele>
        <time>2016-10-21T10:59:37Z</time>
      </trkpt>
      <trkpt lat="42.74089" lon="0.65094">
        <ele>1606.2</ele>
        <time>2016-10-21T10:59:45Z</time>
      </trkpt>
      <trkpt lat="42.74099" lon="0.65095">
        <ele>1606.9</ele>
        <time>2016-10-21T10:59:57Z</time>
      </trkpt>
      <trkpt lat="42.74108" lon="0.65094">
        <ele>1608.8</ele>
        <time>2016-10-21T11:00:09Z</time>
      </trkpt>
      <trkpt lat="42.74117" lon="0.65091">
        <ele>1609.4</ele>
        <time>2016-10-21T11:00:18Z</time>
      </trkpt>
      <trkpt lat="42.74126" lon="0.6509">
        <ele>1609.4</ele>
        <time>2016-10-21T11:00:27Z</time>
      </trkpt>
      <trkpt lat="42.74134" lon="0.65088">
        <ele>1609.8</ele>
        <time>2016-10-21T11:00:34Z</time>
      </trkpt>
      <trkpt lat="42.74143" lon="0.65087">
        <ele>1610.8</ele>
        <time>2016-10-21T11:00:43Z</time>
      </trkpt>
      <trkpt lat="42.74153" lon="0.65085">
        <ele>1612</ele>
        <time>2016-10-21T11:00:52Z</time>
      </trkpt>
      <trkpt lat="42.74163" lon="0.65082">
        <ele>1612.2</ele>
        <time>2016-10-21T11:01:00Z</time>
      </trkpt>
      <trkpt lat="42.74169" lon="0.65083">
        <ele>1613.4</ele>
        <time>2016-10-21T11:01:39Z</time>
      </trkpt>
      <trkpt lat="42.74175" lon="0.65073">
        <ele>1613.6</ele>
        <time>2016-10-21T11:02:18Z</time>
      </trkpt>
      <trkpt lat="42.74181" lon="0.65064">
        <ele>1613.5</ele>
        <time>2016-10-21T11:02:27Z</time>
      </trkpt>
      <trkpt lat="42.74192" lon="0.6506">
        <ele>1613.8</ele>
        <time>2016-10-21T11:02:37Z</time>
      </trkpt>
      <trkpt lat="42.74201" lon="0.65056">
        <ele>1614.1</ele>
        <time>2016-10-21T11:02:46Z</time>
      </trkpt>
      <trkpt lat="42.7421" lon="0.65049">
        <ele>1614.6</ele>
        <time>2016-10-21T11:02:56Z</time>
      </trkpt>
      <trkpt lat="42.7422" lon="0.65041">
        <ele>1615.9</ele>
        <time>2016-10-21T11:03:07Z</time>
      </trkpt>
      <trkpt lat="42.74228" lon="0.65032">
        <ele>1617.8</ele>
        <time>2016-10-21T11:03:20Z</time>
      </trkpt>
      <trkpt lat="42.74233" lon="0.65021">
        <ele>1619.7</ele>
        <time>2016-10-21T11:03:31Z</time>
      </trkpt>
      <trkpt lat="42.74239" lon="0.65011">
        <ele>1620.2</ele>
        <time>2016-10-21T11:03:40Z</time>
      </trkpt>
      <trkpt lat="42.74247" lon="0.65003">
        <ele>1620.8</ele>
        <time>2016-10-21T11:03:49Z</time>
      </trkpt>
      <trkpt lat="42.74247" lon="0.65006">
        <ele>1620.9</ele>
        <time>2016-10-21T11:04:37Z</time>
      </trkpt>
      <trkpt lat="42.74256" lon="0.65001">
        <ele>1621.7</ele>
        <time>2016-10-21T11:04:52Z</time>
      </trkpt>
      <trkpt lat="42.74266" lon="0.65">
        <ele>1623</ele>
        <time>2016-10-21T11:05:04Z</time>
      </trkpt>
      <trkpt lat="42.74278" lon="0.65007">
        <ele>1624.5</ele>
        <time>2016-10-21T11:05:18Z</time>
      </trkpt>
      <trkpt lat="42.74289" lon="0.65011">
        <ele>1626.2</ele>
        <time>2016-10-21T11:05:29Z</time>
      </trkpt>
      <trkpt lat="42.74298" lon="0.65018">
        <ele>1627.9</ele>
        <time>2016-10-21T11:05:42Z</time>
      </trkpt>
      <trkpt lat="42.74309" lon="0.65024">
        <ele>1631</ele>
        <time>2016-10-21T11:05:58Z</time>
      </trkpt>
      <trkpt lat="42.7432" lon="0.65023">
        <ele>1633</ele>
        <time>2016-10-21T11:06:10Z</time>
      </trkpt>
      <trkpt lat="42.7433" lon="0.6502">
        <ele>1635.1</ele>
        <time>2016-10-21T11:06:24Z</time>
      </trkpt>
      <trkpt lat="42.74341" lon="0.65017">
        <ele>1637.3</ele>
        <time>2016-10-21T11:06:39Z</time>
      </trkpt>
      <trkpt lat="42.74349" lon="0.65012">
        <ele>1639.3</ele>
        <time>2016-10-21T11:06:52Z</time>
      </trkpt>
      <trkpt lat="42.74358" lon="0.65006">
        <ele>1640.9</ele>
        <time>2016-10-21T11:07:05Z</time>
      </trkpt>
      <trkpt lat="42.74364" lon="0.64996">
        <ele>1642.6</ele>
        <time>2016-10-21T11:07:17Z</time>
      </trkpt>
      <trkpt lat="42.7437" lon="0.64985">
        <ele>1644.3</ele>
        <time>2016-10-21T11:07:30Z</time>
      </trkpt>
      <trkpt lat="42.74378" lon="0.64978">
        <ele>1646.1</ele>
        <time>2016-10-21T11:07:43Z</time>
      </trkpt>
      <trkpt lat="42.74384" lon="0.64966">
        <ele>1648.6</ele>
        <time>2016-10-21T11:07:58Z</time>
      </trkpt>
      <trkpt lat="42.74389" lon="0.64954">
        <ele>1649.7</ele>
        <time>2016-10-21T11:08:12Z</time>
      </trkpt>
      <trkpt lat="42.74396" lon="0.64947">
        <ele>1651.7</ele>
        <time>2016-10-21T11:08:26Z</time>
      </trkpt>
      <trkpt lat="42.74406" lon="0.64945">
        <ele>1653.9</ele>
        <time>2016-10-21T11:09:27Z</time>
      </trkpt>
      <trkpt lat="42.74416" lon="0.64942">
        <ele>1654.3</ele>
        <time>2016-10-21T11:09:40Z</time>
      </trkpt>
      <trkpt lat="42.74425" lon="0.64938">
        <ele>1655</ele>
        <time>2016-10-21T11:09:50Z</time>
      </trkpt>
      <trkpt lat="42.74434" lon="0.64932">
        <ele>1655.6</ele>
        <time>2016-10-21T11:09:59Z</time>
      </trkpt>
      <trkpt lat="42.74444" lon="0.64928">
        <ele>1655.8</ele>
        <time>2016-10-21T11:10:08Z</time>
      </trkpt>
      <trkpt lat="42.74453" lon="0.64924">
        <ele>1657.4</ele>
        <time>2016-10-21T11:10:20Z</time>
      </trkpt>
      <trkpt lat="42.74463" lon="0.64919">
        <ele>1658.7</ele>
        <time>2016-10-21T11:10:30Z</time>
      </trkpt>
      <trkpt lat="42.7447" lon="0.64912">
        <ele>1659</ele>
        <time>2016-10-21T11:10:39Z</time>
      </trkpt>
      <trkpt lat="42.74478" lon="0.64905">
        <ele>1659.6</ele>
        <time>2016-10-21T11:10:48Z</time>
      </trkpt>
      <trkpt lat="42.74487" lon="0.64898">
        <ele>1661</ele>
        <time>2016-10-21T11:10:58Z</time>
      </trkpt>
      <trkpt lat="42.74496" lon="0.64892">
        <ele>1661.7</ele>
        <time>2016-10-21T11:11:08Z</time>
      </trkpt>
      <trkpt lat="42.74505" lon="0.64885">
        <ele>1661.9</ele>
        <time>2016-10-21T11:11:25Z</time>
      </trkpt>
      <trkpt lat="42.74513" lon="0.6488">
        <ele>1662.6</ele>
        <time>2016-10-21T11:11:36Z</time>
      </trkpt>
      <trkpt lat="42.74522" lon="0.64876">
        <ele>1664.7</ele>
        <time>2016-10-21T11:11:48Z</time>
      </trkpt>
      <trkpt lat="42.74531" lon="0.64874">
        <ele>1665.2</ele>
        <time>2016-10-21T11:11:57Z</time>
      </trkpt>
      <trkpt lat="42.74542" lon="0.6487">
        <ele>1666.3</ele>
        <time>2016-10-21T11:13:30Z</time>
      </trkpt>
      <trkpt lat="42.74552" lon="0.64865">
        <ele>1666.7</ele>
        <time>2016-10-21T11:13:39Z</time>
      </trkpt>
      <trkpt lat="42.74561" lon="0.64863">
        <ele>1666.5</ele>
        <time>2016-10-21T11:13:49Z</time>
      </trkpt>
      <trkpt lat="42.7457" lon="0.64862">
        <ele>1667.2</ele>
        <time>2016-10-21T11:14:00Z</time>
      </trkpt>
      <trkpt lat="42.7458" lon="0.64863">
        <ele>1668.3</ele>
        <time>2016-10-21T11:14:10Z</time>
      </trkpt>
      <trkpt lat="42.7459" lon="0.64862">
        <ele>1669.1</ele>
        <time>2016-10-21T11:14:19Z</time>
      </trkpt>
      <trkpt lat="42.746" lon="0.64861">
        <ele>1669.7</ele>
        <time>2016-10-21T11:14:28Z</time>
      </trkpt>
      <trkpt lat="42.74609" lon="0.6486">
        <ele>1670.3</ele>
        <time>2016-10-21T11:14:38Z</time>
      </trkpt>
      <trkpt lat="42.74619" lon="0.64856">
        <ele>1671.3</ele>
        <time>2016-10-21T11:14:48Z</time>
      </trkpt>
      <trkpt lat="42.74627" lon="0.64849">
        <ele>1672.3</ele>
        <time>2016-10-21T11:14:57Z</time>
      </trkpt>
      <trkpt lat="42.74633" lon="0.6484">
        <ele>1673.3</ele>
        <time>2016-10-21T11:15:07Z</time>
      </trkpt>
      <trkpt lat="42.74638" lon="0.64828">
        <ele>1674.1</ele>
        <time>2016-10-21T11:15:17Z</time>
      </trkpt>
      <trkpt lat="42.74646" lon="0.64818">
        <ele>1674.8</ele>
        <time>2016-10-21T11:15:27Z</time>
      </trkpt>
      <trkpt lat="42.74654" lon="0.6481">
        <ele>1675.8</ele>
        <time>2016-10-21T11:15:36Z</time>
      </trkpt>
      <trkpt lat="42.74663" lon="0.64807">
        <ele>1676.6</ele>
        <time>2016-10-21T11:15:46Z</time>
      </trkpt>
      <trkpt lat="42.74673" lon="0.64807">
        <ele>1677.4</ele>
        <time>2016-10-21T11:15:55Z</time>
      </trkpt>
      <trkpt lat="42.74682" lon="0.6481">
        <ele>1677.9</ele>
        <time>2016-10-21T11:16:05Z</time>
      </trkpt>
      <trkpt lat="42.74689" lon="0.64814">
        <ele>1678.4</ele>
        <time>2016-10-21T11:16:24Z</time>
      </trkpt>
      <trkpt lat="42.74699" lon="0.64812">
        <ele>1679</ele>
        <time>2016-10-21T11:16:37Z</time>
      </trkpt>
      <trkpt lat="42.7471" lon="0.64807">
        <ele>1678.9</ele>
        <time>2016-10-21T11:16:47Z</time>
      </trkpt>
      <trkpt lat="42.74719" lon="0.64803">
        <ele>1679.7</ele>
        <time>2016-10-21T11:16:57Z</time>
      </trkpt>
      <trkpt lat="42.74729" lon="0.648">
        <ele>1680.8</ele>
        <time>2016-10-21T11:17:07Z</time>
      </trkpt>
      <trkpt lat="42.74739" lon="0.64799">
        <ele>1682.5</ele>
        <time>2016-10-21T11:17:19Z</time>
      </trkpt>
      <trkpt lat="42.74748" lon="0.64795">
        <ele>1683.4</ele>
        <time>2016-10-21T11:17:28Z</time>
      </trkpt>
      <trkpt lat="42.74757" lon="0.64791">
        <ele>1684.1</ele>
        <time>2016-10-21T11:17:38Z</time>
      </trkpt>
      <trkpt lat="42.74766" lon="0.64787">
        <ele>1684.9</ele>
        <time>2016-10-21T11:17:48Z</time>
      </trkpt>
      <trkpt lat="42.74776" lon="0.64785">
        <ele>1685.7</ele>
        <time>2016-10-21T11:17:58Z</time>
      </trkpt>
      <trkpt lat="42.74787" lon="0.64785">
        <ele>1686.9</ele>
        <time>2016-10-21T11:18:09Z</time>
      </trkpt>
      <trkpt lat="42.74796" lon="0.64791">
        <ele>1687.8</ele>
        <time>2016-10-21T11:18:19Z</time>
      </trkpt>
      <trkpt lat="42.74804" lon="0.64799">
        <ele>1688.7</ele>
        <time>2016-10-21T11:18:28Z</time>
      </trkpt>
      <trkpt lat="42.74812" lon="0.64808">
        <ele>1689.3</ele>
        <time>2016-10-21T11:18:37Z</time>
      </trkpt>
      <trkpt lat="42.74821" lon="0.64815">
        <ele>1689.9</ele>
        <time>2016-10-21T11:18:47Z</time>
      </trkpt>
      <trkpt lat="42.74831" lon="0.6482">
        <ele>1691.1</ele>
        <time>2016-10-21T11:18:58Z</time>
      </trkpt>
      <trkpt lat="42.74839" lon="0.64829">
        <ele>1691.9</ele>
        <time>2016-10-21T11:19:08Z</time>
      </trkpt>
      <trkpt lat="42.74845" lon="0.6484">
        <ele>1692.8</ele>
        <time>2016-10-21T11:19:18Z</time>
      </trkpt>
      <trkpt lat="42.74849" lon="0.64853">
        <ele>1692.3</ele>
        <time>2016-10-21T11:19:28Z</time>
      </trkpt>
      <trkpt lat="42.74858" lon="0.64847">
        <ele>1693.1</ele>
        <time>2016-10-21T11:19:41Z</time>
      </trkpt>
      <trkpt lat="42.74867" lon="0.6484">
        <ele>1694.3</ele>
        <time>2016-10-21T11:19:51Z</time>
      </trkpt>
      <trkpt lat="42.74876" lon="0.64831">
        <ele>1695.3</ele>
        <time>2016-10-21T11:20:02Z</time>
      </trkpt>
      <trkpt lat="42.74884" lon="0.64823">
        <ele>1696.6</ele>
        <time>2016-10-21T11:20:15Z</time>
      </trkpt>
      <trkpt lat="42.7489" lon="0.64812">
        <ele>1697.6</ele>
        <time>2016-10-21T11:20:26Z</time>
      </trkpt>
      <trkpt lat="42.74896" lon="0.64803">
        <ele>1699.1</ele>
        <time>2016-10-21T11:20:38Z</time>
      </trkpt>
      <trkpt lat="42.74904" lon="0.64795">
        <ele>1700.5</ele>
        <time>2016-10-21T11:20:49Z</time>
      </trkpt>
      <trkpt lat="42.74913" lon="0.6479">
        <ele>1701.9</ele>
        <time>2016-10-21T11:21:01Z</time>
      </trkpt>
      <trkpt lat="42.74923" lon="0.64786">
        <ele>1703</ele>
        <time>2016-10-21T11:21:11Z</time>
      </trkpt>
      <trkpt lat="42.7493" lon="0.6478">
        <ele>1703.7</ele>
        <time>2016-10-21T11:21:21Z</time>
      </trkpt>
      <trkpt lat="42.74938" lon="0.64772">
        <ele>1705.3</ele>
        <time>2016-10-21T11:21:32Z</time>
      </trkpt>
      <trkpt lat="42.74946" lon="0.64764">
        <ele>1706.1</ele>
        <time>2016-10-21T11:21:42Z</time>
      </trkpt>
      <trkpt lat="42.74954" lon="0.64759">
        <ele>1707.5</ele>
        <time>2016-10-21T11:21:53Z</time>
      </trkpt>
      <trkpt lat="42.74964" lon="0.64755">
        <ele>1709.1</ele>
        <time>2016-10-21T11:22:05Z</time>
      </trkpt>
      <trkpt lat="42.74972" lon="0.6475">
        <ele>1710.1</ele>
        <time>2016-10-21T11:22:15Z</time>
      </trkpt>
      <trkpt lat="42.74982" lon="0.64746">
        <ele>1710.6</ele>
        <time>2016-10-21T11:22:25Z</time>
      </trkpt>
      <trkpt lat="42.74991" lon="0.6474">
        <ele>1711.3</ele>
        <time>2016-10-21T11:22:35Z</time>
      </trkpt>
      <trkpt lat="42.75001" lon="0.64736">
        <ele>1712.1</ele>
        <time>2016-10-21T11:22:45Z</time>
      </trkpt>
      <trkpt lat="42.75009" lon="0.64732">
        <ele>1712.8</ele>
        <time>2016-10-21T11:22:54Z</time>
      </trkpt>
      <trkpt lat="42.75019" lon="0.64727">
        <ele>1713.5</ele>
        <time>2016-10-21T11:23:04Z</time>
      </trkpt>
      <trkpt lat="42.75029" lon="0.64722">
        <ele>1715.1</ele>
        <time>2016-10-21T11:23:41Z</time>
      </trkpt>
      <trkpt lat="42.75038" lon="0.6472">
        <ele>1716</ele>
        <time>2016-10-21T11:23:53Z</time>
      </trkpt>
      <trkpt lat="42.75046" lon="0.64715">
        <ele>1717.7</ele>
        <time>2016-10-21T11:24:05Z</time>
      </trkpt>
      <trkpt lat="42.75056" lon="0.6471">
        <ele>1718.8</ele>
        <time>2016-10-21T11:24:16Z</time>
      </trkpt>
      <trkpt lat="42.75065" lon="0.64706">
        <ele>1719.7</ele>
        <time>2016-10-21T11:24:27Z</time>
      </trkpt>
      <trkpt lat="42.75074" lon="0.64701">
        <ele>1720.7</ele>
        <time>2016-10-21T11:24:37Z</time>
      </trkpt>
      <trkpt lat="42.75081" lon="0.64696">
        <ele>1722.3</ele>
        <time>2016-10-21T11:24:48Z</time>
      </trkpt>
      <trkpt lat="42.75089" lon="0.64704">
        <ele>1725</ele>
        <time>2016-10-21T11:25:04Z</time>
      </trkpt>
      <trkpt lat="42.75098" lon="0.64707">
        <ele>1727.5</ele>
        <time>2016-10-21T11:25:18Z</time>
      </trkpt>
      <trkpt lat="42.75105" lon="0.64716">
        <ele>1730.5</ele>
        <time>2016-10-21T11:25:31Z</time>
      </trkpt>
      <trkpt lat="42.75113" lon="0.64725">
        <ele>1732.9</ele>
        <time>2016-10-21T11:25:44Z</time>
      </trkpt>
      <trkpt lat="42.75118" lon="0.64734">
        <ele>1734.8</ele>
        <time>2016-10-21T11:25:57Z</time>
      </trkpt>
      <trkpt lat="42.75128" lon="0.6474">
        <ele>1736.6</ele>
        <time>2016-10-21T11:26:10Z</time>
      </trkpt>
      <trkpt lat="42.75135" lon="0.64749">
        <ele>1738.6</ele>
        <time>2016-10-21T11:26:23Z</time>
      </trkpt>
      <trkpt lat="42.75142" lon="0.64759">
        <ele>1739.5</ele>
        <time>2016-10-21T11:26:35Z</time>
      </trkpt>
      <trkpt lat="42.75149" lon="0.64769">
        <ele>1741.3</ele>
        <time>2016-10-21T11:26:46Z</time>
      </trkpt>
      <trkpt lat="42.75157" lon="0.64776">
        <ele>1743.3</ele>
        <time>2016-10-21T11:26:58Z</time>
      </trkpt>
      <trkpt lat="42.75166" lon="0.64783">
        <ele>1745.6</ele>
        <time>2016-10-21T11:27:10Z</time>
      </trkpt>
      <trkpt lat="42.75172" lon="0.64794">
        <ele>1746.6</ele>
        <time>2016-10-21T11:27:21Z</time>
      </trkpt>
      <trkpt lat="42.75176" lon="0.64808">
        <ele>1747.9</ele>
        <time>2016-10-21T11:27:32Z</time>
      </trkpt>
      <trkpt lat="42.75184" lon="0.64818">
        <ele>1749.2</ele>
        <time>2016-10-21T11:27:42Z</time>
      </trkpt>
      <trkpt lat="42.7519" lon="0.64827">
        <ele>1749.8</ele>
        <time>2016-10-21T11:27:51Z</time>
      </trkpt>
      <trkpt lat="42.75196" lon="0.64838">
        <ele>1750.8</ele>
        <time>2016-10-21T11:28:00Z</time>
      </trkpt>
      <trkpt lat="42.752" lon="0.64848">
        <ele>1751.4</ele>
        <time>2016-10-21T11:28:09Z</time>
      </trkpt>
      <trkpt lat="42.75205" lon="0.6486">
        <ele>1752.4</ele>
        <time>2016-10-21T11:28:18Z</time>
      </trkpt>
      <trkpt lat="42.75209" lon="0.64872">
        <ele>1753.4</ele>
        <time>2016-10-21T11:28:27Z</time>
      </trkpt>
      <trkpt lat="42.75212" lon="0.64885">
        <ele>1754.3</ele>
        <time>2016-10-21T11:28:36Z</time>
      </trkpt>
      <trkpt lat="42.75216" lon="0.64897">
        <ele>1755.2</ele>
        <time>2016-10-21T11:28:45Z</time>
      </trkpt>
      <trkpt lat="42.75223" lon="0.64899">
        <ele>1755.6</ele>
        <time>2016-10-21T11:31:14Z</time>
      </trkpt>
      <trkpt lat="42.75231" lon="0.64894">
        <ele>1754.5</ele>
        <time>2016-10-21T11:33:02Z</time>
      </trkpt>
      <trkpt lat="42.75242" lon="0.6489">
        <ele>1754.4</ele>
        <time>2016-10-21T11:34:20Z</time>
      </trkpt>
      <trkpt lat="42.75252" lon="0.6489">
        <ele>1754.3</ele>
        <time>2016-10-21T11:34:29Z</time>
      </trkpt>
      <trkpt lat="42.75261" lon="0.64893">
        <ele>1753.7</ele>
        <time>2016-10-21T11:34:43Z</time>
      </trkpt>
      <trkpt lat="42.75269" lon="0.64895">
        <ele>1754.1</ele>
        <time>2016-10-21T11:35:20Z</time>
      </trkpt>
      <trkpt lat="42.75276" lon="0.64903">
        <ele>1753.9</ele>
        <time>2016-10-21T11:35:44Z</time>
      </trkpt>
      <trkpt lat="42.75284" lon="0.64907">
        <ele>1753.9</ele>
        <time>2016-10-21T11:35:53Z</time>
      </trkpt>
      <trkpt lat="42.75292" lon="0.64911">
        <ele>1753.2</ele>
        <time>2016-10-21T11:36:13Z</time>
      </trkpt>
      <trkpt lat="42.753" lon="0.64918">
        <ele>1753.3</ele>
        <time>2016-10-21T11:36:42Z</time>
      </trkpt>
      <trkpt lat="42.75309" lon="0.64924">
        <ele>1753</ele>
        <time>2016-10-21T11:36:58Z</time>
      </trkpt>
      <trkpt lat="42.75318" lon="0.64929">
        <ele>1753.2</ele>
        <time>2016-10-21T11:37:07Z</time>
      </trkpt>
      <trkpt lat="42.75325" lon="0.64937">
        <ele>1752.9</ele>
        <time>2016-10-21T11:37:17Z</time>
      </trkpt>
      <trkpt lat="42.75333" lon="0.64944">
        <ele>1752.8</ele>
        <time>2016-10-21T11:37:25Z</time>
      </trkpt>
      <trkpt lat="42.75341" lon="0.64948">
        <ele>1752.3</ele>
        <time>2016-10-21T11:37:34Z</time>
      </trkpt>
      <trkpt lat="42.7535" lon="0.64953">
        <ele>1751.3</ele>
        <time>2016-10-21T11:37:43Z</time>
      </trkpt>
      <trkpt lat="42.75359" lon="0.6496">
        <ele>1750.1</ele>
        <time>2016-10-21T11:37:54Z</time>
      </trkpt>
      <trkpt lat="42.75367" lon="0.64968">
        <ele>1749.2</ele>
        <time>2016-10-21T11:38:02Z</time>
      </trkpt>
      <trkpt lat="42.75375" lon="0.64975">
        <ele>1747.6</ele>
        <time>2016-10-21T11:38:11Z</time>
      </trkpt>
      <trkpt lat="42.75383" lon="0.64982">
        <ele>1746.5</ele>
        <time>2016-10-21T11:38:20Z</time>
      </trkpt>
      <trkpt lat="42.75391" lon="0.64989">
        <ele>1745.4</ele>
        <time>2016-10-21T11:38:29Z</time>
      </trkpt>
      <trkpt lat="42.75399" lon="0.64995">
        <ele>1743.7</ele>
        <time>2016-10-21T11:38:38Z</time>
      </trkpt>
      <trkpt lat="42.75407" lon="0.65001">
        <ele>1742.2</ele>
        <time>2016-10-21T11:38:47Z</time>
      </trkpt>
      <trkpt lat="42.75415" lon="0.65008">
        <ele>1740.6</ele>
        <time>2016-10-21T11:38:56Z</time>
      </trkpt>
      <trkpt lat="42.75423" lon="0.65009">
        <ele>1738.1</ele>
        <time>2016-10-21T11:39:09Z</time>
      </trkpt>
      <trkpt lat="42.75432" lon="0.65013">
        <ele>1734.1</ele>
        <time>2016-10-21T11:39:20Z</time>
      </trkpt>
      <trkpt lat="42.7544" lon="0.65021">
        <ele>1730.4</ele>
        <time>2016-10-21T11:39:30Z</time>
      </trkpt>
      <trkpt lat="42.75445" lon="0.65029">
        <ele>1727.1</ele>
        <time>2016-10-21T11:39:39Z</time>
      </trkpt>
      <trkpt lat="42.75452" lon="0.65039">
        <ele>1723.3</ele>
        <time>2016-10-21T11:39:49Z</time>
      </trkpt>
      <trkpt lat="42.75462" lon="0.65043">
        <ele>1720.6</ele>
        <time>2016-10-21T11:40:00Z</time>
      </trkpt>
      <trkpt lat="42.75469" lon="0.65051">
        <ele>1718.9</ele>
        <time>2016-10-21T11:40:09Z</time>
      </trkpt>
      <trkpt lat="42.75477" lon="0.65059">
        <ele>1716.8</ele>
        <time>2016-10-21T11:40:18Z</time>
      </trkpt>
      <trkpt lat="42.75485" lon="0.65066">
        <ele>1714.8</ele>
        <time>2016-10-21T11:40:27Z</time>
      </trkpt>
      <trkpt lat="42.75493" lon="0.65074">
        <ele>1712.4</ele>
        <time>2016-10-21T11:40:37Z</time>
      </trkpt>
      <trkpt lat="42.755" lon="0.65083">
        <ele>1710.1</ele>
        <time>2016-10-21T11:40:47Z</time>
      </trkpt>
      <trkpt lat="42.75508" lon="0.6509">
        <ele>1707</ele>
        <time>2016-10-21T11:40:59Z</time>
      </trkpt>
      <trkpt lat="42.75516" lon="0.65097">
        <ele>1701.4</ele>
        <time>2016-10-21T11:41:13Z</time>
      </trkpt>
      <trkpt lat="42.75524" lon="0.65104">
        <ele>1698</ele>
        <time>2016-10-21T11:41:24Z</time>
      </trkpt>
      <trkpt lat="42.75533" lon="0.65104">
        <ele>1694.5</ele>
        <time>2016-10-21T11:41:35Z</time>
      </trkpt>
      <trkpt lat="42.75539" lon="0.65114">
        <ele>1691.7</ele>
        <time>2016-10-21T11:41:46Z</time>
      </trkpt>
      <trkpt lat="42.75547" lon="0.65114">
        <ele>1688.6</ele>
        <time>2016-10-21T11:41:59Z</time>
      </trkpt>
      <trkpt lat="42.75556" lon="0.65119">
        <ele>1685.4</ele>
        <time>2016-10-21T11:42:11Z</time>
      </trkpt>
      <trkpt lat="42.7556" lon="0.65129">
        <ele>1682.2</ele>
        <time>2016-10-21T11:42:30Z</time>
      </trkpt>
      <trkpt lat="42.75562" lon="0.6514">
        <ele>1680.1</ele>
        <time>2016-10-21T11:42:46Z</time>
      </trkpt>
      <trkpt lat="42.7557" lon="0.65151">
        <ele>1676.4</ele>
        <time>2016-10-21T11:43:12Z</time>
      </trkpt>
      <trkpt lat="42.75577" lon="0.65157">
        <ele>1675.8</ele>
        <time>2016-10-21T11:43:34Z</time>
      </trkpt>
      <trkpt lat="42.75586" lon="0.65157">
        <ele>1674.4</ele>
        <time>2016-10-21T11:43:46Z</time>
      </trkpt>
      <trkpt lat="42.75593" lon="0.65166">
        <ele>1670.9</ele>
        <time>2016-10-21T11:44:05Z</time>
      </trkpt>
      <trkpt lat="42.75603" lon="0.65165">
        <ele>1667.5</ele>
        <time>2016-10-21T11:44:18Z</time>
      </trkpt>
      <trkpt lat="42.75609" lon="0.65163">
        <ele>1664</ele>
        <time>2016-10-21T11:44:29Z</time>
      </trkpt>
      <trkpt lat="42.75617" lon="0.65167">
        <ele>1660.8</ele>
        <time>2016-10-21T11:44:42Z</time>
      </trkpt>
      <trkpt lat="42.75628" lon="0.65167">
        <ele>1656.5</ele>
        <time>2016-10-21T11:44:56Z</time>
      </trkpt>
      <trkpt lat="42.75636" lon="0.65171">
        <ele>1651.4</ele>
        <time>2016-10-21T11:45:18Z</time>
      </trkpt>
      <trkpt lat="42.75645" lon="0.65177">
        <ele>1650.8</ele>
        <time>2016-10-21T11:45:28Z</time>
      </trkpt>
      <trkpt lat="42.7565" lon="0.65189">
        <ele>1649.4</ele>
        <time>2016-10-21T11:45:41Z</time>
      </trkpt>
      <trkpt lat="42.75656" lon="0.65201">
        <ele>1648.6</ele>
        <time>2016-10-21T11:45:49Z</time>
      </trkpt>
      <trkpt lat="42.75661" lon="0.65211">
        <ele>1647.9</ele>
        <time>2016-10-21T11:45:56Z</time>
      </trkpt>
      <trkpt lat="42.75666" lon="0.65223">
        <ele>1647</ele>
        <time>2016-10-21T11:46:04Z</time>
      </trkpt>
      <trkpt lat="42.75672" lon="0.65233">
        <ele>1645.7</ele>
        <time>2016-10-21T11:46:12Z</time>
      </trkpt>
      <trkpt lat="42.75675" lon="0.65242">
        <ele>1644.4</ele>
        <time>2016-10-21T11:46:28Z</time>
      </trkpt>
      <trkpt lat="42.75681" lon="0.65255">
        <ele>1644.2</ele>
        <time>2016-10-21T11:46:36Z</time>
      </trkpt>
      <trkpt lat="42.75686" lon="0.65266">
        <ele>1643.6</ele>
        <time>2016-10-21T11:46:44Z</time>
      </trkpt>
      <trkpt lat="42.75691" lon="0.65277">
        <ele>1642.8</ele>
        <time>2016-10-21T11:46:52Z</time>
      </trkpt>
      <trkpt lat="42.75697" lon="0.65284">
        <ele>1641.7</ele>
        <time>2016-10-21T11:47:01Z</time>
      </trkpt>
      <trkpt lat="42.75703" lon="0.65277">
        <ele>1640.4</ele>
        <time>2016-10-21T11:47:10Z</time>
      </trkpt>
      <trkpt lat="42.75704" lon="0.65276">
        <ele>1639.6</ele>
        <time>2016-10-21T11:47:27Z</time>
      </trkpt>
      <trkpt lat="42.75697" lon="0.65262">
        <ele>1638.7</ele>
        <time>2016-10-21T11:47:38Z</time>
      </trkpt>
      <trkpt lat="42.75693" lon="0.65251">
        <ele>1637.7</ele>
        <time>2016-10-21T11:47:46Z</time>
      </trkpt>
      <trkpt lat="42.75691" lon="0.65237">
        <ele>1636.6</ele>
        <time>2016-10-21T11:47:55Z</time>
      </trkpt>
      <trkpt lat="42.7569" lon="0.65221">
        <ele>1635.5</ele>
        <time>2016-10-21T11:48:05Z</time>
      </trkpt>
      <trkpt lat="42.75686" lon="0.65204">
        <ele>1634.4</ele>
        <time>2016-10-21T11:48:14Z</time>
      </trkpt>
      <trkpt lat="42.75686" lon="0.65189">
        <ele>1633.3</ele>
        <time>2016-10-21T11:48:23Z</time>
      </trkpt>
      <trkpt lat="42.75683" lon="0.65176">
        <ele>1632.4</ele>
        <time>2016-10-21T11:48:31Z</time>
      </trkpt>
      <trkpt lat="42.7568" lon="0.65163">
        <ele>1631.5</ele>
        <time>2016-10-21T11:48:39Z</time>
      </trkpt>
      <trkpt lat="42.75676" lon="0.65149">
        <ele>1630.7</ele>
        <time>2016-10-21T11:48:47Z</time>
      </trkpt>
      <trkpt lat="42.75678" lon="0.65137">
        <ele>1629.9</ele>
        <time>2016-10-21T11:48:54Z</time>
      </trkpt>
      <trkpt lat="42.75686" lon="0.65131">
        <ele>1629.2</ele>
        <time>2016-10-21T11:49:01Z</time>
      </trkpt>
      <trkpt lat="42.75692" lon="0.6514">
        <ele>1628</ele>
        <time>2016-10-21T11:49:07Z</time>
      </trkpt>
      <trkpt lat="42.75696" lon="0.65152">
        <ele>1626.4</ele>
        <time>2016-10-21T11:49:14Z</time>
      </trkpt>
      <trkpt lat="42.757" lon="0.65162">
        <ele>1625</ele>
        <time>2016-10-21T11:49:22Z</time>
      </trkpt>
      <trkpt lat="42.75705" lon="0.65173">
        <ele>1624.2</ele>
        <time>2016-10-21T11:49:30Z</time>
      </trkpt>
      <trkpt lat="42.75708" lon="0.65184">
        <ele>1623.4</ele>
        <time>2016-10-21T11:49:38Z</time>
      </trkpt>
      <trkpt lat="42.75712" lon="0.65196">
        <ele>1623.1</ele>
        <time>2016-10-21T11:49:46Z</time>
      </trkpt>
      <trkpt lat="42.75715" lon="0.65208">
        <ele>1622.4</ele>
        <time>2016-10-21T11:49:54Z</time>
      </trkpt>
      <trkpt lat="42.75718" lon="0.65221">
        <ele>1621.6</ele>
        <time>2016-10-21T11:50:02Z</time>
      </trkpt>
      <trkpt lat="42.75722" lon="0.65235">
        <ele>1620.3</ele>
        <time>2016-10-21T11:50:12Z</time>
      </trkpt>
      <trkpt lat="42.7573" lon="0.65235">
        <ele>1618.8</ele>
        <time>2016-10-21T11:50:22Z</time>
      </trkpt>
      <trkpt lat="42.75734" lon="0.65222">
        <ele>1617.3</ele>
        <time>2016-10-21T11:50:33Z</time>
      </trkpt>
      <trkpt lat="42.75732" lon="0.6521">
        <ele>1616.4</ele>
        <time>2016-10-21T11:50:41Z</time>
      </trkpt>
      <trkpt lat="42.75731" lon="0.65196">
        <ele>1615.8</ele>
        <time>2016-10-21T11:50:49Z</time>
      </trkpt>
      <trkpt lat="42.7573" lon="0.65182">
        <ele>1614.6</ele>
        <time>2016-10-21T11:51:02Z</time>
      </trkpt>
      <trkpt lat="42.75731" lon="0.65167">
        <ele>1613.9</ele>
        <time>2016-10-21T11:51:12Z</time>
      </trkpt>
      <trkpt lat="42.75735" lon="0.65154">
        <ele>1613</ele>
        <time>2016-10-21T11:51:21Z</time>
      </trkpt>
      <trkpt lat="42.75742" lon="0.65157">
        <ele>1611.3</ele>
        <time>2016-10-21T11:51:45Z</time>
      </trkpt>
      <trkpt lat="42.75747" lon="0.65159">
        <ele>1608.3</ele>
        <time>2016-10-21T11:51:57Z</time>
      </trkpt>
      <trkpt lat="42.75751" lon="0.6517">
        <ele>1606.7</ele>
        <time>2016-10-21T11:56:12Z</time>
      </trkpt>
      <trkpt lat="42.75757" lon="0.6517">
        <ele>1606.5</ele>
        <time>2016-10-21T11:56:27Z</time>
      </trkpt>
      <trkpt lat="42.75767" lon="0.65169">
        <ele>1602.9</ele>
        <time>2016-10-21T11:56:43Z</time>
      </trkpt>
      <trkpt lat="42.75767" lon="0.65154">
        <ele>1601.7</ele>
        <time>2016-10-21T11:56:55Z</time>
      </trkpt>
      <trkpt lat="42.75769" lon="0.65142">
        <ele>1602.1</ele>
        <time>2016-10-21T11:57:05Z</time>
      </trkpt>
      <trkpt lat="42.75771" lon="0.65128">
        <ele>1602.8</ele>
        <time>2016-10-21T11:57:24Z</time>
      </trkpt>
    </trkseg>
  </trk>
</gpx>